ftp/pub/palmer/observations_modified/2017/June/AR170617_BASE.txt

Download

Sample DateTime	Unit Id	WS Avg 2min	WD Avg 2min	WGS 10min	WGD 10min	Air Temp	Rel Humidity	Dew Point	Pyranometer	Quantum	Air Pressure	Snow Level	Rainfall	PW Current	Visibility	CBase 1	CBase 2	CBase 3	Vert Vis
2017/06/17 00:00:00	BASE	9.40	306	12.14	315	0.0	92	-1.1	0	0	990.4	NA	0.0000	-SN	9999	0	0	0	1250
2017/06/17 00:01:00	BASE	8.89	303	12.14	315	-0.0	92	-1.2	0	0	990.4	NA	0.0000	-SN	9999	0	0	0	980
2017/06/17 00:02:00	BASE	8.92	287	11.16	301	-0.1	92	-1.2	0	0	990.5	NA	0.0000	-SN	6000	0	0	0	750
2017/06/17 00:03:00	BASE	9.80	252	12.09	233	-0.2	92	-1.3	0	0	990.4	NA	0.0000	-SN	3900	0	0	0	1150
2017/06/17 00:04:00	BASE	10.18	229	12.09	233	-0.4	92	-1.5	0	0	990.5	NA	0.0000	-SN BR	3000	0	0	0	1280
2017/06/17 00:05:00	BASE	9.84	229	12.09	233	-0.7	92	-1.8	0	0	990.5	NA	0.0000	-SN BR	2800	0	0	0	1280
2017/06/17 00:06:00	BASE	9.82	232	12.09	233	-1.0	93	-2.0	0	0	990.6	NA	0.0000	-SN BR	3100	0	0	0	1380
2017/06/17 00:07:00	BASE	9.86	233	12.09	233	-1.3	93	-2.3	0	0	990.6	NA	0.0000	-SN BR	3300	0	0	0	1410
2017/06/17 00:08:00	BASE	10.41	232	12.09	233	-1.4	93	-2.5	0	0	990.6	NA	0.0000	-SN BR	4000	230	0	0	0
2017/06/17 00:09:00	BASE	10.65	234	12.09	233	-1.5	93	-2.5	0	0	990.6	NA	0.0000	-SN BR	4200	230	0	0	0
2017/06/17 00:10:00	BASE	10.33	235	12.09	233	-1.6	93	-2.5	0	0	990.7	NA	0.0000	-SN BR	3500	0	0	0	1740
2017/06/17 00:11:00	BASE	10.18	233	12.09	233	-1.6	93	-2.5	0	0	990.7	NA	0.0000	-SN BR	3100	0	0	0	1800
2017/06/17 00:12:00	BASE	11.30	232	13.48	228	-1.6	94	-2.5	0	0	990.6	NA	0.0000	-SN BR	2500	0	0	0	1800
2017/06/17 00:13:00	BASE	11.54	231	13.48	228	-1.6	94	-2.5	0	0	990.7	NA	0.0000	-SN BR	2600	0	0	0	1800
2017/06/17 00:14:00	BASE	11.15	232	13.48	228	-1.7	94	-2.5	0	0	990.6	NA	0.0000	-SN BR	2600	0	0	0	1640
2017/06/17 00:15:00	BASE	11.45	232	13.48	228	-1.7	94	-2.5	0	0	990.6	NA	0.0000	-SN BR	2700	0	0	0	1380
2017/06/17 00:16:00	BASE	11.54	233	13.48	228	-1.7	94	-2.6	0	0	990.7	NA	0.0000	-SN BR	2500	0	0	0	1150
2017/06/17 00:17:00	BASE	11.32	237	13.48	228	-1.7	94	-2.6	0	0	990.7	NA	0.0000	-SN BR	2300	0	0	0	1150
2017/06/17 00:18:00	BASE	10.70	241	13.48	228	-1.7	94	-2.6	0	0	990.7	NA	0.0000	-SN BR	4300	0	0	0	1280
2017/06/17 00:19:00	BASE	11.46	239	13.94	243	-1.7	94	-2.6	0	0	990.6	NA	0.0000	-SN BR	3900	0	0	0	1440
2017/06/17 00:20:00	BASE	12.66	236	13.94	243	-1.7	94	-2.6	0	0	990.7	NA	0.0000	-SN BR	3400	0	0	0	1380
2017/06/17 00:21:00	BASE	12.30	238	15.38	229	-1.7	94	-2.5	0	0	990.7	NA	0.0000	-SN BR	3400	0	0	0	1250
2017/06/17 00:22:00	BASE	12.18	236	15.38	229	-1.7	94	-2.5	0	0	990.8	NA	0.2540	-SN BR	3400	0	0	0	1410
2017/06/17 00:23:00	BASE	11.85	237	15.38	229	-1.7	94	-2.6	0	0	990.9	NA	0.0000	-SN BR	3500	0	0	0	1540
2017/06/17 00:24:00	BASE	12.08	239	15.38	229	-1.8	94	-2.6	0	0	990.8	NA	0.0000	-SN BR	3600	0	0	0	1640
2017/06/17 00:25:00	BASE	11.79	240	15.38	229	-1.8	94	-2.6	0	0	990.9	NA	0.0000	-SN BR	3700	0	0	0	1670
2017/06/17 00:26:00	BASE	10.69	242	15.38	229	-1.8	94	-2.6	0	0	990.9	NA	0.0000	-SN BR	3700	0	0	0	1940
2017/06/17 00:27:00	BASE	10.66	241	15.38	229	-1.8	94	-2.6	0	0	991.0	NA	0.0000	-SN BR	3800	0	0	0	2230
2017/06/17 00:28:00	BASE	10.49	239	15.38	229	-1.8	94	-2.6	0	0	991.0	NA	0.0000	-SN BR	3800	0	0	0	2330
2017/06/17 00:29:00	BASE	10.92	240	15.38	229	-1.8	94	-2.6	0	0	991.0	NA	0.0000	-SN BR	3900	260	0	0	0
2017/06/17 00:30:00	BASE	10.77	244	15.38	229	-1.8	95	-2.6	0	0	991.1	NA	0.0000	-SN BR	4300	0	0	0	1570
2017/06/17 00:31:00	BASE	10.78	242	14.92	246	-1.8	95	-2.5	0	0	991.1	NA	0.0000	-SN BR	3800	230	0	0	0
2017/06/17 00:32:00	BASE	10.75	240	14.92	246	-1.8	95	-2.5	0	0	991.2	NA	0.0000	-SN BR	4400	330	0	0	0
2017/06/17 00:33:00	BASE	10.40	241	13.89	240	-1.7	95	-2.4	0	0	991.2	NA	0.0000	-SN BR	5000	360	0	0	0
2017/06/17 00:34:00	BASE	11.28	240	13.27	241	-1.7	95	-2.4	0	0	991.1	NA	0.0000	-SN BR	6000	300	0	0	0
2017/06/17 00:35:00	BASE	12.05	236	14.04	234	-1.7	95	-2.5	0	0	991.2	NA	0.0000	-SN BR	8000	300	0	0	0
2017/06/17 00:36:00	BASE	12.28	234	14.15	233	-1.8	95	-2.5	0	0	991.2	NA	0.0000	-SN BR	7000	0	0	0	2300
2017/06/17 00:37:00	BASE	11.96	232	14.15	233	-1.8	95	-2.5	0	0	991.3	NA	0.0000	-SN BR	6000	0	0	0	2530
2017/06/17 00:38:00	BASE	11.52	233	14.15	233	-1.9	95	-2.6	0	0	991.3	NA	0.0000	-SN BR	6000	0	0	0	2990
2017/06/17 00:39:00	BASE	11.77	236	15.18	221	-1.9	95	-2.6	0	0	991.3	NA	0.0000	-SN BR	6000	0	0	0	3280
2017/06/17 00:40:00	BASE	12.15	232	15.18	221	-1.9	95	-2.6	0	0	991.4	NA	0.0000	-SN BR	5000	0	0	0	3250
2017/06/17 00:41:00	BASE	12.26	231	15.18	221	-2.0	95	-2.7	0	0	991.4	NA	0.0000	-SN BR	6000	0	0	0	2990
2017/06/17 00:42:00	BASE	11.46	234	15.18	221	-2.0	95	-2.7	0	0	991.6	NA	0.0000	-SN BR	5000	0	0	0	2590
2017/06/17 00:43:00	BASE	10.75	235	15.18	221	-2.0	95	-2.7	0	0	991.5	NA	0.0000	-SN BR	4500	0	0	0	2460
2017/06/17 00:44:00	BASE	11.60	234	15.18	221	-1.9	95	-2.6	0	0	991.6	NA	0.0000	-SN BR	4300	0	0	0	2690
2017/06/17 00:45:00	BASE	12.02	235	15.18	221	-1.9	95	-2.6	0	0	991.6	NA	0.0000	-SN BR	4200	260	0	0	0
2017/06/17 00:46:00	BASE	11.83	234	15.18	221	-1.9	95	-2.6	0	0	991.6	NA	0.0000	-SN BR	4800	230	0	0	0
2017/06/17 00:47:00	BASE	12.09	234	15.18	221	-1.9	95	-2.5	0	0	991.6	NA	0.0000	-SN BR	4900	0	0	0	1480
2017/06/17 00:48:00	BASE	12.33	235	15.18	221	-1.8	95	-2.5	0	0	991.7	NA	0.0000	-SN BR	4900	0	0	0	1050
2017/06/17 00:49:00	BASE	11.62	235	14.35	230	-1.8	95	-2.5	0	0	991.8	NA	0.0000	-SN BR	4700	200	0	0	0
2017/06/17 00:50:00	BASE	11.11	235	14.35	230	-1.8	95	-2.5	0	0	991.8	NA	0.0000	-SN BR	4200	0	0	0	1540
2017/06/17 00:51:00	BASE	10.90	232	14.35	230	-1.8	95	-2.5	0	0	991.9	NA	0.0000	-SN BR	4300	0	0	0	1610
2017/06/17 00:52:00	BASE	10.45	229	14.35	230	-1.8	95	-2.5	0	0	991.9	NA	0.0000	-SN BR	4500	0	0	0	1480
2017/06/17 00:53:00	BASE	9.92	229	14.35	230	-1.9	95	-2.6	0	0	992.0	NA	0.0000	-SN BR	3900	0	0	0	1510
2017/06/17 00:54:00	BASE	9.23	231	14.35	230	-1.9	95	-2.6	0	0	992.1	NA	0.0000	-SN BR	4100	0	0	0	1350
2017/06/17 00:55:00	BASE	8.93	230	14.35	230	-1.9	95	-2.6	0	0	992.1	NA	0.0000	-SN BR	3900	0	0	0	1510
2017/06/17 00:56:00	BASE	8.90	232	14.35	230	-2.0	95	-2.7	0	0	992.2	NA	0.0000	-SN BR	4100	0	0	0	1180
2017/06/17 00:57:00	BASE	9.01	231	13.58	236	-2.0	95	-2.7	0	0	992.2	NA	0.0000	-SN BR	3500	0	0	0	1210
2017/06/17 00:58:00	BASE	9.36	229	12.35	230	-2.0	95	-2.7	0	0	992.2	NA	0.0000	-SN BR	3700	0	0	0	1380
2017/06/17 00:59:00	BASE	10.09	227	12.35	230	-2.0	95	-2.7	0	0	992.2	NA	0.0000	-SN BR	3800	0	0	0	1150
2017/06/17 01:00:00	BASE	10.11	225	11.68	225	-2.0	95	-2.7	0	0	992.3	NA	0.0000	-SN BR	3700	0	0	0	1380
2017/06/17 01:01:00	BASE	9.55	227	11.68	225	-2.0	95	-2.7	0	0	992.4	NA	0.0000	-SN BR	3500	0	0	0	1180
2017/06/17 01:02:00	BASE	9.33	224	11.68	225	-2.0	95	-2.7	0	0	992.4	NA	0.0000	-SN BR	3600	0	0	0	1020
2017/06/17 01:03:00	BASE	10.04	219	13.12	215	-2.0	95	-2.7	0	0	992.4	NA	0.0000	-SN BR	3700	0	0	0	1120
2017/06/17 01:04:00	BASE	11.76	221	14.04	233	-2.0	95	-2.7	0	0	992.3	NA	0.2540	-SN BR	2500	0	0	0	1280
2017/06/17 01:05:00	BASE	12.67	224	14.10	220	-2.1	95	-2.8	0	0	992.3	NA	0.0000	-SN BR	1700	0	0	0	1870
2017/06/17 01:06:00	BASE	12.47	225	14.10	220	-2.1	95	-2.8	0	0	992.3	NA	0.0000	-SN BR	2400	0	0	0	2030
2017/06/17 01:07:00	BASE	11.65	226	14.10	220	-2.2	95	-2.9	0	0	992.4	NA	0.0000	-SN BR	4700	0	0	0	1840
2017/06/17 01:08:00	BASE	10.60	227	14.10	220	-2.3	95	-3.0	0	0	992.4	NA	0.0000	-SN BR	3800	0	0	0	1670
2017/06/17 01:09:00	BASE	11.23	227	14.46	229	-2.3	95	-3.0	0	0	992.3	NA	0.0000	-SN BR	3700	0	0	0	1480
2017/06/17 01:10:00	BASE	12.42	224	14.46	229	-2.3	95	-3.0	0	0	992.3	NA	0.0000	-SN BR	2500	0	0	0	1440
2017/06/17 01:11:00	BASE	11.77	221	14.46	229	-2.4	95	-3.1	0	0	992.4	NA	0.0000	-SN BR	2000	0	0	0	1540
2017/06/17 01:12:00	BASE	10.77	220	14.46	229	-2.4	95	-3.1	0	0	992.5	NA	0.0000	-SN BR	3400	0	0	0	1540
2017/06/17 01:13:00	BASE	10.43	222	14.46	229	-2.4	95	-3.1	0	0	992.6	NA	0.0000	-SN BR	3300	0	0	0	1440
2017/06/17 01:14:00	BASE	9.56	220	14.46	229	-2.4	95	-3.1	0	0	992.7	NA	0.0000	-SN BR	3100	0	0	0	1610
2017/06/17 01:15:00	BASE	9.03	215	14.46	229	-2.4	95	-3.0	0	0	992.7	NA	0.0000	-SN BR	2400	0	0	0	1310
2017/06/17 01:16:00	BASE	9.35	211	14.46	229	-2.3	95	-3.0	0	0	992.7	NA	0.0000	-SN BR	1900	0	0	0	950
2017/06/17 01:17:00	BASE	9.90	210	14.46	229	-2.2	95	-2.9	0	0	992.8	NA	0.0000	-SN BR	1500	0	0	0	1180
2017/06/17 01:18:00	BASE	9.77	210	14.46	229	-2.2	95	-2.9	0	0	992.8	NA	0.0000	-SN BR	1700	0	0	0	3080
2017/06/17 01:19:00	BASE	9.27	210	14.15	225	-2.2	95	-2.9	0	0	992.8	NA	0.0000	-SN BR	1800	300	0	0	0
2017/06/17 01:20:00	BASE	9.53	208	12.86	213	-2.3	95	-3.0	0	0	992.8	NA	0.0000	-SN BR	1700	300	0	0	0
2017/06/17 01:21:00	BASE	9.44	205	12.40	217	-2.3	95	-3.0	0	0	992.9	NA	0.0000	-SN BR	2100	330	0	0	0
2017/06/17 01:22:00	BASE	8.59	205	11.78	209	-2.3	95	-3.0	0	0	992.9	NA	0.0000	-SN BR	2100	2990	0	0	0
2017/06/17 01:23:00	BASE	8.36	205	11.78	209	-2.3	95	-3.0	0	0	992.9	NA	0.0000	-SN BR	5000	390	3410	0	0
2017/06/17 01:24:00	BASE	8.20	207	11.78	209	-2.3	95	-3.0	0	0	993.0	NA	0.0000	-SN BR	9000	3870	0	0	0
2017/06/17 01:25:00	BASE	7.22	209	11.78	209	-2.3	95	-3.0	0	0	993.0	NA	0.0000	-SN BR	9000	2230	4000	0	0
2017/06/17 01:26:00	BASE	6.66	211	11.78	209	-2.2	95	-2.9	0	0	993.0	NA	0.0000	-SN BR	9999	660	2030	0	0
2017/06/17 01:27:00	BASE	5.95	210	10.75	212	-2.2	95	-2.9	0	0	993.0	NA	0.0000	-SN BR	9999	790	2030	0	0
2017/06/17 01:28:00	BASE	5.52	208	10.65	203	-2.1	95	-2.8	0	0	993.0	NA	0.0000	-SN BR	9999	660	2200	0	0
2017/06/17 01:29:00	BASE	5.84	210	10.65	203	-2.1	95	-2.8	0	0	993.0	NA	0.0000	-SN BR	9999	590	1940	0	0
2017/06/17 01:30:00	BASE	6.32	213	10.08	205	-2.1	95	-2.8	0	0	993.1	NA	0.0000	-SN BR	9999	660	1940	0	0
2017/06/17 01:31:00	BASE	6.34	216	9.52	206	-2.0	95	-2.7	0	0	993.1	NA	0.0000	-SN BR	9999	1120	1970	0	0
2017/06/17 01:32:00	BASE	6.18	216	9.52	206	-2.0	95	-2.7	0	0	993.1	NA	0.0000	-SN	9999	750	1410	0	0
2017/06/17 01:33:00	BASE	5.85	218	8.75	206	-2.0	95	-2.7	0	0	993.2	NA	0.0000	-SN	9999	1900	0	0	0
2017/06/17 01:34:00	BASE	5.48	223	7.82	210	-2.0	95	-2.7	0	0	993.2	NA	0.0000	-SN	9999	2360	0	0	0
2017/06/17 01:35:00	BASE	5.86	225	7.82	210	-2.0	95	-2.7	0	0	993.2	NA	0.0000		9999	2300	0	0	0
2017/06/17 01:36:00	BASE	6.46	225	7.92	228	-2.0	95	-2.7	0	0	993.2	NA	0.0000		9999	2360	0	0	0
2017/06/17 01:37:00	BASE	6.98	223	8.08	221	-2.0	95	-2.7	0	0	993.1	NA	0.0000		9999	2360	0	0	0
2017/06/17 01:38:00	BASE	7.23	225	8.18	226	-2.0	95	-2.7	0	0	993.1	NA	0.0000		9999	2360	0	0	0
2017/06/17 01:39:00	BASE	6.98	229	8.18	226	-2.0	95	-2.8	0	0	993.1	NA	0.0000		9999	1570	0	0	0
2017/06/17 01:40:00	BASE	7.21	230	8.54	227	-2.0	95	-2.8	0	0	993.1	NA	0.0000		9999	2660	0	0	0
2017/06/17 01:41:00	BASE	8.14	229	9.31	228	-2.0	94	-2.8	0	0	993.1	NA	0.0000		9999	2530	0	0	0
2017/06/17 01:42:00	BASE	7.86	230	9.31	228	-2.0	94	-2.8	0	0	993.1	NA	0.0000		9999	2460	0	0	0
2017/06/17 01:43:00	BASE	7.01	232	9.31	228	-2.0	94	-2.8	0	0	993.2	NA	0.0000		9999	2820	0	0	0
2017/06/17 01:44:00	BASE	6.51	234	9.31	228	-2.0	94	-2.9	0	0	993.2	NA	0.0000		9999	1940	2460	0	0
2017/06/17 01:45:00	BASE	6.97	234	9.31	228	-2.0	94	-2.9	0	0	993.2	NA	0.0000		9999	2460	0	0	0
2017/06/17 01:46:00	BASE	7.74	231	9.31	228	-2.0	93	-2.9	0	0	993.2	NA	0.0000		9999	2490	0	0	0
2017/06/17 01:47:00	BASE	8.22	226	9.72	214	-2.0	93	-2.9	0	0	993.2	NA	0.0000		9999	2560	0	0	0
2017/06/17 01:48:00	BASE	8.23	224	9.72	214	-2.0	93	-3.0	0	0	993.2	NA	0.0000		9999	2760	0	0	0
2017/06/17 01:49:00	BASE	7.90	226	9.72	214	-2.0	92	-3.0	0	0	993.2	NA	0.0000		9999	2850	0	0	0
2017/06/17 01:50:00	BASE	8.47	226	9.72	214	-2.0	92	-3.1	0	0	993.2	NA	0.0000		9999	3120	0	0	0
2017/06/17 01:51:00	BASE	8.47	225	9.72	214	-2.0	91	-3.2	0	0	993.2	NA	0.0000		9999	3280	0	0	0
2017/06/17 01:52:00	BASE	7.96	225	9.72	214	-1.9	91	-3.2	0	0	993.3	NA	0.0000		9999	3250	4040	0	0
2017/06/17 01:53:00	BASE	7.95	225	9.72	214	-1.9	90	-3.3	0	0	993.3	NA	0.0000		9999	3220	4130	0	0
2017/06/17 01:54:00	BASE	7.76	225	9.72	214	-1.9	90	-3.4	0	0	993.3	NA	0.0000		9999	3350	4360	0	0
2017/06/17 01:55:00	BASE	7.59	224	9.72	214	-1.9	89	-3.5	0	0	993.3	NA	0.0000		9999	3450	4720	5540	0
2017/06/17 01:56:00	BASE	7.49	223	9.72	214	-1.8	88	-3.5	0	0	993.3	NA	0.0000		9999	3540	4430	0	0
2017/06/17 01:57:00	BASE	7.52	226	9.57	231	-1.8	87	-3.6	0	0	993.3	NA	0.0000		9999	2990	3670	4360	0
2017/06/17 01:58:00	BASE	8.03	230	9.57	231	-1.8	87	-3.7	0	0	993.3	NA	0.0000		9999	2590	3180	0	0
2017/06/17 01:59:00	BASE	8.18	229	9.57	231	-1.7	86	-3.8	0	0	993.3	NA	0.0000		9999	2620	0	0	0
2017/06/17 02:00:00	BASE	7.78	227	9.41	227	-1.7	85	-3.9	0	0	993.3	NA	0.0000		9999	2660	4720	5480	0
2017/06/17 02:01:00	BASE	7.64	228	9.41	227	-1.7	84	-4.0	0	0	993.3	NA	0.0000		9999	2460	0	0	0
2017/06/17 02:02:00	BASE	7.68	230	9.41	227	-1.7	83	-4.2	0	0	993.3	NA	0.0000		9999	2560	0	0	0
2017/06/17 02:03:00	BASE	8.05	231	9.41	223	-1.7	83	-4.3	0	0	993.3	NA	0.0000		9999	2300	5610	0	0
2017/06/17 02:04:00	BASE	8.06	232	9.41	223	-1.7	82	-4.4	0	0	993.3	NA	0.0000		9999	2590	5120	5610	0
2017/06/17 02:05:00	BASE	7.60	232	9.41	223	-1.7	81	-4.5	0	0	993.3	NA	0.0000		9999	2920	0	0	0
2017/06/17 02:06:00	BASE	7.61	230	9.41	223	-1.7	80	-4.7	0	0	993.3	NA	0.0000		9999	2820	0	0	0
2017/06/17 02:07:00	BASE	7.28	229	9.41	223	-1.7	79	-4.8	0	0	993.3	NA	0.0000		9999	2760	0	0	0
2017/06/17 02:08:00	BASE	7.18	228	9.41	223	-1.7	79	-4.9	0	0	993.4	NA	0.0000		9999	2620	0	0	0
2017/06/17 02:09:00	BASE	7.25	227	9.41	223	-1.6	78	-4.9	0	0	993.4	NA	0.0000		9999	1970	0	0	0
2017/06/17 02:10:00	BASE	6.69	230	9.41	223	-1.6	78	-5.0	0	0	993.4	NA	0.0000		9999	1510	0	0	0
2017/06/17 02:11:00	BASE	7.22	234	9.83	240	-1.6	78	-5.0	0	0	993.4	NA	0.0000		9999	430	0	0	0
2017/06/17 02:12:00	BASE	8.59	237	10.08	233	-1.6	78	-5.0	0	0	993.4	NA	0.0000		9999	1250	0	0	0
2017/06/17 02:13:00	BASE	8.77	240	10.08	233	-1.6	78	-4.9	0	0	993.4	NA	0.0000		9999	1440	0	0	0
2017/06/17 02:14:00	BASE	8.22	242	10.08	233	-1.6	78	-4.9	0	0	993.4	NA	0.0000		9999	1350	3150	0	0
2017/06/17 02:15:00	BASE	7.99	241	10.08	233	-1.6	79	-4.8	0	0	993.4	NA	0.0000		9999	2620	0	0	0
2017/06/17 02:16:00	BASE	8.11	241	10.08	233	-1.7	80	-4.7	0	0	993.5	NA	0.0000		9999	1740	2530	0	0
2017/06/17 02:17:00	BASE	7.76	240	10.08	233	-1.8	81	-4.7	0	0	993.5	NA	0.0000		9999	1740	0	0	0
2017/06/17 02:18:00	BASE	7.83	237	10.08	233	-1.8	81	-4.6	0	0	993.5	NA	0.0000		9999	1710	0	0	0
2017/06/17 02:19:00	BASE	8.74	235	10.08	233	-1.9	82	-4.6	0	0	993.5	NA	0.0000		9999	590	0	0	0
2017/06/17 02:20:00	BASE	9.20	234	10.08	233	-1.9	82	-4.5	0	0	993.5	NA	0.0000		9999	2100	0	0	0
2017/06/17 02:21:00	BASE	8.97	230	10.08	233	-1.9	83	-4.5	0	0	993.5	NA	0.0000	UP	9999	490	0	0	0
2017/06/17 02:22:00	BASE	8.69	225	10.03	221	-2.0	83	-4.5	0	0	993.4	NA	0.0000	UP	9999	2230	0	0	0
2017/06/17 02:23:00	BASE	8.20	222	10.03	221	-2.0	83	-4.5	0	0	993.5	NA	0.0000	UP	9999	1870	0	0	0
2017/06/17 02:24:00	BASE	7.52	225	10.03	221	-2.1	84	-4.5	0	0	993.5	NA	0.0000	UP	9999	2300	0	0	0
2017/06/17 02:25:00	BASE	7.05	226	10.03	221	-2.1	84	-4.5	0	0	993.5	NA	0.0000	UP	9999	2890	0	0	0
2017/06/17 02:26:00	BASE	6.52	225	10.03	221	-2.1	84	-4.5	0	0	993.5	NA	0.0000	UP	9999	3480	0	0	0
2017/06/17 02:27:00	BASE	6.52	224	10.03	221	-2.1	84	-4.5	0	0	993.5	NA	0.0000	UP	9999	3080	0	0	0
2017/06/17 02:28:00	BASE	6.44	226	10.03	221	-2.1	84	-4.5	0	0	993.5	NA	0.0000	UP	9999	3410	0	0	0
2017/06/17 02:29:00	BASE	5.89	230	10.03	221	-2.1	84	-4.5	0	0	993.5	NA	0.0000	UP	9999	3310	0	0	0
2017/06/17 02:30:00	BASE	5.80	232	9.98	224	-2.1	83	-4.5	0	0	993.5	NA	0.0000	UP	9999	2300	0	0	0
2017/06/17 02:31:00	BASE	6.20	231	9.98	224	-2.1	83	-4.5	0	0	993.5	NA	0.0000		9999	2230	0	0	0
2017/06/17 02:32:00	BASE	6.79	229	8.54	217	-2.1	83	-4.6	0	0	993.4	NA	0.0000		9999	2230	3940	4400	0
2017/06/17 02:33:00	BASE	6.96	227	8.33	223	-2.0	83	-4.5	0	0	993.4	NA	0.0000		9999	2300	6660	0	0
2017/06/17 02:34:00	BASE	7.01	229	8.85	231	-2.0	83	-4.5	0	0	993.4	NA	0.0000		9999	2170	4000	6790	0
2017/06/17 02:35:00	BASE	7.68	230	9.67	220	-2.0	83	-4.5	0	0	993.3	NA	0.0000		9999	3380	6760	0	0
2017/06/17 02:36:00	BASE	8.07	230	9.67	220	-2.0	82	-4.6	0	0	993.3	NA	0.0000		9999	3150	6860	0	0
2017/06/17 02:37:00	BASE	8.14	234	9.67	220	-1.9	82	-4.7	0	0	993.4	NA	0.0000		9999	2760	6820	0	0
2017/06/17 02:38:00	BASE	7.94	235	9.67	220	-1.9	81	-4.8	0	0	993.4	NA	0.0000		9999	2490	6990	0	0
2017/06/17 02:39:00	BASE	7.09	234	9.67	220	-1.9	80	-4.8	0	0	993.4	NA	0.0000		9999	6370	6990	0	0
2017/06/17 02:40:00	BASE	6.17	239	9.67	220	-1.9	80	-4.9	0	0	993.4	NA	0.0000		9999	2990	6400	7120	0
2017/06/17 02:41:00	BASE	6.71	240	9.67	220	-1.9	79	-5.0	0	0	993.4	NA	0.0000		9999	6430	0	0	0
2017/06/17 02:42:00	BASE	7.62	236	9.67	220	-1.9	79	-5.1	0	0	993.4	NA	0.0000		9999	0	0	0	0
2017/06/17 02:43:00	BASE	7.34	234	9.67	220	-1.9	78	-5.2	0	0	993.4	NA	0.0000		9999	0	0	0	0
2017/06/17 02:44:00	BASE	7.30	234	9.67	220	-1.9	78	-5.3	0	0	993.4	NA	0.0000		9999	0	0	0	0
2017/06/17 02:45:00	BASE	7.59	235	9.36	235	-2.0	77	-5.4	0	0	993.5	NA	0.0000		9999	0	0	0	0
2017/06/17 02:46:00	BASE	6.88	238	9.36	235	-2.0	77	-5.5	0	0	993.5	NA	0.0000		9999	0	0	0	0
2017/06/17 02:47:00	BASE	6.42	240	8.85	234	-2.0	76	-5.6	0	0	993.5	NA	0.0000		9999	0	0	0	0
2017/06/17 02:48:00	BASE	6.47	244	8.85	234	-2.0	76	-5.6	0	0	993.5	NA	0.0000		9999	0	0	0	0
2017/06/17 02:49:00	BASE	6.02	244	8.85	234	-2.0	76	-5.6	0	0	993.5	NA	0.0000		9999	0	0	0	0
2017/06/17 02:50:00	BASE	6.10	241	8.85	234	-1.9	76	-5.6	0	0	993.5	NA	0.0000		9999	0	0	0	0
2017/06/17 02:51:00	BASE	6.98	240	8.85	234	-1.9	76	-5.6	0	0	993.4	NA	0.0000		9999	0	0	0	0
2017/06/17 02:52:00	BASE	7.51	236	8.75	221	-1.9	76	-5.6	0	0	993.4	NA	0.0000		9999	0	0	0	0
2017/06/17 02:53:00	BASE	7.18	235	8.75	221	-1.9	76	-5.7	0	0	993.4	NA	0.0000		9999	2330	0	0	0
2017/06/17 02:54:00	BASE	7.06	236	8.75	221	-1.9	75	-5.7	0	0	993.4	NA	0.0000		9999	2460	3940	0	0
2017/06/17 02:55:00	BASE	7.01	237	8.75	221	-1.9	75	-5.7	0	0	993.4	NA	0.0000		9999	2360	3870	0	0
2017/06/17 02:56:00	BASE	7.32	239	9.88	246	-1.9	75	-5.7	0	0	993.4	NA	0.0000		9999	2360	3580	0	0
2017/06/17 02:57:00	BASE	7.98	239	9.88	246	-1.9	75	-5.7	0	0	993.4	NA	0.0000		9999	2300	0	0	0
2017/06/17 02:58:00	BASE	9.12	237	12.09	237	-1.8	75	-5.7	0	0	993.4	NA	0.0000		9999	1970	0	0	0
2017/06/17 02:59:00	BASE	9.78	236	12.09	237	-1.8	75	-5.6	0	0	993.4	NA	0.0000		9999	2000	3020	3810	0
2017/06/17 03:00:00	BASE	9.49	235	12.09	237	-1.8	75	-5.6	0	0	993.4	NA	0.0000		9999	2330	0	0	0
2017/06/17 03:01:00	BASE	9.35	236	12.09	237	-1.9	76	-5.6	0	0	993.4	NA	0.0000		9999	3410	0	0	0
2017/06/17 03:02:00	BASE	8.97	236	12.09	237	-1.9	76	-5.5	0	0	993.4	NA	0.0000		9999	5020	0	0	0
2017/06/17 03:03:00	BASE	8.72	234	12.09	237	-2.0	77	-5.5	0	0	993.4	NA	0.0000		9999	0	0	0	2660
2017/06/17 03:04:00	BASE	8.27	234	12.09	237	-2.0	78	-5.4	0	0	993.4	NA	0.0000	UP	9000	0	0	0	4530
2017/06/17 03:05:00	BASE	7.64	234	12.09	237	-2.1	78	-5.4	0	0	993.4	NA	0.0000	UP	9999	0	0	0	4530
2017/06/17 03:06:00	BASE	6.83	234	12.09	237	-2.2	79	-5.3	0	0	993.4	NA	0.0000	UP	9999	4130	0	0	0
2017/06/17 03:07:00	BASE	6.87	236	12.09	237	-2.3	80	-5.3	0	0	993.4	NA	0.0000	UP	9999	0	0	0	0
2017/06/17 03:08:00	BASE	7.61	236	11.21	246	-2.3	80	-5.3	0	0	993.4	NA	0.0000	UP	9999	0	0	0	0
2017/06/17 03:09:00	BASE	7.39	236	10.24	240	-2.4	81	-5.3	0	0	993.4	NA	0.0000	UP	9999	0	0	0	0
2017/06/17 03:10:00	BASE	6.40	240	10.24	240	-2.4	81	-5.3	0	0	993.4	NA	0.0000	UP	9999	0	0	0	0
2017/06/17 03:11:00	BASE	5.93	243	9.93	229	-2.4	81	-5.3	0	0	993.4	NA	0.0000	UP	9999	0	0	0	0
2017/06/17 03:12:00	BASE	6.57	243	9.93	229	-2.4	81	-5.3	0	0	993.4	NA	0.0000	UP	9999	0	0	0	0
2017/06/17 03:13:01	BASE	6.48	241	9.31	235	-2.4	80	-5.3	0	0	993.4	NA	0.0000		9999	6990	0	0	0
2017/06/17 03:14:00	BASE	5.64	244	8.95	236	-2.4	80	-5.3	0	0	993.5	NA	0.0000		9999	0	0	0	0
2017/06/17 03:15:00	BASE	5.95	246	8.95	236	-2.3	80	-5.3	0	0	993.4	NA	0.0000		9999	0	0	0	0
2017/06/17 03:16:00	BASE	5.98	245	8.95	236	-2.3	79	-5.3	0	0	993.4	NA	0.0000		9999	6920	0	0	0
2017/06/17 03:17:00	BASE	5.80	243	8.95	236	-2.2	79	-5.4	0	0	993.4	NA	0.0000		9999	6920	0	0	0
2017/06/17 03:18:00	BASE	6.03	245	8.23	236	-2.2	79	-5.4	0	0	993.4	NA	0.0000		9999	6820	0	0	0
2017/06/17 03:19:00	BASE	6.24	248	7.97	249	-2.2	78	-5.4	0	0	993.4	NA	0.0000		9999	6860	0	0	0
2017/06/17 03:20:00	BASE	6.04	247	7.97	249	-2.1	78	-5.4	0	0	993.4	NA	0.0000		9999	6820	0	0	0
2017/06/17 03:21:00	BASE	5.53	245	7.97	249	-2.1	78	-5.4	0	0	993.4	NA	0.0000		9999	6860	0	0	0
2017/06/17 03:22:00	BASE	5.42	245	7.97	249	-2.0	78	-5.3	0	0	993.4	NA	0.0000		9999	6530	0	0	0
2017/06/17 03:23:00	BASE	6.15	244	8.08	237	-2.0	78	-5.3	0	0	993.5	NA	0.0000		9999	6530	0	0	0
2017/06/17 03:24:00	BASE	6.94	241	8.13	236	-2.0	78	-5.3	0	0	993.5	NA	0.0000		9999	0	0	0	0
2017/06/17 03:25:00	BASE	6.56	239	8.13	236	-2.1	78	-5.3	0	0	993.5	NA	0.0000		9999	0	0	0	0
2017/06/17 03:26:00	BASE	6.18	242	8.13	236	-2.1	78	-5.4	0	0	993.5	NA	0.0000		9999	0	0	0	0
2017/06/17 03:27:00	BASE	6.44	246	8.13	236	-2.1	78	-5.4	0	0	993.5	NA	0.0000		9999	6920	0	0	0
2017/06/17 03:28:00	BASE	6.71	247	8.13	236	-2.0	77	-5.5	0	0	993.5	NA	0.0000		9999	6760	0	0	0
2017/06/17 03:29:00	BASE	6.46	250	8.18	243	-2.0	77	-5.6	0	0	993.5	NA	0.0000		9999	6630	0	0	0
2017/06/17 03:30:00	BASE	6.32	249	8.18	243	-2.0	76	-5.6	0	0	993.5	NA	0.0000		9999	6370	0	0	0
2017/06/17 03:31:00	BASE	6.35	247	8.49	245	-2.0	76	-5.7	0	0	993.5	NA	0.0000		9999	6170	0	0	0
2017/06/17 03:32:00	BASE	6.09	248	8.49	245	-2.0	75	-5.8	0	0	993.5	NA	0.0000		9999	6270	0	0	0
2017/06/17 03:33:00	BASE	6.34	245	8.64	251	-2.0	75	-5.8	0	0	993.5	NA	0.0000		9999	6560	0	0	0
2017/06/17 03:34:00	BASE	6.60	244	8.64	251	-2.0	75	-5.8	0	0	993.6	NA	0.0000		9999	6730	0	0	0
2017/06/17 03:35:00	BASE	6.76	245	9.05	251	-1.9	75	-5.9	0	0	993.6	NA	0.0000		9999	8200	0	0	0
2017/06/17 03:36:00	BASE	7.52	253	10.65	268	-1.9	75	-5.8	0	0	993.6	NA	0.0000		9999	5120	0	0	0
2017/06/17 03:37:00	BASE	9.14	263	11.16	271	-1.9	75	-5.8	0	0	993.5	NA	0.0000		9000	850	2070	0	0
2017/06/17 03:38:00	BASE	10.04	266	11.16	271	-1.9	75	-5.8	0	0	993.6	NA	0.0000	UP	7000	2170	0	0	0
2017/06/17 03:39:00	BASE	9.50	267	11.16	271	-2.0	76	-5.7	0	0	993.6	NA	0.0000	UP	8000	4560	0	0	0
2017/06/17 03:40:00	BASE	9.16	269	11.16	271	-2.1	77	-5.5	0	0	993.7	NA	0.0000	UP	9000	2430	4560	0	0
2017/06/17 03:41:00	BASE	8.90	271	11.16	271	-2.2	79	-5.4	0	0	993.7	NA	0.0000	UP	7000	390	1280	0	0
2017/06/17 03:42:00	BASE	8.62	269	11.16	271	-2.3	80	-5.3	0	0	993.7	NA	0.0000	UP	6000	330	1380	0	0
2017/06/17 03:43:00	BASE	8.13	267	11.16	271	-2.4	82	-5.1	0	0	993.7	NA	0.0000	UP	4800	300	1510	0	0
2017/06/17 03:44:00	BASE	8.03	264	11.16	271	-2.4	83	-4.9	0	0	993.7	NA	0.0000	UP	4800	360	4130	0	0
2017/06/17 03:45:00	BASE	8.58	263	11.16	271	-2.4	84	-4.8	0	0	993.7	NA	0.0000	UP	6000	360	3020	0	0
2017/06/17 03:46:00	BASE	8.43	257	11.16	271	-2.4	85	-4.7	0	0	993.7	NA	0.0000	UP BR	9000	430	0	0	0
2017/06/17 03:47:00	BASE	7.28	250	11.01	272	-2.5	86	-4.5	0	0	993.7	NA	0.0000	UP BR	9999	3350	0	0	0
2017/06/17 03:48:00	BASE	7.25	246	10.44	267	-2.5	86	-4.5	0	0	993.7	NA	0.0000	UP BR	9999	0	0	0	4560
2017/06/17 03:49:00	BASE	7.76	242	10.24	239	-2.5	87	-4.4	0	0	993.7	NA	0.0000	UP BR	5000	330	0	0	0
2017/06/17 03:50:00	BASE	8.13	243	10.24	239	-2.5	87	-4.4	0	0	993.7	NA	0.0000	UP BR	3100	0	0	0	2620
2017/06/17 03:51:00	BASE	8.42	242	10.24	239	-2.6	87	-4.4	0	0	993.7	NA	0.0000	-SN BR	3300	0	0	0	1770
2017/06/17 03:52:00	BASE	8.22	238	10.24	239	-2.6	88	-4.4	0	0	993.7	NA	0.0000	-SN BR	3600	0	0	0	1350
2017/06/17 03:53:00	BASE	9.07	232	10.70	227	-2.7	88	-4.4	0	0	993.7	NA	0.0000	-SN BR	3200	230	0	0	0
2017/06/17 03:54:00	BASE	9.27	226	10.70	227	-2.7	88	-4.4	0	0	993.7	NA	0.0000	-SN BR	2500	0	0	0	1050
2017/06/17 03:55:00	BASE	7.83	222	10.70	227	-2.8	89	-4.4	0	0	993.7	NA	0.0000	-SN BR	1800	0	0	0	1210
2017/06/17 03:56:00	BASE	6.97	217	10.70	227	-2.8	89	-4.4	0	0	993.7	NA	0.0000	-SN BR	1900	0	0	0	2030
2017/06/17 03:57:00	BASE	6.39	220	10.70	227	-2.9	89	-4.5	0	0	993.7	NA	0.0000	-SN BR	3100	0	0	0	3180
2017/06/17 03:58:00	BASE	5.93	228	10.70	227	-3.0	89	-4.5	0	0	993.7	NA	0.0000	-SN BR	4700	300	0	0	0
2017/06/17 03:59:00	BASE	6.15	231	10.70	227	-3.1	89	-4.6	0	0	993.7	NA	0.0000	-SN BR	9999	2950	0	0	0
2017/06/17 04:00:00	BASE	6.45	228	10.70	227	-3.1	90	-4.6	0	0	993.7	NA	0.0000	-SN BR	9999	2030	3540	0	0
2017/06/17 04:01:00	BASE	5.76	224	10.70	227	-3.1	90	-4.6	0	0	993.7	NA	0.0000	-SN BR	9999	2170	3510	0	0
2017/06/17 04:02:00	BASE	5.15	224	10.70	227	-3.1	90	-4.5	0	0	993.7	NA	0.0000	-SN BR	9999	2330	3580	0	0
2017/06/17 04:03:00	BASE	4.93	221	9.98	224	-3.1	90	-4.5	0	0	993.7	NA	0.0000	-SN BR	9999	2360	3510	0	0
2017/06/17 04:04:00	BASE	5.19	218	8.13	217	-3.1	91	-4.4	0	0	993.6	NA	0.0000	-SN BR	9999	3580	0	0	0
2017/06/17 04:05:00	BASE	5.84	218	7.72	220	-3.1	91	-4.4	0	0	993.6	NA	0.0000	-SN BR	9999	3640	0	0	0
2017/06/17 04:06:00	BASE	5.71	219	7.46	239	-3.1	91	-4.4	0	0	993.6	NA	0.0000	-SN BR	9999	3670	4530	0	0
2017/06/17 04:07:00	BASE	5.01	219	7.46	239	-3.1	91	-4.4	0	0	993.6	NA	0.0000	-SN	9999	4360	0	0	0
2017/06/17 04:08:00	BASE	4.28	223	7.46	239	-3.1	91	-4.3	0	0	993.6	NA	0.0000	-SN	9999	4230	0	0	0
2017/06/17 04:09:00	BASE	4.45	228	7.25	222	-3.1	91	-4.3	0	0	993.6	NA	0.0000		9999	3220	4690	0	0
2017/06/17 04:10:00	BASE	5.01	229	6.38	211	-3.0	91	-4.3	0	0	993.6	NA	0.0000		9999	3380	0	0	0
2017/06/17 04:11:00	BASE	4.76	228	6.38	211	-3.0	91	-4.3	0	0	993.6	NA	0.0000		9999	4070	0	0	0
2017/06/17 04:12:00	BASE	4.38	231	6.38	211	-3.0	91	-4.3	0	0	993.6	NA	0.0000		9999	4100	0	0	0
2017/06/17 04:13:00	BASE	4.53	232	6.38	211	-2.9	90	-4.3	0	0	993.6	NA	0.0000		9999	4560	0	0	0
2017/06/17 04:14:00	BASE	4.76	229	6.33	217	-2.9	90	-4.3	0	0	993.6	NA	0.0000		9999	4400	0	0	0
2017/06/17 04:15:00	BASE	5.02	229	6.38	224	-2.8	90	-4.3	0	0	993.6	NA	0.0000		9999	4300	0	0	0
2017/06/17 04:16:00	BASE	5.30	234	6.48	234	-2.8	90	-4.3	0	0	993.6	NA	0.0000		9999	4760	0	0	0
2017/06/17 04:17:00	BASE	6.08	236	8.49	234	-2.7	89	-4.2	0	0	993.6	NA	0.0000		9999	3710	4760	0	0
2017/06/17 04:18:00	BASE	6.82	234	8.49	234	-2.7	89	-4.2	0	0	993.6	NA	0.0000		9999	3810	4690	0	0
2017/06/17 04:19:00	BASE	7.08	232	8.49	234	-2.6	89	-4.2	0	0	993.6	NA	0.0000		9999	4590	0	0	0
2017/06/17 04:20:00	BASE	7.75	232	9.72	235	-2.5	89	-4.2	0	0	993.5	NA	0.0000		9999	4460	0	0	0
2017/06/17 04:21:00	BASE	8.40	231	9.88	240	-2.5	88	-4.2	0	0	993.5	NA	0.0000		9999	4590	0	0	0
2017/06/17 04:22:00	BASE	8.03	232	9.88	240	-2.5	88	-4.3	0	0	993.5	NA	0.0000		9999	6000	0	0	0
2017/06/17 04:23:00	BASE	7.85	232	9.88	240	-2.5	87	-4.3	0	0	993.5	NA	0.0000		9999	4200	6270	0	0
2017/06/17 04:24:00	BASE	7.79	234	9.88	240	-2.4	86	-4.4	0	0	993.5	NA	0.0000		9999	4300	0	0	0
2017/06/17 04:25:00	BASE	7.43	231	9.88	240	-2.4	86	-4.5	0	0	993.5	NA	0.0000		9999	4000	4660	0	0
2017/06/17 04:26:00	BASE	7.80	230	9.88	240	-2.4	85	-4.6	0	0	993.5	NA	0.0000		9999	3900	5020	0	0
2017/06/17 04:27:00	BASE	7.70	233	9.88	240	-2.4	84	-4.7	0	0	993.5	NA	0.0000		9999	3940	0	0	0
2017/06/17 04:28:00	BASE	7.90	232	9.88	240	-2.4	83	-4.9	0	0	993.5	NA	0.0000		9999	4170	0	0	0
2017/06/17 04:29:00	BASE	9.27	230	11.11	237	-2.4	82	-5.0	0	0	993.5	NA	0.0000		9999	0	0	0	0
2017/06/17 04:30:00	BASE	9.85	231	11.11	237	-2.4	81	-5.2	0	0	993.5	NA	0.0000		9999	0	0	0	0
2017/06/17 04:31:00	BASE	9.68	231	11.11	237	-2.4	80	-5.4	0	0	993.5	NA	0.0000		9999	0	0	0	0
2017/06/17 04:32:00	BASE	9.63	231	11.11	237	-2.4	79	-5.5	0	0	993.5	NA	0.0000		9999	0	0	0	0
2017/06/17 04:33:00	BASE	9.38	232	11.11	237	-2.4	78	-5.7	0	0	993.5	NA	0.0000		9999	0	0	0	0
2017/06/17 04:34:00	BASE	9.29	233	11.11	237	-2.3	77	-5.8	0	0	993.5	NA	0.0000		9999	0	0	0	0
2017/06/17 04:35:00	BASE	9.13	236	11.11	237	-2.3	76	-5.9	0	0	993.5	NA	0.0000		9999	2690	0	0	0
2017/06/17 04:36:00	BASE	9.36	237	11.11	237	-2.3	76	-6.0	0	0	993.5	NA	0.0000		9999	0	0	0	0
2017/06/17 04:37:00	BASE	9.55	235	11.11	237	-2.2	75	-6.1	0	0	993.6	NA	0.0000		9999	2990	0	0	0
2017/06/17 04:38:00	BASE	9.11	233	11.11	237	-2.2	75	-6.1	0	0	993.6	NA	0.0000		9999	2430	3250	0	0
2017/06/17 04:39:00	BASE	9.60	233	11.47	235	-2.2	74	-6.2	0	0	993.6	NA	0.0000		9999	2890	3740	0	0
2017/06/17 04:40:00	BASE	10.22	235	11.47	235	-2.2	74	-6.3	0	0	993.6	NA	0.0000		9999	4040	0	0	0
2017/06/17 04:41:00	BASE	10.02	235	11.47	235	-2.2	73	-6.4	0	0	993.6	NA	0.0000		9999	0	0	0	0
2017/06/17 04:42:00	BASE	9.64	234	11.47	235	-2.3	73	-6.5	0	0	993.6	NA	0.0000		9999	3020	4130	0	0
2017/06/17 04:43:00	BASE	9.35	234	11.47	235	-2.3	72	-6.6	0	0	993.6	NA	0.0000		9999	4130	0	0	0
2017/06/17 04:44:00	BASE	9.02	231	11.47	235	-2.3	72	-6.7	0	0	993.7	NA	0.0000		9999	4230	0	0	0
2017/06/17 04:45:00	BASE	8.74	232	11.47	235	-2.2	71	-6.8	0	0	993.6	NA	0.0000		9999	4270	0	0	0
2017/06/17 04:46:00	BASE	9.34	234	11.47	235	-2.2	71	-6.8	0	0	993.6	NA	0.0000		9999	2720	4460	0	0
2017/06/17 04:47:00	BASE	9.99	230	11.47	235	-2.2	71	-6.8	0	0	993.6	NA	0.0000		9999	4530	0	0	0
2017/06/17 04:48:00	BASE	9.49	233	11.47	235	-2.2	71	-6.8	0	0	993.7	NA	0.0000		9999	4760	0	0	0
2017/06/17 04:49:00	BASE	9.22	238	11.21	236	-2.2	71	-6.8	0	0	993.6	NA	0.0000		9999	4890	0	0	0
2017/06/17 04:50:00	BASE	9.15	236	11.21	236	-2.2	70	-6.9	0	0	993.6	NA	0.0000		9999	5050	0	0	0
2017/06/17 04:51:00	BASE	7.97	236	11.21	236	-2.2	70	-7.0	0	0	993.7	NA	0.0000		9999	5090	0	0	0
2017/06/17 04:52:00	BASE	7.23	236	11.21	236	-2.2	70	-7.0	0	0	993.7	NA	0.0000		9999	5220	0	0	0
2017/06/17 04:53:01	BASE	7.92	234	11.21	236	-2.2	70	-7.0	0	0	993.7	NA	0.0000		9999	4950	0	0	0
2017/06/17 04:54:00	BASE	8.36	235	11.21	236	-2.2	70	-7.0	0	0	993.7	NA	0.0000		9999	5410	0	0	0
2017/06/17 04:55:00	BASE	8.71	235	11.21	236	-2.1	70	-7.0	0	0	993.7	NA	0.0000		9999	5540	0	0	0
2017/06/17 04:56:00	BASE	9.30	234	11.21	236	-2.1	69	-7.0	0	0	993.7	NA	0.0000		9999	5610	0	0	0
2017/06/17 04:57:00	BASE	9.54	234	11.21	236	-2.2	69	-7.1	0	0	993.7	NA	0.0000		9999	5610	0	0	0
2017/06/17 04:58:00	BASE	8.88	230	10.60	234	-2.2	69	-7.2	0	0	993.7	NA	0.0000		9999	3710	5740	0	0
2017/06/17 04:59:00	BASE	7.91	226	10.60	234	-2.2	68	-7.2	0	0	993.7	NA	0.0000		9999	3180	0	0	0
2017/06/17 05:00:00	BASE	8.29	224	10.60	234	-2.2	68	-7.3	0	0	993.6	NA	0.0000		9999	3510	6040	0	0
2017/06/17 05:01:00	BASE	8.30	222	10.60	234	-2.2	68	-7.2	0	0	993.6	NA	0.0000		9999	3410	0	0	0
2017/06/17 05:02:00	BASE	7.36	226	10.60	234	-2.2	69	-7.2	0	0	993.6	NA	0.0000		9999	3870	4530	5410	0
2017/06/17 05:03:01	BASE	7.43	228	10.60	234	-2.2	69	-7.1	0	0	993.6	NA	0.0000		9999	3150	0	0	0
2017/06/17 05:04:00	BASE	7.85	229	10.60	234	-2.2	70	-7.0	0	0	993.6	NA	0.0000		9999	2890	0	0	0
2017/06/17 05:05:00	BASE	8.34	236	10.60	234	-2.2	70	-6.9	0	0	993.6	NA	0.0000		9999	3050	3970	0	0
2017/06/17 05:06:00	BASE	7.80	243	10.24	232	-2.2	71	-6.8	0	0	993.7	NA	0.0000		9999	2260	3150	0	0
2017/06/17 05:07:00	BASE	6.61	245	9.98	219	-2.1	71	-6.6	0	0	993.6	NA	0.0000		9999	3510	0	0	0
2017/06/17 05:08:00	BASE	6.71	251	9.98	219	-2.1	72	-6.5	0	0	993.6	NA	0.0000		9999	2890	3410	3940	0
2017/06/17 05:09:00	BASE	6.60	255	9.98	219	-2.0	73	-6.2	0	0	993.7	NA	0.0000		9999	3080	0	0	0
2017/06/17 05:10:00	BASE	6.44	253	9.62	242	-2.0	74	-6.1	0	0	993.6	NA	0.0000		9999	3180	4360	0	0
2017/06/17 05:11:00	BASE	6.86	252	9.62	242	-2.0	75	-5.9	0	0	993.6	NA	0.0000		9999	3020	4000	4660	0
2017/06/17 05:12:00	BASE	7.46	253	10.03	246	-2.0	75	-5.8	0	0	993.6	NA	0.0000		9999	2890	3610	0	0
2017/06/17 05:13:00	BASE	8.41	255	10.49	256	-2.1	76	-5.8	0	0	993.7	NA	0.0000		9999	2850	0	0	0
2017/06/17 05:14:00	BASE	8.29	251	10.49	256	-2.1	76	-5.8	0	0	993.7	NA	0.0000		9999	2790	0	0	0
2017/06/17 05:15:00	BASE	9.25	243	13.02	237	-2.1	76	-5.8	0	0	993.6	NA	0.0000		9999	2760	0	0	0
2017/06/17 05:16:00	BASE	9.60	238	13.02	237	-2.1	76	-5.8	0	0	993.7	NA	0.0000	UP	7000	300	2890	0	0
2017/06/17 05:17:00	BASE	7.94	241	13.02	237	-2.2	76	-5.8	0	0	993.7	NA	0.0000	UP	8000	0	0	0	3870
2017/06/17 05:18:00	BASE	7.74	244	13.02	237	-2.2	76	-5.8	0	0	993.6	NA	0.0000	UP	9999	3220	0	0	0
2017/06/17 05:19:00	BASE	7.47	245	13.02	237	-2.3	77	-5.9	0	0	993.6	NA	0.0000	UP	9999	2950	0	0	0
2017/06/17 05:20:00	BASE	6.99	245	13.02	237	-2.4	77	-5.9	0	0	993.6	NA	0.0000	UP	9999	3810	0	0	0
2017/06/17 05:21:00	BASE	6.27	246	13.02	237	-2.5	77	-5.9	0	0	993.6	NA	0.0000	UP	9999	4130	0	0	0
2017/06/17 05:22:00	BASE	5.67	249	13.02	237	-2.5	77	-6.0	0	0	993.6	NA	0.0000	UP	9999	0	0	0	0
2017/06/17 05:23:01	BASE	6.26	246	13.02	237	-2.5	77	-6.0	0	0	993.5	NA	0.0000	UP	9999	0	0	0	0
2017/06/17 05:24:00	BASE	6.17	249	13.02	237	-2.5	77	-6.0	0	0	993.5	NA	0.0000	UP	9999	0	0	0	0
2017/06/17 05:25:00	BASE	5.54	253	9.57	240	-2.5	77	-6.0	0	0	993.5	NA	0.0000		9999	0	0	0	0
2017/06/17 05:26:00	BASE	5.76	252	9.11	245	-2.5	77	-6.0	0	0	993.5	NA	0.0000		9999	0	0	0	0
2017/06/17 05:27:01	BASE	5.50	252	9.11	245	-2.5	77	-6.1	0	0	993.5	NA	0.0000		9999	0	0	0	0
2017/06/17 05:28:00	BASE	5.00	253	9.05	241	-2.5	76	-6.1	0	0	993.5	NA	0.0000		9999	0	0	0	0
2017/06/17 05:29:00	BASE	5.11	254	8.13	250	-2.5	76	-6.1	0	0	993.5	NA	0.0000		9999	0	0	0	0
2017/06/17 05:30:00	BASE	5.80	254	7.82	248	-2.5	76	-6.2	0	0	993.5	NA	0.0000		9999	0	0	0	0
2017/06/17 05:31:00	BASE	6.10	252	7.82	248	-2.5	76	-6.2	0	0	993.5	NA	0.0000		9999	0	0	0	0
2017/06/17 05:32:01	BASE	5.55	250	7.82	248	-2.4	75	-6.2	0	0	993.5	NA	0.0000		9999	4990	0	0	0
2017/06/17 05:33:01	BASE	5.51	251	7.72	253	-2.4	75	-6.2	0	0	993.5	NA	0.0000		9999	2950	3740	0	0
2017/06/17 05:34:02	BASE	5.46	248	7.72	253	-2.4	75	-6.2	0	0	993.5	NA	0.0000		9999	3350	4860	0	0
2017/06/17 05:35:01	BASE	6.53	244	9.00	240	-2.3	75	-6.2	0	0	993.5	NA	0.0000		9999	3280	4630	0	0
2017/06/17 05:36:01	BASE	8.12	240	9.67	237	-2.3	75	-6.2	0	0	993.5	NA	0.0000		9999	4590	0	0	0
2017/06/17 05:37:01	BASE	7.90	233	9.67	237	-2.3	74	-6.2	0	0	993.5	NA	0.0000		9999	4590	0	0	0
2017/06/17 05:38:01	BASE	7.19	231	9.67	237	-2.3	74	-6.3	0	0	993.5	NA	0.0000		9999	5050	0	0	0
2017/06/17 05:39:01	BASE	8.12	233	10.65	237	-2.3	73	-6.5	0	0	993.4	NA	0.0000		9999	6630	0	0	0
2017/06/17 05:40:01	BASE	8.99	235	10.65	237	-2.3	72	-6.6	0	0	993.5	NA	0.0000		9999	0	0	0	0
2017/06/17 05:41:01	BASE	9.27	236	10.91	238	-2.3	72	-6.8	0	0	993.4	NA	0.0000		9999	0	0	0	0
2017/06/17 05:42:01	BASE	9.36	236	10.91	238	-2.4	71	-6.9	0	0	993.4	NA	0.0000		9999	0	0	0	0
2017/06/17 05:43:01	BASE	9.13	235	10.91	238	-2.4	71	-7.0	0	0	993.4	NA	0.0000		9999	4200	0	0	0
2017/06/17 05:44:01	BASE	9.72	237	10.96	236	-2.4	70	-7.1	0	0	993.4	NA	0.0000		9999	0	0	0	0
2017/06/17 05:45:01	BASE	10.12	238	11.32	234	-2.4	70	-7.1	0	0	993.4	NA	0.0000		9999	0	0	0	0
2017/06/17 05:46:01	BASE	10.01	239	11.32	237	-2.4	70	-7.2	0	0	993.4	NA	0.0000		9999	0	0	0	0
2017/06/17 05:47:01	BASE	10.30	239	11.78	236	-2.4	69	-7.3	0	0	993.4	NA	0.0000		9999	0	0	0	0
2017/06/17 05:48:01	BASE	10.34	237	11.78	236	-2.4	69	-7.4	0	0	993.4	NA	0.0000		9999	0	0	0	0
2017/06/17 05:49:01	BASE	9.65	238	11.78	236	-2.4	68	-7.5	0	0	993.4	NA	0.0000		9999	0	0	0	0
2017/06/17 05:50:01	BASE	9.60	240	11.78	236	-2.4	68	-7.6	0	0	993.4	NA	0.0000		9999	0	0	0	0
2017/06/17 05:51:01	BASE	10.19	239	11.78	236	-2.4	67	-7.6	0	0	993.5	NA	0.0000		9999	0	0	0	0
2017/06/17 05:52:01	BASE	9.82	239	11.78	236	-2.4	67	-7.7	0	0	993.5	NA	0.0000		9999	0	0	0	0
2017/06/17 05:53:01	BASE	9.05	241	11.78	236	-2.4	67	-7.7	0	0	993.5	NA	0.0000		9999	0	0	0	0
2017/06/17 05:54:01	BASE	8.16	242	11.78	236	-2.4	66	-7.8	0	0	993.5	NA	0.0000		9999	0	0	0	0
2017/06/17 05:55:01	BASE	8.04	241	11.78	236	-2.4	66	-7.8	0	0	993.5	NA	0.0000		9999	0	0	0	0
2017/06/17 05:56:01	BASE	8.18	242	11.78	236	-2.3	66	-7.8	0	0	993.5	NA	0.0000		9999	0	0	0	0
2017/06/17 05:57:01	BASE	7.62	244	11.68	238	-2.3	66	-7.8	0	0	993.5	NA	0.0000		9999	0	0	0	0
2017/06/17 05:58:01	BASE	7.91	241	11.57	234	-2.3	66	-7.8	0	0	993.5	NA	0.0000		9999	0	0	0	0
2017/06/17 05:59:01	BASE	8.72	239	11.57	234	-2.3	66	-7.8	0	0	993.5	NA	0.0000		9999	4790	0	0	0
2017/06/17 06:00:01	BASE	9.12	240	11.06	234	-2.3	66	-7.7	0	0	993.5	NA	0.0000		9999	0	0	0	0
2017/06/17 06:01:01	BASE	9.15	239	10.39	235	-2.3	66	-7.7	0	0	993.5	NA	0.0000		9999	0	0	0	0
2017/06/17 06:02:01	BASE	8.78	240	10.24	235	-2.3	66	-7.7	0	0	993.4	NA	0.0000		9999	5480	0	0	0
2017/06/17 06:03:01	BASE	8.11	244	10.24	235	-2.3	66	-7.7	0	0	993.5	NA	0.0000		9999	5480	0	0	0
2017/06/17 06:04:01	BASE	7.05	243	10.24	235	-2.3	66	-7.8	0	0	993.5	NA	0.0000		9999	5480	0	0	0
2017/06/17 06:05:01	BASE	7.05	242	10.24	235	-2.3	66	-7.9	0	0	993.5	NA	0.0000		9999	0	0	0	0
2017/06/17 06:06:01	BASE	7.43	242	10.24	235	-2.3	65	-7.9	0	0	993.5	NA	0.0000		9999	0	0	0	0
2017/06/17 06:07:01	BASE	6.38	246	10.24	235	-2.3	65	-7.9	0	0	993.5	NA	0.0000		9999	5150	0	0	0
2017/06/17 06:08:01	BASE	5.84	254	10.24	235	-2.3	66	-7.9	0	0	993.5	NA	0.0000		9999	5350	0	0	0
2017/06/17 06:09:01	BASE	6.52	254	10.19	238	-2.3	66	-7.8	0	0	993.5	NA	0.0000		9999	5250	0	0	0
2017/06/17 06:10:01	BASE	7.37	253	10.19	238	-2.3	66	-7.7	0	0	993.4	NA	0.0000		9999	5120	0	0	0
2017/06/17 06:11:01	BASE	7.50	256	9.57	237	-2.2	67	-7.6	0	0	993.4	NA	0.0000		9999	2920	5020	0	0
2017/06/17 06:12:01	BASE	7.58	261	9.41	250	-2.2	67	-7.6	0	0	993.4	NA	0.0000		9999	4590	5380	0	0
2017/06/17 06:13:01	BASE	7.78	263	9.52	261	-2.2	67	-7.6	0	0	993.3	NA	0.0000		9999	3870	0	0	0
2017/06/17 06:14:01	BASE	7.80	258	9.52	259	-2.2	66	-7.6	0	0	993.3	NA	0.0000		9999	2790	3510	0	0
2017/06/17 06:15:01	BASE	7.90	248	9.88	240	-2.1	66	-7.6	0	0	993.3	NA	0.0000		9999	2660	0	0	0
2017/06/17 06:16:01	BASE	7.90	241	9.88	240	-2.1	67	-7.5	0	0	993.4	NA	0.0000		9999	2660	0	0	0
2017/06/17 06:17:01	BASE	8.04	234	9.88	240	-2.1	67	-7.4	0	0	993.4	NA	0.0000		9999	2850	0	0	0
2017/06/17 06:18:00	BASE	8.61	227	10.44	232	-2.2	68	-7.3	0	0	993.4	NA	0.0000		9999	4950	0	0	0
2017/06/17 06:19:00	BASE	8.52	226	10.44	232	-2.3	69	-7.2	0	0	993.4	NA	0.0000		9999	5320	0	0	0
2017/06/17 06:20:00	BASE	7.95	224	10.44	232	-2.4	70	-7.2	0	0	993.4	NA	0.0000		9999	0	0	0	0
2017/06/17 06:21:00	BASE	7.80	222	10.44	232	-2.5	70	-7.1	0	0	993.3	NA	0.0000		9999	0	0	0	0
2017/06/17 06:22:00	BASE	7.74	224	10.44	232	-2.5	71	-7.1	0	0	993.4	NA	0.0000		9999	5680	0	0	0
2017/06/17 06:23:00	BASE	7.52	227	10.44	232	-2.6	71	-7.2	0	0	993.4	NA	0.0000		9999	5870	0	0	0
2017/06/17 06:24:00	BASE	7.41	228	10.44	232	-2.6	71	-7.1	0	0	993.4	NA	0.0000		9999	6070	0	0	0
2017/06/17 06:25:00	BASE	7.50	227	10.44	232	-2.6	71	-7.1	0	0	993.5	NA	0.0000		9999	0	0	0	0
2017/06/17 06:26:00	BASE	7.38	225	10.44	232	-2.6	71	-7.1	0	0	993.5	NA	0.0000		9999	0	0	0	0
2017/06/17 06:27:00	BASE	6.80	226	10.44	232	-2.7	72	-7.1	0	0	993.5	NA	0.0000		9999	0	0	0	0
2017/06/17 06:28:00	BASE	6.47	229	9.77	227	-2.7	72	-7.1	0	0	993.5	NA	0.0000		9999	0	0	0	0
2017/06/17 06:29:00	BASE	7.18	231	9.00	220	-2.7	72	-7.0	0	0	993.5	NA	0.0000		9999	0	0	0	0
2017/06/17 06:30:00	BASE	7.33	233	8.75	228	-2.7	72	-7.0	0	0	993.5	NA	0.0000		9999	0	0	0	0
2017/06/17 06:31:00	BASE	7.19	232	8.59	224	-2.7	73	-7.0	0	0	993.5	NA	0.0000		9999	0	0	0	0
2017/06/17 06:32:00	BASE	7.14	233	8.49	232	-2.8	73	-7.0	0	0	993.4	NA	0.0000		9999	0	0	0	0
2017/06/17 06:33:00	BASE	7.27	239	8.49	232	-2.8	73	-6.9	0	0	993.5	NA	0.0000		9999	0	0	0	0
2017/06/17 06:34:00	BASE	7.49	240	8.49	232	-2.8	73	-6.9	0	0	993.4	NA	0.0000		9999	0	0	0	0
2017/06/17 06:35:00	BASE	6.98	238	8.49	232	-2.8	74	-6.8	0	0	993.4	NA	0.0000		9999	0	0	0	0
2017/06/17 06:36:00	BASE	6.78	237	8.49	232	-2.8	74	-6.8	0	0	993.4	NA	0.0000		9999	0	0	0	0
2017/06/17 06:37:00	BASE	6.61	239	8.49	232	-2.7	74	-6.7	0	0	993.4	NA	0.0000		9999	0	0	0	0
2017/06/17 06:38:00	BASE	5.86	243	8.49	232	-2.7	74	-6.7	0	0	993.4	NA	0.0000		9999	0	0	0	0
2017/06/17 06:39:00	BASE	5.10	244	8.39	227	-2.7	74	-6.7	0	0	993.4	NA	0.0000		9999	5910	0	0	0
2017/06/17 06:40:00	BASE	5.47	240	8.39	227	-2.7	74	-6.7	0	0	993.4	NA	0.0000		9999	0	0	0	0
2017/06/17 06:41:00	BASE	6.25	238	8.33	243	-2.7	74	-6.7	0	0	993.4	NA	0.0000		9999	0	0	0	0
2017/06/17 06:42:00	BASE	6.50	244	8.33	243	-2.7	74	-6.7	0	0	993.4	NA	0.0000		9999	0	0	0	0
2017/06/17 06:43:00	BASE	6.32	246	7.92	233	-2.7	74	-6.7	0	0	993.3	NA	0.0000		9999	0	0	0	0
2017/06/17 06:44:00	BASE	6.00	243	7.92	233	-2.7	74	-6.7	0	0	993.3	NA	0.0000		9999	0	0	0	0
2017/06/17 06:45:00	BASE	6.21	242	7.61	240	-2.7	74	-6.7	0	0	993.3	NA	0.0000		9999	0	0	0	0
2017/06/17 06:46:00	BASE	6.82	242	7.92	243	-2.7	74	-6.7	0	0	993.3	NA	0.0000		9999	0	0	0	0
2017/06/17 06:47:00	BASE	7.06	241	7.92	243	-2.7	74	-6.7	0	0	993.3	NA	0.0000		9999	0	0	0	0
2017/06/17 06:48:00	BASE	6.53	243	7.92	243	-2.7	74	-6.7	0	0	993.3	NA	0.0000		9999	0	0	0	0
2017/06/17 06:49:00	BASE	6.06	244	7.92	243	-2.7	74	-6.7	0	0	993.3	NA	0.0000		9999	0	0	0	0
2017/06/17 06:50:00	BASE	5.90	245	7.92	243	-2.7	74	-6.7	0	0	993.3	NA	0.0000		9999	0	0	0	0
2017/06/17 06:51:00	BASE	6.13	244	7.92	243	-2.7	74	-6.7	0	0	993.3	NA	0.0000		9999	0	0	0	0
2017/06/17 06:52:00	BASE	6.24	243	7.92	243	-2.7	74	-6.7	0	0	993.2	NA	0.0000		9999	0	0	0	0
2017/06/17 06:53:00	BASE	5.74	244	7.92	243	-2.7	73	-6.8	0	0	993.2	NA	0.0000		9999	0	0	0	0
2017/06/17 06:54:00	BASE	5.11	245	7.92	243	-2.7	73	-6.8	0	0	993.3	NA	0.0000		9999	0	0	0	0
2017/06/17 06:55:00	BASE	5.09	247	7.92	243	-2.6	73	-6.8	0	0	993.2	NA	0.0000		9999	0	0	0	0
2017/06/17 06:56:00	BASE	5.18	248	7.72	238	-2.6	73	-6.8	0	0	993.2	NA	0.0000		9999	0	0	0	0
2017/06/17 06:57:00	BASE	4.54	249	7.72	238	-2.6	73	-6.8	0	0	993.2	NA	0.0000		9999	0	0	0	0
2017/06/17 06:58:00	BASE	5.18	244	7.72	238	-2.6	73	-6.8	0	0	993.2	NA	0.0000		9999	0	0	0	0
2017/06/17 06:59:00	BASE	6.82	238	7.92	241	-2.6	73	-6.8	0	0	993.2	NA	0.0000		9999	0	0	0	0
2017/06/17 07:00:00	BASE	7.15	237	7.92	241	-2.6	73	-6.8	0	0	993.2	NA	0.0000		9999	0	0	0	0
2017/06/17 07:01:00	BASE	7.05	237	7.92	241	-2.6	73	-6.8	0	0	993.2	NA	0.0000		9999	0	0	0	0
2017/06/17 07:02:00	BASE	7.15	237	8.03	235	-2.7	73	-6.9	0	0	993.2	NA	0.0000		9999	0	0	0	0
2017/06/17 07:03:00	BASE	6.93	234	8.03	235	-2.7	72	-7.0	0	0	993.3	NA	0.0000		9999	5970	0	0	0
2017/06/17 07:04:00	BASE	7.24	229	8.49	213	-2.7	72	-7.0	0	0	993.3	NA	0.0000		9999	3940	6000	0	0
2017/06/17 07:05:00	BASE	7.37	222	8.54	220	-2.7	72	-7.0	0	0	993.3	NA	0.0000		9999	2300	3250	3970	0
2017/06/17 07:06:00	BASE	7.18	221	8.54	220	-2.7	73	-6.9	0	0	993.3	NA	0.0000		9999	1570	0	0	0
2017/06/17 07:07:00	BASE	6.94	220	8.54	220	-2.7	73	-6.8	0	0	993.3	NA	0.0000		9999	1610	0	0	0
2017/06/17 07:08:00	BASE	7.09	218	8.75	216	-2.7	74	-6.7	0	0	993.2	NA	0.0000		9999	1840	4490	0	0
2017/06/17 07:09:00	BASE	7.82	216	8.75	216	-2.7	75	-6.6	0	0	993.2	NA	0.0000		9999	0	0	0	0
2017/06/17 07:10:00	BASE	7.68	216	8.75	216	-2.8	75	-6.6	0	0	993.2	NA	0.0000		9999	0	0	0	0
2017/06/17 07:11:00	BASE	6.54	214	8.75	216	-2.8	76	-6.5	0	0	993.2	NA	0.0000		9999	0	0	0	0
2017/06/17 07:12:00	BASE	6.55	214	8.75	216	-2.8	76	-6.5	0	0	993.2	NA	0.0000		9999	0	0	0	0
2017/06/17 07:13:00	BASE	7.43	214	8.75	216	-2.9	76	-6.5	0	0	993.2	NA	0.0000		9999	0	0	0	0
2017/06/17 07:14:00	BASE	6.93	213	8.75	216	-2.9	76	-6.5	0	0	993.2	NA	0.0000		9999	5020	0	0	0
2017/06/17 07:15:00	BASE	6.12	213	8.75	216	-2.9	77	-6.4	0	0	993.2	NA	0.0000		9999	0	0	0	0
2017/06/17 07:16:00	BASE	6.54	210	8.75	216	-2.9	77	-6.4	0	0	993.2	NA	0.0000		9999	0	0	0	0
2017/06/17 07:17:00	BASE	6.91	208	8.75	216	-3.0	77	-6.4	0	0	993.2	NA	0.0000		9999	4860	0	0	0
2017/06/17 07:18:00	BASE	6.89	210	8.54	217	-3.0	77	-6.4	0	0	993.2	NA	0.0000		9999	4860	0	0	0
2017/06/17 07:19:00	BASE	6.78	212	8.33	210	-3.0	77	-6.4	0	0	993.2	NA	0.0000		9999	5050	0	0	0
2017/06/17 07:20:00	BASE	6.76	213	8.33	210	-3.1	78	-6.4	0	0	993.2	NA	0.0000		9999	0	0	0	0
2017/06/17 07:21:00	BASE	6.93	212	8.33	210	-3.1	78	-6.4	0	0	993.2	NA	0.0000		9999	0	0	0	0
2017/06/17 07:22:00	BASE	6.51	213	8.33	210	-3.1	78	-6.3	0	0	993.2	NA	0.0000		9999	0	0	0	0
2017/06/17 07:23:00	BASE	6.38	215	7.72	212	-3.1	78	-6.3	0	0	993.2	NA	0.0000		9999	0	0	0	0
2017/06/17 07:24:00	BASE	6.63	215	7.72	212	-3.1	79	-6.3	0	0	993.3	NA	0.0000		9999	3350	0	0	0
2017/06/17 07:25:00	BASE	6.12	217	7.72	212	-3.1	79	-6.3	0	0	993.3	NA	0.0000		9999	3410	0	0	0
2017/06/17 07:26:00	BASE	5.91	217	7.72	212	-3.1	79	-6.2	0	0	993.3	NA	0.0000		9999	0	0	0	0
2017/06/17 07:27:00	BASE	6.08	218	7.72	212	-3.1	79	-6.3	0	0	993.3	NA	0.0000		9999	0	0	0	0
2017/06/17 07:28:00	BASE	5.82	218	7.72	212	-3.2	79	-6.3	0	0	993.3	NA	0.0000		9999	0	0	0	0
2017/06/17 07:29:00	BASE	5.55	215	7.72	212	-3.2	79	-6.3	0	0	993.3	NA	0.0000		9999	0	0	0	0
2017/06/17 07:30:00	BASE	5.66	217	7.61	210	-3.2	79	-6.3	0	0	993.3	NA	0.0000		9999	0	0	0	0
2017/06/17 07:31:00	BASE	5.51	220	7.61	210	-3.2	79	-6.3	0	0	993.3	NA	0.0000		9999	0	0	0	0
2017/06/17 07:32:00	BASE	5.26	220	7.61	210	-3.2	79	-6.3	0	0	993.3	NA	0.0000		9999	0	0	0	0
2017/06/17 07:33:00	BASE	5.43	221	7.15	213	-3.2	79	-6.3	0	0	993.3	NA	0.0000		9999	0	0	0	0
2017/06/17 07:34:00	BASE	5.26	219	7.15	213	-3.2	79	-6.3	0	0	993.3	NA	0.0000		9999	0	0	0	0
2017/06/17 07:35:00	BASE	4.98	217	7.15	213	-3.2	79	-6.2	0	0	993.3	NA	0.0000		9999	2620	0	0	0
2017/06/17 07:36:00	BASE	6.89	216	9.98	209	-3.2	80	-6.2	0	0	993.2	NA	0.0000		9999	1480	2130	0	0
2017/06/17 07:37:00	BASE	8.53	215	9.98	209	-3.2	80	-6.2	0	0	993.3	NA	0.0000		9999	1540	0	0	0
2017/06/17 07:38:00	BASE	8.44	214	9.98	209	-3.2	80	-6.1	0	0	993.3	NA	0.0000		9999	1610	0	0	0
2017/06/17 07:39:00	BASE	8.74	211	9.98	209	-3.2	80	-6.1	0	0	993.3	NA	0.0000		9999	1510	0	0	0
2017/06/17 07:40:00	BASE	8.44	210	9.98	209	-3.3	81	-6.1	0	0	993.2	NA	0.0000		9999	5540	0	0	0
2017/06/17 07:41:00	BASE	7.81	212	9.98	209	-3.3	81	-6.1	0	0	993.3	NA	0.0000		9999	5180	7740	0	0
2017/06/17 07:42:00	BASE	7.85	213	9.98	209	-3.4	81	-6.1	0	0	993.2	NA	0.0000		9999	5280	0	0	0
2017/06/17 07:43:00	BASE	7.79	213	9.98	209	-3.4	81	-6.2	0	0	993.2	NA	0.0000		9999	2230	0	0	0
2017/06/17 07:44:00	BASE	7.52	215	9.98	209	-3.4	81	-6.2	0	0	993.2	NA	0.0000		9999	5910	0	0	0
2017/06/17 07:45:00	BASE	7.22	220	9.98	209	-3.4	81	-6.2	0	0	993.2	NA	0.0000		9999	5910	0	0	0
2017/06/17 07:46:00	BASE	6.71	222	9.67	214	-3.4	81	-6.2	0	0	993.2	NA	0.0000		9999	5120	0	0	0
2017/06/17 07:47:00	BASE	6.64	224	9.67	214	-3.4	81	-6.3	0	0	993.1	NA	0.0000		9999	5280	0	0	0
2017/06/17 07:48:00	BASE	6.55	226	9.62	205	-3.4	81	-6.3	0	0	993.1	NA	0.0000		9999	4920	0	0	0
2017/06/17 07:49:00	BASE	6.20	227	9.16	215	-3.4	80	-6.3	0	0	993.0	NA	0.0000		9999	5050	0	0	0
2017/06/17 07:50:00	BASE	6.00	231	9.16	215	-3.4	80	-6.3	0	0	993.0	NA	0.0000		9999	3250	5220	0	0
2017/06/17 07:51:00	BASE	5.54	227	9.16	215	-3.4	80	-6.4	0	0	993.0	NA	0.0000		9999	5410	0	0	0
2017/06/17 07:52:00	BASE	5.25	223	8.18	209	-3.4	80	-6.4	0	0	993.0	NA	0.0000		9999	5810	0	0	0
2017/06/17 07:53:00	BASE	5.42	224	8.18	209	-3.3	80	-6.4	0	0	993.0	NA	0.0000		9999	0	0	0	0
2017/06/17 07:54:00	BASE	5.06	226	7.41	220	-3.3	79	-6.4	0	0	993.0	NA	0.0000		9999	5640	0	0	0
2017/06/17 07:55:00	BASE	4.75	229	7.36	225	-3.3	79	-6.4	0	0	993.0	NA	0.0000		9999	4360	5320	0	0
2017/06/17 07:56:00	BASE	4.40	231	7.36	225	-3.3	79	-6.5	0	0	993.0	NA	0.0000		9999	4360	0	0	0
2017/06/17 07:57:00	BASE	4.35	232	7.05	225	-3.3	78	-6.6	0	0	993.0	NA	0.0000		9999	5580	0	0	0
2017/06/17 07:58:00	BASE	4.09	234	6.64	233	-3.3	78	-6.6	0	0	992.9	NA	0.0000		9999	6100	0	0	0
2017/06/17 07:59:00	BASE	4.22	233	6.64	233	-3.3	77	-6.7	0	0	992.9	NA	0.0000		9999	6100	0	0	0
2017/06/17 08:00:00	BASE	4.65	229	6.38	221	-3.3	77	-6.7	0	0	992.9	NA	0.0000		9999	5840	0	0	0
2017/06/17 08:01:00	BASE	3.98	224	6.38	221	-3.3	77	-6.8	0	0	992.9	NA	0.0000		9999	5840	0	0	0
2017/06/17 08:02:00	BASE	3.95	218	6.12	214	-3.3	77	-6.7	0	0	992.9	NA	0.0000		9999	5810	0	0	0
2017/06/17 08:03:00	BASE	4.66	214	5.71	213	-3.2	77	-6.7	0	0	992.9	NA	0.0000		9999	6040	0	0	0
2017/06/17 08:04:00	BASE	4.80	217	5.71	213	-3.2	77	-6.7	0	0	992.9	NA	0.0000		9999	6040	0	0	0
2017/06/17 08:05:00	BASE	4.43	220	5.71	213	-3.2	77	-6.7	0	0	992.9	NA	0.0000		9999	6040	0	0	0
2017/06/17 08:06:00	BASE	4.13	223	5.71	213	-3.1	77	-6.6	0	0	992.9	NA	0.0000		9999	6230	0	0	0
2017/06/17 08:07:00	BASE	4.07	225	5.71	213	-3.1	77	-6.5	0	0	992.9	NA	0.0000		9999	6270	0	0	0
2017/06/17 08:08:00	BASE	3.99	229	5.71	213	-3.2	78	-6.5	0	0	992.9	NA	0.0000		9999	6200	0	0	0
2017/06/17 08:09:00	BASE	3.84	232	5.71	213	-3.2	78	-6.5	0	0	992.9	NA	0.0000		9999	6370	0	0	0
2017/06/17 08:10:00	BASE	3.38	236	5.71	213	-3.2	78	-6.5	0	0	992.9	NA	0.0000		9999	5810	6230	0	0
2017/06/17 08:11:00	BASE	3.44	238	5.71	213	-3.3	78	-6.6	0	0	992.8	NA	0.0000		9999	6070	0	0	0
2017/06/17 08:12:00	BASE	3.46	244	5.71	213	-3.3	78	-6.6	0	0	992.8	NA	0.0000		9999	6300	0	0	0
2017/06/17 08:13:00	BASE	3.22	251	5.56	215	-3.3	78	-6.6	0	0	992.8	NA	0.0000		9999	6270	0	0	0
2017/06/17 08:14:00	BASE	3.59	253	4.99	220	-3.3	78	-6.6	0	0	992.7	NA	0.0000		9999	0	0	0	0
2017/06/17 08:15:00	BASE	3.66	251	4.99	220	-3.3	77	-6.7	0	0	992.7	NA	0.0000		9999	0	0	0	0
2017/06/17 08:16:00	BASE	3.78	251	4.78	260	-3.3	77	-6.7	0	0	992.7	NA	0.0000		9999	0	0	0	0
2017/06/17 08:17:00	BASE	3.72	257	4.78	260	-3.2	76	-6.8	0	0	992.7	NA	0.0000		9999	0	0	0	0
2017/06/17 08:18:00	BASE	3.65	259	5.04	252	-3.2	75	-7.0	0	0	992.7	NA	0.0000		9999	0	0	0	0
2017/06/17 08:19:00	BASE	4.60	265	7.15	272	-3.1	75	-7.0	0	0	992.6	NA	0.0000		9999	0	0	0	0
2017/06/17 08:20:00	BASE	5.53	274	7.15	272	-3.1	74	-7.1	0	0	992.6	NA	0.0000		9999	0	0	0	0
2017/06/17 08:21:00	BASE	5.44	272	7.15	272	-3.0	73	-7.1	0	0	992.6	NA	0.0000		9999	0	0	0	0
2017/06/17 08:22:00	BASE	4.45	265	7.15	272	-2.9	72	-7.2	0	0	992.6	NA	0.0000		9999	0	0	0	0
2017/06/17 08:23:00	BASE	4.57	268	7.15	272	-2.8	72	-7.3	0	0	992.6	NA	0.0000		9999	0	0	0	0
2017/06/17 08:24:00	BASE	5.62	273	7.15	272	-2.8	71	-7.4	0	0	992.6	NA	0.0000		9999	6460	0	0	0
2017/06/17 08:25:00	BASE	5.90	273	7.15	272	-2.8	70	-7.5	0	0	992.5	NA	0.0000		9999	6460	0	0	0
2017/06/17 08:26:00	BASE	5.21	269	7.15	272	-2.7	70	-7.5	0	0	992.6	NA	0.0000		9999	6460	0	0	0
2017/06/17 08:27:00	BASE	4.41	262	7.15	272	-2.7	70	-7.5	0	0	992.5	NA	0.0000		9999	6270	0	0	0
2017/06/17 08:28:00	BASE	5.31	265	7.36	276	-2.8	70	-7.4	0	0	992.5	NA	0.0000		9999	6270	0	0	0
2017/06/17 08:29:00	BASE	6.64	267	8.39	258	-2.7	71	-7.3	0	0	992.4	NA	0.0000		9999	6230	0	0	0
2017/06/17 08:30:00	BASE	7.38	264	8.75	269	-2.7	71	-7.3	0	0	992.4	NA	0.0000		9999	6760	0	0	0
2017/06/17 08:31:00	BASE	8.04	264	9.26	270	-2.6	70	-7.3	0	0	992.4	NA	0.0000		9999	0	0	0	0
2017/06/17 08:32:00	BASE	8.53	266	9.93	267	-2.6	70	-7.3	0	0	992.4	NA	0.0000		9999	6660	0	0	0
2017/06/17 08:33:00	BASE	8.56	267	9.93	267	-2.6	70	-7.3	0	0	992.3	NA	0.0000		9999	6430	0	0	0
2017/06/17 08:34:00	BASE	8.00	266	9.93	267	-2.6	70	-7.3	0	0	992.3	NA	0.0000		9999	0	0	0	0
2017/06/17 08:35:00	BASE	7.81	265	9.93	267	-2.6	70	-7.2	0	0	992.3	NA	0.0000		9999	0	0	0	0
2017/06/17 08:36:00	BASE	7.99	261	9.93	267	-2.5	71	-7.2	0	0	992.3	NA	0.0000		9999	0	0	0	0
2017/06/17 08:37:00	BASE	8.00	256	9.93	267	-2.5	71	-7.2	0	0	992.3	NA	0.0000		9999	0	0	0	0
2017/06/17 08:38:00	BASE	8.46	256	10.13	240	-2.5	70	-7.3	0	0	992.3	NA	0.0000		9999	0	0	0	0
2017/06/17 08:39:00	BASE	8.78	257	10.13	240	-2.5	69	-7.5	0	0	992.3	NA	0.0000		9999	0	0	0	0
2017/06/17 08:40:00	BASE	8.24	254	10.13	240	-2.5	67	-7.8	0	0	992.3	NA	0.0000		9999	7150	0	0	0
2017/06/17 08:41:00	BASE	7.67	247	10.13	240	-2.5	66	-8.1	0	0	992.3	NA	0.0000		9999	7090	7680	0	0
2017/06/17 08:42:00	BASE	7.38	248	10.13	240	-2.5	64	-8.3	0	0	992.3	NA	0.0000		9999	7050	0	0	0
2017/06/17 08:43:00	BASE	7.59	252	10.13	240	-2.4	63	-8.5	0	0	992.3	NA	0.0000		9999	7640	0	0	0
2017/06/17 08:44:00	BASE	7.90	248	10.13	240	-2.4	62	-8.6	0	0	992.2	NA	0.0000		9999	0	0	0	0
2017/06/17 08:45:00	BASE	7.10	243	10.13	240	-2.4	62	-8.7	0	0	992.2	NA	0.0000		9999	0	0	0	0
2017/06/17 08:46:00	BASE	6.92	250	10.13	240	-2.4	61	-8.8	0	0	992.2	NA	0.0000		9999	0	0	0	0
2017/06/17 08:47:00	BASE	7.40	258	10.13	240	-2.4	61	-8.9	0	0	992.2	NA	0.0000		9999	0	0	0	0
2017/06/17 08:48:00	BASE	7.92	262	10.60	265	-2.4	61	-8.9	0	0	992.1	NA	0.0000		9999	0	0	0	0
2017/06/17 08:49:00	BASE	8.62	264	10.60	265	-2.4	61	-9.0	0	0	992.1	NA	0.0000		9999	0	0	0	0
2017/06/17 08:50:00	BASE	7.91	262	10.60	265	-2.4	60	-9.1	0	0	992.2	NA	0.0000		9999	4990	0	0	0
2017/06/17 08:51:00	BASE	8.03	261	10.60	265	-2.4	60	-9.1	0	0	992.1	NA	0.0000		9999	4920	0	0	0
2017/06/17 08:52:00	BASE	8.53	261	10.60	265	-2.4	60	-9.2	0	0	992.1	NA	0.0000		9999	6630	0	0	0
2017/06/17 08:53:00	BASE	8.14	259	10.60	265	-2.4	60	-9.2	0	0	992.1	NA	0.0000		9999	6300	0	0	0
2017/06/17 08:54:00	BASE	8.64	257	10.60	265	-2.4	60	-9.2	0	0	992.0	NA	0.0000		9999	3870	0	0	0
2017/06/17 08:55:00	BASE	8.71	254	10.60	265	-2.4	60	-9.1	0	0	992.1	NA	0.0000		9999	0	0	0	0
2017/06/17 08:56:00	BASE	8.06	249	10.60	265	-2.4	61	-9.0	0	0	992.1	NA	0.0000		9999	0	0	0	0
2017/06/17 08:57:00	BASE	7.81	248	10.60	265	-2.5	62	-8.8	0	0	992.0	NA	0.0000		9999	0	0	0	0
2017/06/17 08:58:00	BASE	7.70	250	10.55	245	-2.6	63	-8.7	0	0	992.1	NA	0.0000		9999	5940	0	0	0
2017/06/17 08:59:00	BASE	7.21	251	10.55	245	-2.6	64	-8.5	0	0	992.1	NA	0.0000		9999	0	0	0	0
2017/06/17 09:00:00	BASE	7.07	254	10.55	245	-2.7	65	-8.4	0	0	992.1	NA	0.0000		9999	0	0	0	0
2017/06/17 09:01:00	BASE	7.19	256	10.55	245	-2.7	66	-8.3	0	0	992.1	NA	0.0000		9999	6590	8010	0	0
2017/06/17 09:02:00	BASE	7.39	255	10.55	245	-2.8	66	-8.2	0	0	992.0	NA	0.0000		9999	5810	0	0	0
2017/06/17 09:03:00	BASE	7.68	255	10.55	245	-2.8	67	-8.0	0	0	992.0	NA	0.0000		9999	5350	0	0	0
2017/06/17 09:04:00	BASE	7.76	256	10.55	245	-2.8	68	-7.9	0	0	992.0	NA	0.0000		9999	5250	0	0	0
2017/06/17 09:05:00	BASE	7.51	257	10.55	245	-2.8	68	-7.8	0	0	992.0	NA	0.0000		9999	4920	0	0	0
2017/06/17 09:06:00	BASE	6.88	257	9.88	235	-2.8	69	-7.7	0	0	991.9	NA	0.0000		9999	0	0	0	0
2017/06/17 09:07:00	BASE	6.78	259	9.41	256	-2.8	69	-7.7	0	0	991.9	NA	0.0000		9999	4720	0	0	0
2017/06/17 09:08:00	BASE	7.46	260	9.00	252	-2.7	69	-7.6	0	0	991.9	NA	0.0000		9999	0	0	0	0
2017/06/17 09:09:00	BASE	7.77	260	9.00	252	-2.7	69	-7.7	0	0	991.9	NA	0.0000		9999	4430	8790	0	0
2017/06/17 09:10:00	BASE	7.60	262	9.00	252	-2.7	68	-7.8	0	0	992.0	NA	0.0000		9999	4200	0	0	0
2017/06/17 09:11:00	BASE	7.15	261	9.00	252	-2.7	67	-7.9	0	0	992.0	NA	0.0000		9999	4200	0	0	0
2017/06/17 09:12:00	BASE	6.91	257	8.80	267	-2.7	67	-8.1	0	0	992.0	NA	0.0000		9999	4130	0	0	0
2017/06/17 09:13:00	BASE	7.32	256	8.80	267	-2.7	66	-8.2	0	0	992.0	NA	0.0000		9999	4070	0	0	0
2017/06/17 09:14:00	BASE	7.27	257	8.54	262	-2.7	65	-8.3	0	0	992.0	NA	0.0000		9999	4130	0	0	0
2017/06/17 09:15:00	BASE	6.99	258	8.54	262	-2.7	65	-8.4	0	0	992.0	NA	0.0000		9999	4270	7510	0	0
2017/06/17 09:16:00	BASE	7.08	256	8.54	262	-2.7	65	-8.4	0	0	992.0	NA	0.0000		9999	7320	0	0	0
2017/06/17 09:17:00	BASE	7.26	257	8.54	262	-2.7	65	-8.3	0	0	991.9	NA	0.0000		9999	0	0	0	0
2017/06/17 09:18:00	BASE	7.57	263	8.69	260	-2.7	66	-8.3	0	0	991.9	NA	0.0000		9999	3640	0	0	0
2017/06/17 09:19:00	BASE	7.72	273	8.69	260	-2.8	66	-8.1	0	0	991.9	NA	0.0000		9999	0	0	0	0
2017/06/17 09:20:00	BASE	8.17	280	9.77	282	-2.8	67	-8.0	0	0	991.9	NA	0.0000		9999	0	0	0	0
2017/06/17 09:21:00	BASE	9.04	278	10.24	272	-2.9	68	-7.9	0	0	991.8	NA	0.0000		9999	0	0	0	0
2017/06/17 09:22:00	BASE	8.68	278	10.24	272	-2.9	70	-7.7	0	0	991.9	NA	0.0000		9999	0	0	0	0
2017/06/17 09:23:00	BASE	8.38	280	10.24	272	-3.0	71	-7.6	0	0	991.8	NA	0.0000		9999	0	0	0	0
2017/06/17 09:24:00	BASE	8.34	282	10.24	272	-3.1	72	-7.4	0	0	991.8	NA	0.0000		9999	0	0	0	0
2017/06/17 09:25:00	BASE	7.76	283	10.24	272	-3.2	73	-7.4	0	0	991.8	NA	0.0000		9999	0	0	0	0
2017/06/17 09:26:00	BASE	7.07	280	10.24	272	-3.2	74	-7.3	0	0	991.8	NA	0.0000		9999	0	0	0	0
2017/06/17 09:27:00	BASE	6.50	278	10.24	272	-3.3	74	-7.2	0	0	991.8	NA	0.0000		9999	0	0	0	0
2017/06/17 09:28:00	BASE	6.15	279	10.24	272	-3.3	75	-7.1	0	0	991.8	NA	0.0000		9999	0	0	0	0
2017/06/17 09:29:00	BASE	6.24	280	10.24	272	-3.3	75	-7.0	0	0	991.7	NA	0.0000		9999	0	0	0	0
2017/06/17 09:30:00	BASE	6.58	281	10.24	272	-3.3	76	-6.9	0	0	991.7	NA	0.0000		9999	0	0	0	0
2017/06/17 09:31:00	BASE	6.82	277	9.11	281	-3.3	76	-6.9	0	0	991.7	NA	0.0000		9999	0	0	0	0
2017/06/17 09:32:00	BASE	6.70	273	9.11	281	-3.3	77	-6.8	0	0	991.7	NA	0.0000		9999	0	0	0	0
2017/06/17 09:33:00	BASE	6.50	273	8.85	279	-3.2	77	-6.7	0	0	991.7	NA	0.0000		9999	0	0	0	0
2017/06/17 09:34:00	BASE	6.54	274	8.39	282	-3.2	77	-6.7	0	0	991.7	NA	0.0000		9999	0	0	0	0
2017/06/17 09:35:00	BASE	6.97	273	8.18	274	-3.2	77	-6.6	0	0	991.7	NA	0.0000		9999	0	0	0	0
2017/06/17 09:36:00	BASE	7.20	273	8.18	274	-3.2	77	-6.6	0	0	991.7	NA	0.0000		9999	0	0	0	0
2017/06/17 09:37:00	BASE	6.53	276	8.18	274	-3.1	78	-6.5	0	0	991.7	NA	0.0000		9999	0	0	0	0
2017/06/17 09:38:00	BASE	6.14	278	8.18	274	-3.1	78	-6.5	0	0	991.7	NA	0.0000		9999	0	0	0	0
2017/06/17 09:39:00	BASE	6.11	279	8.18	274	-3.1	78	-6.4	0	0	991.7	NA	0.0000		9999	0	0	0	0
2017/06/17 09:40:00	BASE	6.32	278	8.18	274	-3.1	78	-6.3	0	0	991.7	NA	0.0000		9999	0	0	0	0
2017/06/17 09:41:00	BASE	6.19	277	8.18	274	-3.1	79	-6.3	0	0	991.7	NA	0.0000		9999	0	0	0	0
2017/06/17 09:42:00	BASE	5.87	277	8.18	274	-3.1	79	-6.2	0	0	991.7	NA	0.0000		9999	8430	0	0	0
2017/06/17 09:43:00	BASE	6.31	275	8.18	274	-3.1	79	-6.2	0	0	991.7	NA	0.0000		9999	8400	0	0	0
2017/06/17 09:44:00	BASE	6.70	273	8.18	274	-3.1	80	-6.1	0	0	991.6	NA	0.0000		9999	0	0	0	0
2017/06/17 09:45:00	BASE	6.46	270	7.46	271	-3.1	80	-6.1	0	0	991.6	NA	0.0000		9999	0	0	0	0
2017/06/17 09:46:00	BASE	6.03	273	7.41	269	-3.1	80	-6.0	0	0	991.6	NA	0.0000		9999	7810	0	0	0
2017/06/17 09:47:00	BASE	6.13	277	7.41	269	-3.1	80	-6.0	0	0	991.6	NA	0.0000		9999	7740	0	0	0
2017/06/17 09:48:00	BASE	6.53	278	7.97	279	-3.1	81	-5.9	0	0	991.6	NA	0.0000		9999	7680	0	0	0
2017/06/17 09:49:01	BASE	6.65	280	7.97	279	-3.1	81	-6.0	0	0	991.6	NA	0.0000		9999	0	0	0	0
2017/06/17 09:50:00	BASE	6.76	277	7.97	279	-3.1	81	-6.0	0	0	991.5	NA	0.0000		9999	0	0	0	0
2017/06/17 09:51:00	BASE	7.50	275	8.64	274	-3.1	80	-6.0	0	0	991.5	NA	0.0000		9999	0	0	0	0
2017/06/17 09:52:00	BASE	8.06	274	8.80	275	-3.1	80	-6.1	0	0	991.5	NA	0.0000		9999	8040	0	0	0
2017/06/17 09:53:00	BASE	7.71	274	8.80	275	-3.1	79	-6.2	0	0	991.5	NA	0.0000		9999	7190	7940	0	0
2017/06/17 09:54:01	BASE	7.13	271	8.80	275	-3.1	79	-6.3	0	0	991.5	NA	0.0000		9999	7120	7910	0	0
2017/06/17 09:55:00	BASE	7.30	270	8.80	275	-3.0	78	-6.4	0	0	991.5	NA	0.0000		9999	7090	0	0	0
2017/06/17 09:56:00	BASE	7.77	272	8.80	275	-3.0	77	-6.5	0	0	991.4	NA	0.0000		9999	6140	7050	0	0
2017/06/17 09:57:00	BASE	6.95	275	8.80	275	-2.9	76	-6.5	0	0	991.5	NA	0.0000		9999	6300	0	0	0
2017/06/17 09:58:00	BASE	6.98	279	9.77	271	-2.9	76	-6.6	0	0	991.4	NA	0.0000		9999	5350	0	0	0
2017/06/17 09:59:01	BASE	8.23	275	9.77	271	-2.9	75	-6.7	0	0	991.4	NA	0.0000		9999	6270	0	0	0
2017/06/17 10:00:00	BASE	8.44	273	9.77	271	-2.9	74	-6.8	0	0	991.4	NA	0.0000		9999	6000	0	0	0
2017/06/17 10:01:01	BASE	7.82	276	9.77	271	-2.8	74	-6.9	0	0	991.4	NA	0.0000		9999	5910	0	0	0
2017/06/17 10:02:00	BASE	6.94	277	9.77	271	-2.8	73	-7.0	0	0	991.4	NA	0.0000		9999	5870	0	0	0
2017/06/17 10:03:01	BASE	7.05	277	9.77	271	-2.8	72	-7.1	0	0	991.4	NA	0.0000		9999	5840	0	0	0
2017/06/17 10:04:00	BASE	8.07	277	9.88	274	-2.8	72	-7.2	0	0	991.3	NA	0.0000		9999	5810	0	0	0
2017/06/17 10:05:00	BASE	8.75	281	10.60	292	-2.8	71	-7.2	0	0	991.2	NA	0.0000		9999	1180	2360	0	0
2017/06/17 10:06:01	BASE	9.08	284	10.60	292	-2.7	72	-7.1	0	0	991.3	NA	0.0000		9999	1150	0	0	0
2017/06/17 10:07:01	BASE	9.24	280	10.60	292	-2.7	73	-6.9	0	0	991.2	NA	0.0000		8000	1080	0	0	0
2017/06/17 10:08:01	BASE	9.22	278	10.60	292	-2.7	74	-6.6	0	0	991.3	NA	0.0000	UP	8000	1120	0	0	0
2017/06/17 10:09:01	BASE	9.85	279	11.88	280	-2.7	76	-6.4	0	0	991.2	NA	0.0000	UP	8000	1440	2560	0	0
2017/06/17 10:10:01	BASE	10.51	280	11.88	280	-2.8	77	-6.2	0	0	991.2	NA	0.0000	UP	7000	790	0	0	0
2017/06/17 10:11:01	BASE	10.25	280	11.88	280	-2.9	79	-6.1	0	0	991.2	NA	0.0000	UP	7000	0	0	0	4560
2017/06/17 10:12:01	BASE	9.54	281	11.88	280	-3.0	80	-6.0	0	0	991.2	NA	0.0000	UP	4400	230	3640	0	0
2017/06/17 10:13:01	BASE	9.50	286	12.04	289	-3.0	80	-5.9	0	0	991.1	NA	0.0000	-SN	3600	330	0	0	0
2017/06/17 10:14:01	BASE	10.39	289	12.04	289	-3.0	81	-5.9	0	0	991.1	NA	0.0000	-SN	5000	390	0	0	0
2017/06/17 10:15:01	BASE	10.74	291	12.04	289	-3.1	81	-5.9	0	0	991.1	NA	0.0000	-SN	6000	5320	0	0	0
2017/06/17 10:16:01	BASE	10.61	293	12.04	289	-3.1	82	-5.8	0	0	991.1	NA	0.0000	-SN	8000	5250	0	0	0
2017/06/17 10:17:01	BASE	11.06	295	12.19	293	-3.2	82	-5.8	0	0	991.0	NA	0.0000	-SN	9999	5610	0	0	0
2017/06/17 10:18:01	BASE	10.87	295	12.19	293	-3.3	83	-5.8	0	0	991.0	NA	0.0000	-SN	9999	5450	0	0	0
2017/06/17 10:19:01	BASE	10.23	300	12.19	293	-3.3	83	-5.8	0	0	991.0	NA	0.0000	-SN	9999	5410	0	0	0
2017/06/17 10:20:01	BASE	10.62	304	12.19	293	-3.4	83	-5.8	0	0	991.0	NA	0.0000	-SN	9999	5450	0	0	0
2017/06/17 10:21:01	BASE	10.93	306	12.19	293	-3.5	84	-5.9	0	0	991.0	NA	0.0000	-SN	9999	5350	0	0	0
2017/06/17 10:22:01	BASE	10.27	309	12.19	293	-3.6	84	-6.0	0	0	991.0	NA	0.0000	-SN	9999	5220	0	0	0
2017/06/17 10:23:01	BASE	9.74	311	12.19	293	-3.7	84	-6.0	0	0	991.0	NA	0.0000	-SN	9999	5410	0	0	0
2017/06/17 10:24:01	BASE	9.25	313	12.19	293	-3.8	84	-6.1	0	0	991.0	NA	0.0000		9999	5680	0	0	0
2017/06/17 10:25:01	BASE	8.91	314	12.19	293	-3.8	84	-6.1	0	0	991.0	NA	0.0000		9999	5220	0	0	0
2017/06/17 10:26:01	BASE	8.99	314	12.19	293	-3.9	84	-6.1	0	0	991.0	NA	0.0000		9999	5120	0	0	0
2017/06/17 10:27:01	BASE	8.57	315	11.78	304	-3.9	84	-6.1	0	0	991.0	NA	0.0000		9999	5150	0	0	0
2017/06/17 10:28:01	BASE	8.20	315	11.78	304	-3.9	85	-6.1	0	0	991.0	NA	0.0000		9999	5350	0	0	0
2017/06/17 10:29:01	BASE	8.47	314	11.78	304	-3.9	85	-6.1	0	0	991.0	NA	0.0000		9999	5320	0	0	0
2017/06/17 10:30:01	BASE	8.28	313	11.78	304	-3.9	85	-6.1	0	0	991.0	NA	0.0000		9999	5180	0	0	0
2017/06/17 10:31:01	BASE	8.09	313	10.49	313	-4.0	85	-6.1	0	0	991.0	NA	0.0000		9999	5020	0	0	0
2017/06/17 10:32:01	BASE	8.21	311	10.34	308	-4.0	85	-6.1	0	0	991.0	NA	0.0000		9999	5120	0	0	0
2017/06/17 10:33:01	BASE	7.94	312	9.88	308	-4.0	85	-6.1	0	0	990.9	NA	0.0000		9999	5150	0	0	0
2017/06/17 10:34:01	BASE	8.24	313	9.88	308	-4.0	85	-6.1	0	0	990.8	NA	0.0000		9999	5050	0	0	0
2017/06/17 10:35:01	BASE	8.88	314	9.72	316	-4.0	85	-6.1	0	0	990.8	NA	0.0000		9999	0	0	0	0
2017/06/17 10:36:01	BASE	8.74	313	9.72	316	-3.9	85	-6.1	0	0	990.7	NA	0.0000		9999	0	0	0	0
2017/06/17 10:37:01	BASE	8.12	311	9.72	316	-3.9	85	-6.1	0	0	990.7	NA	0.0000		9999	0	0	0	0
2017/06/17 10:38:01	BASE	7.83	309	9.72	316	-3.9	85	-6.0	0	0	990.8	NA	0.0000		9999	0	0	0	0
2017/06/17 10:39:01	BASE	7.93	310	9.72	316	-3.8	85	-6.0	0	0	990.7	NA	0.0000		9999	0	0	0	0
2017/06/17 10:40:01	BASE	8.13	308	9.72	316	-3.7	85	-5.9	0	0	990.7	NA	0.0000		9999	0	0	0	0
2017/06/17 10:41:01	BASE	8.58	306	9.98	310	-3.7	84	-5.9	0	0	990.7	NA	0.0000		9999	0	0	0	0
2017/06/17 10:42:01	BASE	9.07	306	9.98	310	-3.7	84	-5.9	0	0	990.7	NA	0.0000		9999	0	0	0	0
2017/06/17 10:43:01	BASE	8.87	305	9.98	310	-3.6	84	-6.0	0	0	990.8	NA	0.0000		9999	0	0	0	0
2017/06/17 10:44:01	BASE	8.49	307	9.98	310	-3.6	84	-6.0	0	0	990.8	NA	0.0000		9999	0	0	0	0
2017/06/17 10:45:01	BASE	8.15	309	9.98	310	-3.6	83	-6.0	0	0	990.7	NA	0.0000		9999	6890	0	0	0
2017/06/17 10:46:01	BASE	8.20	309	9.98	305	-3.6	83	-6.1	0	0	990.7	NA	0.0000		9999	7350	0	0	0
2017/06/17 10:47:01	BASE	8.33	311	9.98	305	-3.6	82	-6.1	0	0	990.7	NA	0.0000		9999	7050	0	0	0
2017/06/17 10:48:01	BASE	8.28	310	9.98	305	-3.6	82	-6.2	0	0	990.6	NA	0.0000		9999	5810	0	0	0
2017/06/17 10:49:01	BASE	8.21	307	9.98	305	-3.5	82	-6.2	0	0	990.7	NA	0.0000		9999	6270	0	0	0
2017/06/17 10:50:01	BASE	8.11	305	9.98	305	-3.5	82	-6.1	0	0	990.6	NA	0.0000		9999	5810	0	0	0
2017/06/17 10:51:01	BASE	8.56	298	9.98	305	-3.5	82	-6.1	0	0	990.6	NA	0.0000		9999	4530	0	0	0
2017/06/17 10:52:01	BASE	8.75	290	9.98	305	-3.4	82	-6.0	0	0	990.6	NA	0.0000		9999	3670	0	0	0
2017/06/17 10:53:01	BASE	8.11	287	9.98	305	-3.3	82	-6.0	0	0	990.5	NA	0.0000		9999	3810	0	0	0
2017/06/17 10:54:01	BASE	8.27	285	9.98	305	-3.2	82	-5.9	0	0	990.5	NA	0.0000		9999	3480	0	0	0
2017/06/17 10:55:01	BASE	8.85	281	9.98	305	-3.2	81	-5.9	0	0	990.5	NA	0.0000		9999	2990	0	0	0
2017/06/17 10:56:01	BASE	8.54	279	9.88	293	-3.1	81	-5.9	0	0	990.5	NA	0.0000		9999	2030	0	0	0
2017/06/17 10:57:01	BASE	7.95	280	9.88	293	-3.1	80	-6.0	0	0	990.6	NA	0.0000		9999	1510	0	0	0
2017/06/17 10:58:01	BASE	8.18	282	10.80	280	-3.0	80	-6.0	0	0	990.6	NA	0.0000		9999	390	0	0	0
2017/06/17 10:59:01	BASE	8.80	284	10.80	280	-3.1	79	-6.2	0	0	990.5	NA	0.0000		8000	0	0	0	4760
2017/06/17 11:00:01	BASE	9.04	281	10.80	280	-3.1	79	-6.3	0	0	990.5	NA	0.0000		9000	690	0	0	0
2017/06/17 11:01:01	BASE	9.69	279	11.11	280	-3.1	78	-6.4	0	0	990.5	NA	0.0000		8000	390	0	0	0
2017/06/17 11:02:01	BASE	9.46	283	11.11	280	-3.2	77	-6.6	0	0	990.5	NA	0.0000		5000	0	0	0	4860
2017/06/17 11:03:01	BASE	8.60	285	11.11	280	-3.3	77	-6.8	0	0	990.6	NA	0.0000	-SN	3000	0	0	0	4630
2017/06/17 11:04:01	BASE	9.18	286	11.42	289	-3.3	76	-6.9	0	0	990.5	NA	0.0000	-SN	2100	230	0	0	0
2017/06/17 11:05:01	BASE	9.90	286	11.42	289	-3.3	76	-7.0	0	0	990.4	NA	0.0000	-SN	1900	0	0	0	4270
2017/06/17 11:06:01	BASE	9.75	284	11.42	289	-3.4	76	-7.0	0	0	990.4	NA	0.0000	-SN	1900	230	0	0	0
2017/06/17 11:07:01	BASE	9.51	282	11.42	289	-3.4	76	-6.9	0	0	990.4	NA	0.0000	-SN	2800	260	0	0	0
2017/06/17 11:08:01	BASE	9.46	283	11.42	289	-3.4	77	-6.8	0	0	990.4	NA	0.0000	-SN	3900	330	0	0	0
2017/06/17 11:09:01	BASE	8.76	284	11.42	289	-3.4	78	-6.7	0	0	990.4	NA	0.0000	-SN	3900	2490	0	0	0
2017/06/17 11:10:01	BASE	8.66	286	11.42	289	-3.5	79	-6.5	0	0	990.4	NA	0.0000	-SN	5000	390	0	0	0
2017/06/17 11:11:01	BASE	9.33	288	11.42	289	-3.5	80	-6.5	0	0	990.4	NA	0.0000	-SN	8000	6400	0	0	0
2017/06/17 11:12:01	BASE	9.31	288	11.42	289	-3.5	80	-6.5	0	0	990.4	NA	0.0000	-SN	8000	6330	0	0	0
2017/06/17 11:13:01	BASE	9.17	290	11.42	289	-3.5	80	-6.4	0	0	990.3	NA	0.0000	-SN	9999	6630	0	0	0
2017/06/17 11:14:01	BASE	9.39	291	10.80	281	-3.5	80	-6.4	0	0	990.3	NA	0.0000	-SN	9999	4820	0	0	0
2017/06/17 11:15:01	BASE	10.00	290	11.01	289	-3.5	80	-6.5	0	0	990.2	NA	0.0000	-SN	9999	2170	0	0	0
2017/06/17 11:16:01	BASE	10.17	290	11.01	289	-3.5	80	-6.5	0	0	990.2	NA	0.0000	-SN	9999	0	0	0	3770
2017/06/17 11:17:01	BASE	10.03	290	11.01	289	-3.5	80	-6.5	0	0	990.2	NA	0.0000	HZ	9999	300	0	0	0
2017/06/17 11:18:01	BASE	10.01	287	11.16	286	-3.5	80	-6.5	0	0	990.2	NA	0.0000	-SN	9999	260	0	0	0
2017/06/17 11:19:01	BASE	10.40	285	11.21	284	-3.6	80	-6.5	0	0	990.2	NA	0.0000	-SN	4400	230	0	0	0
2017/06/17 11:20:01	BASE	10.56	287	11.21	284	-3.6	80	-6.5	0	0	990.2	NA	0.0000	-SN	2600	7420	0	0	0
2017/06/17 11:21:01	BASE	9.92	289	11.21	284	-3.6	80	-6.5	0	0	990.2	NA	0.0000	-SN	4200	0	0	0	300
2017/06/17 11:22:01	BASE	9.30	288	11.21	284	-3.6	81	-6.5	0	0	990.2	NA	0.0000	-SN	7000	0	0	0	0
2017/06/17 11:23:01	BASE	8.83	286	11.21	284	-3.7	81	-6.5	0	0	990.2	NA	0.0000	-SN	7000	0	0	0	0
2017/06/17 11:24:01	BASE	8.06	284	11.21	284	-3.7	81	-6.5	0	0	990.3	NA	0.0000	-SN	9000	0	0	0	0
2017/06/17 11:25:01	BASE	7.35	284	11.21	284	-3.7	81	-6.5	0	0	990.3	NA	0.0000	-SN	9999	5280	0	0	0
2017/06/17 11:26:01	BASE	7.72	286	11.21	284	-3.6	81	-6.4	0	0	990.2	NA	0.0000	-SN	9999	3080	5120	0	0
2017/06/17 11:27:01	BASE	7.66	288	11.21	284	-3.6	81	-6.3	0	0	990.2	NA	0.0000	-SN	9999	2660	0	0	0
2017/06/17 11:28:01	BASE	6.87	292	11.21	284	-3.5	81	-6.3	0	0	990.3	NA	0.0000	-SN	9999	2560	4100	0	0
2017/06/17 11:29:01	BASE	6.53	291	10.75	289	-3.5	81	-6.2	0	0	990.3	NA	0.0000	HZ	9999	2820	0	0	0
2017/06/17 11:30:01	BASE	6.33	290	10.75	289	-3.4	82	-6.1	0	0	990.2	NA	0.0000	HZ	9999	1250	0	0	0
2017/06/17 11:31:01	BASE	6.38	294	9.62	284	-3.3	82	-6.0	0	0	990.2	NA	0.0000		9999	2330	0	0	0
2017/06/17 11:32:01	BASE	6.41	293	9.41	289	-3.3	82	-5.9	0	0	990.2	NA	0.0000		9999	2620	3540	0	0
2017/06/17 11:33:01	BASE	6.24	294	8.64	286	-3.2	82	-5.8	0	0	990.2	NA	0.0000		9999	2200	2790	0	0
2017/06/17 11:34:01	BASE	6.70	294	8.64	286	-3.1	82	-5.8	0	0	990.2	NA	0.0000		9999	1900	3220	0	0
2017/06/17 11:35:01	BASE	6.85	293	8.64	286	-3.1	82	-5.7	0	0	990.1	NA	0.0000		9999	2030	2560	3970	0
2017/06/17 11:36:01	BASE	6.31	290	8.08	290	-3.1	82	-5.7	0	0	990.2	NA	0.0000		9999	1870	0	0	0
2017/06/17 11:37:01	BASE	6.28	286	8.08	290	-3.0	82	-5.7	0	0	990.1	NA	0.0000		9999	2030	0	0	0
2017/06/17 11:38:01	BASE	6.76	283	8.64	276	-3.0	82	-5.6	0	0	990.1	NA	0.0000		9999	2260	0	0	0
2017/06/17 11:39:01	BASE	7.85	281	9.93	280	-3.0	82	-5.6	0	0	990.0	NA	0.0000		9999	2330	3350	0	0
2017/06/17 11:40:01	BASE	8.28	279	9.93	280	-3.0	82	-5.7	0	0	989.9	NA	0.0000		9999	2560	3970	0	0
2017/06/17 11:41:01	BASE	8.13	276	9.93	280	-3.0	81	-5.8	0	0	989.9	NA	0.0000		9999	2330	0	0	0
2017/06/17 11:42:01	BASE	8.32	277	9.93	280	-3.0	81	-5.9	0	0	989.9	NA	0.0000		9999	2260	4070	0	0
2017/06/17 11:43:01	BASE	8.36	280	9.93	280	-3.0	80	-6.0	0	0	989.8	NA	0.0000		9999	2260	0	0	0
2017/06/17 11:44:01	BASE	8.30	280	9.93	280	-3.0	79	-6.1	0	0	989.8	NA	0.0000		9999	2560	0	0	0
2017/06/17 11:45:00	BASE	8.66	279	9.93	280	-2.9	78	-6.1	0	0	989.8	NA	0.0000		9999	430	3250	0	0
2017/06/17 11:46:00	BASE	8.82	279	9.93	280	-2.9	78	-6.2	0	0	989.8	NA	0.0000	-SN	8000	330	0	0	0
2017/06/17 11:47:00	BASE	8.71	276	9.93	280	-2.9	77	-6.3	0	0	989.8	NA	0.0000	-SN	7000	2330	3150	0	0
2017/06/17 11:48:00	BASE	8.52	273	9.93	280	-2.9	76	-6.4	0	0	989.8	NA	0.0000	-SN	9999	2530	3480	0	0
2017/06/17 11:49:00	BASE	8.07	275	9.72	283	-2.9	76	-6.5	0	0	989.8	NA	0.0000	-SN	9999	1970	0	0	0
2017/06/17 11:50:00	BASE	7.75	277	9.72	283	-2.9	75	-6.6	0	0	989.8	NA	0.0000	-SN	9999	2460	0	0	0
2017/06/17 11:51:00	BASE	8.16	279	9.88	280	-2.8	75	-6.6	0	0	989.7	NA	0.0000	-SN	9999	2330	3740	0	0
2017/06/17 11:52:00	BASE	8.62	280	9.88	280	-2.8	75	-6.6	0	0	989.7	NA	0.0000	-SN	9999	4920	0	0	0
2017/06/17 11:53:00	BASE	8.46	282	9.88	280	-2.8	75	-6.6	0	0	989.7	NA	0.0000	-SN	9999	4760	0	0	0
2017/06/17 11:54:00	BASE	8.75	282	9.88	280	-2.8	75	-6.7	0	0	989.7	NA	0.0000	-SN	9999	2400	4950	0	0
2017/06/17 11:55:00	BASE	8.97	281	9.88	280	-2.8	75	-6.7	0	0	989.7	NA	0.0000	-SN	9999	5090	0	0	0
2017/06/17 11:56:00	BASE	9.01	280	9.88	280	-2.8	74	-6.8	0	0	989.7	NA	0.0000	-SN	9999	0	0	0	0
2017/06/17 11:57:00	BASE	9.03	277	9.88	280	-2.9	74	-6.9	0	0	989.7	NA	0.0000		9999	0	0	0	0
2017/06/17 11:58:00	BASE	8.52	279	9.88	280	-2.9	73	-7.0	0	0	989.7	NA	0.0000		9999	2430	0	0	0
2017/06/17 11:59:00	BASE	8.89	281	10.34	286	-2.9	73	-7.1	0	0	989.6	NA	0.0000		9999	2850	0	0	0
2017/06/17 12:00:00	BASE	9.53	282	10.34	286	-2.9	72	-7.1	0	0	989.6	NA	0.0000		9999	5710	0	0	0
2017/06/17 12:01:00	BASE	9.18	280	10.34	286	-2.8	72	-7.1	0	0	989.6	NA	0.0000		9999	2690	5610	0	0
2017/06/17 12:02:00	BASE	9.10	275	10.34	286	-2.8	72	-7.1	0	0	989.6	NA	0.0000		9999	1670	2200	0	0
2017/06/17 12:03:00	BASE	9.56	274	11.32	276	-2.8	72	-7.1	0	0	989.5	NA	0.0000		9999	2000	0	0	0
2017/06/17 12:04:00	BASE	10.28	274	11.78	277	-2.8	72	-7.1	0	0	989.4	NA	0.0000		9999	2260	3900	0	0
2017/06/17 12:05:00	BASE	10.67	272	12.09	271	-2.8	73	-7.1	0	0	989.4	NA	0.0000		9999	0	0	0	0
2017/06/17 12:06:00	BASE	10.25	274	12.09	271	-2.9	73	-7.1	0	0	989.5	NA	0.0000		9999	0	0	0	0
2017/06/17 12:07:00	BASE	10.49	274	12.76	272	-3.0	73	-7.1	0	0	989.4	NA	0.0000		9999	0	0	0	0
2017/06/17 12:08:00	BASE	11.29	273	13.17	271	-3.1	74	-7.1	0	0	989.4	NA	0.0000		9999	7380	0	0	0
2017/06/17 12:09:00	BASE	11.23	274	13.17	271	-3.2	74	-7.2	0	0	989.4	NA	0.0000		9999	0	0	0	0
2017/06/17 12:10:00	BASE	11.02	278	13.17	271	-3.2	74	-7.2	0	0	989.4	NA	0.0000		9999	0	0	0	0
2017/06/17 12:11:00	BASE	11.26	281	13.17	271	-3.2	74	-7.3	0	0	989.4	NA	0.0000		9999	0	0	0	0
2017/06/17 12:12:00	BASE	11.39	281	13.17	271	-3.3	74	-7.2	0	0	989.4	NA	0.0000		9999	0	0	0	0
2017/06/17 12:13:00	BASE	10.82	283	13.17	271	-3.3	74	-7.2	0	0	989.4	NA	0.0000		9999	0	0	0	0
2017/06/17 12:14:00	BASE	10.49	283	13.17	271	-3.3	75	-7.1	0	0	989.4	NA	0.0000		9999	0	0	0	0
2017/06/17 12:15:00	BASE	10.06	281	13.17	271	-3.3	75	-7.1	0	0	989.5	NA	0.0000		9999	0	0	0	0
2017/06/17 12:16:00	BASE	9.41	281	13.17	271	-3.3	76	-7.0	0	0	989.5	NA	0.0000		9999	0	0	0	0
2017/06/17 12:17:00	BASE	8.78	280	13.17	271	-3.3	76	-6.9	0	0	989.6	NA	0.0000		9999	0	0	0	0
2017/06/17 12:18:00	BASE	8.19	279	12.35	283	-3.3	77	-6.8	0	0	989.5	NA	0.0000		9999	0	0	0	0
2017/06/17 12:19:00	BASE	8.41	283	12.35	283	-3.3	77	-6.8	0	0	989.5	NA	0.0000		9999	0	0	0	0
2017/06/17 12:20:00	BASE	8.53	290	12.35	283	-3.2	77	-6.7	0	0	989.4	NA	0.0000		9999	0	0	0	0
2017/06/17 12:21:00	BASE	8.42	293	12.19	281	-3.2	77	-6.7	0	0	989.4	NA	0.0000		9999	0	0	0	0
2017/06/17 12:22:00	BASE	8.31	290	11.99	286	-3.3	77	-6.7	0	0	989.4	NA	0.0000		9999	0	0	0	0
2017/06/17 12:23:00	BASE	8.10	285	11.68	280	-3.3	78	-6.6	0	0	989.3	NA	0.0000		9999	2950	0	0	0
2017/06/17 12:24:00	BASE	8.39	280	9.83	287	-3.3	78	-6.6	0	0	989.3	NA	0.0000		9999	2950	5090	0	0
2017/06/17 12:25:00	BASE	8.40	278	9.67	285	-3.4	78	-6.6	0	0	989.3	NA	0.0000		9999	4760	0	0	0
2017/06/17 12:26:00	BASE	8.38	278	9.52	277	-3.3	78	-6.6	0	0	989.3	NA	0.0000		9999	4720	0	0	0
2017/06/17 12:27:00	BASE	8.50	278	9.62	271	-3.3	78	-6.6	0	0	989.2	NA	0.0000		9999	4720	0	0	0
2017/06/17 12:28:00	BASE	8.92	275	11.01	274	-3.3	77	-6.7	0	0	989.2	NA	0.0000		9999	4720	0	0	0
2017/06/17 12:29:00	BASE	9.05	271	11.01	274	-3.2	76	-6.8	0	0	989.2	NA	0.0000		9999	4690	0	0	0
2017/06/17 12:30:00	BASE	7.76	266	11.01	274	-3.2	75	-7.0	0	0	989.3	NA	0.0000		9999	2720	4860	0	0
2017/06/17 12:31:00	BASE	7.04	261	11.01	274	-3.1	74	-7.1	0	0	989.2	NA	0.0000		9999	2530	5120	0	0
2017/06/17 12:32:00	BASE	7.43	261	11.01	274	-3.1	74	-7.1	0	0	989.3	NA	0.0000		9999	2530	0	0	0
2017/06/17 12:33:00	BASE	7.65	263	11.01	274	-3.0	73	-7.2	0	0	989.2	NA	0.0000		9999	3220	5050	0	0
2017/06/17 12:34:00	BASE	8.32	263	11.01	274	-3.0	73	-7.2	0	0	989.2	NA	0.0000		9999	2760	5120	0	0
2017/06/17 12:35:00	BASE	8.16	261	11.01	274	-3.0	72	-7.3	0	0	989.2	NA	0.0000		9999	2590	0	0	0
2017/06/17 12:36:00	BASE	7.07	255	11.01	274	-3.0	72	-7.3	0	0	989.2	NA	0.0000		9999	2590	0	0	0
2017/06/17 12:37:00	BASE	6.67	250	11.01	274	-3.0	71	-7.4	0	0	989.3	NA	0.0000		9999	2490	0	0	0
2017/06/17 12:38:00	BASE	6.44	244	9.88	264	-3.0	71	-7.4	0	0	989.3	NA	0.0000		9999	2530	0	0	0
2017/06/17 12:39:00	BASE	6.28	243	9.88	264	-3.0	72	-7.4	0	0	989.3	NA	0.0000		9999	2130	0	0	0
2017/06/17 12:40:00	BASE	5.97	244	9.88	264	-3.0	73	-7.2	0	0	989.2	NA	0.0000		9999	1440	2260	0	0
2017/06/17 12:41:00	BASE	5.67	243	9.88	264	-3.1	74	-7.0	0	0	989.2	NA	0.0000		9999	1610	0	0	0
2017/06/17 12:42:00	BASE	5.51	246	9.88	264	-3.2	76	-6.9	0	0	989.2	NA	0.0000		9999	1510	2300	0	0
2017/06/17 12:43:00	BASE	5.01	250	9.88	264	-3.3	78	-6.7	0	0	989.2	NA	0.0000		9999	1380	4200	0	0
2017/06/17 12:44:00	BASE	5.28	239	9.52	247	-3.4	79	-6.5	0	0	989.1	NA	0.0000		9999	1080	2400	0	0
2017/06/17 12:45:00	BASE	5.84	227	9.52	247	-3.4	80	-6.4	0	0	989.1	NA	0.0000		9999	850	1380	0	0
2017/06/17 12:46:00	BASE	5.25	226	9.52	247	-3.5	81	-6.3	0	0	989.1	NA	0.0000		9999	1280	2100	0	0
2017/06/17 12:47:00	BASE	5.39	227	7.92	240	-3.5	82	-6.2	0	0	989.0	NA	0.0000		9999	1670	6820	0	0
2017/06/17 12:48:00	BASE	5.98	231	7.05	243	-3.6	82	-6.1	0	0	989.0	NA	0.0000		9999	2000	4820	6760	0
2017/06/17 12:49:00	BASE	5.63	234	7.05	243	-3.6	83	-6.1	0	0	988.9	NA	0.0000		9999	5180	6730	0	0
2017/06/17 12:50:00	BASE	4.78	235	7.05	243	-3.7	83	-6.1	0	0	988.9	NA	0.0000		9999	6590	7350	0	0
2017/06/17 12:51:00	BASE	4.47	236	6.84	230	-3.7	84	-6.0	0	0	988.8	NA	0.0000		9999	2230	6760	0	0
2017/06/17 12:52:00	BASE	4.46	240	6.84	230	-3.8	84	-6.0	0	0	988.7	NA	0.0000		9999	2200	0	0	0
2017/06/17 12:53:00	BASE	4.39	241	6.84	230	-3.8	85	-6.0	0	0	988.7	NA	0.0000		9999	2000	0	0	0
2017/06/17 12:54:00	BASE	5.07	245	6.58	230	-3.8	85	-5.9	0	0	988.7	NA	0.0000		9999	2360	3250	0	0
2017/06/17 12:55:00	BASE	4.77	256	6.58	230	-3.7	85	-5.9	0	0	988.7	NA	0.0000		9999	1800	2460	4660	0
2017/06/17 12:56:00	BASE	4.24	246	6.58	230	-3.7	85	-5.8	0	0	988.7	NA	0.0000		9999	1710	2400	0	0
2017/06/17 12:57:00	BASE	4.48	234	6.28	258	-3.6	85	-5.8	0	0	988.7	NA	0.0000		9999	2360	3120	0	0
2017/06/17 12:58:00	BASE	4.22	238	6.28	258	-3.6	85	-5.7	0	0	988.6	NA	0.0000		9999	1740	0	0	0
2017/06/17 12:59:00	BASE	4.10	243	6.28	258	-3.5	85	-5.7	0	0	988.5	NA	0.0000		9999	2200	2890	3380	0
2017/06/17 13:00:00	BASE	4.12	249	6.28	258	-3.5	85	-5.6	0	0	988.5	NA	0.0000		9999	2850	0	0	0
2017/06/17 13:01:00	BASE	4.43	250	6.28	258	-3.5	86	-5.6	0	0	988.5	NA	0.0000		9999	1280	2460	0	0
2017/06/17 13:02:00	BASE	4.91	244	6.38	234	-3.5	86	-5.5	0	0	988.5	NA	0.0000		9999	1050	2300	0	0
2017/06/17 13:03:00	BASE	5.23	235	6.38	234	-3.5	86	-5.5	0	0	988.5	NA	0.0000		9999	1050	1670	0	0
2017/06/17 13:04:00	BASE	5.30	231	6.38	234	-3.5	86	-5.6	0	0	988.4	NA	0.0000		9999	1080	1570	0	0
2017/06/17 13:05:00	BASE	5.21	233	6.38	234	-3.6	86	-5.6	0	0	988.4	NA	0.0000		9999	1480	2300	0	0
2017/06/17 13:06:00	BASE	4.85	235	6.38	234	-3.6	86	-5.6	0	0	988.4	NA	0.0000		9999	2130	2660	3450	0
2017/06/17 13:07:00	BASE	4.33	243	6.38	234	-3.6	86	-5.7	0	0	988.4	NA	0.0000		9999	1840	2430	0	0
2017/06/17 13:08:00	BASE	4.42	251	6.38	234	-3.6	85	-5.7	0	0	988.4	NA	0.0000		9999	2200	0	0	0
2017/06/17 13:09:00	BASE	4.07	252	6.38	234	-3.6	85	-5.7	0	0	988.4	NA	0.0000		9999	2530	0	0	0
2017/06/17 13:10:00	BASE	3.46	250	6.38	234	-3.6	85	-5.7	0	0	988.4	NA	0.0000		9999	2490	0	0	0
2017/06/17 13:11:00	BASE	3.60	247	6.38	234	-3.5	85	-5.7	0	0	988.4	NA	0.0000		9999	2660	3150	0	0
2017/06/17 13:12:00	BASE	3.65	249	6.02	227	-3.5	85	-5.7	0	0	988.4	NA	0.0000		9999	0	0	0	0
2017/06/17 13:13:00	BASE	3.84	256	5.92	237	-3.5	85	-5.7	0	0	988.5	NA	0.0000		9999	3710	0	0	0
2017/06/17 13:14:00	BASE	3.93	256	5.92	237	-3.5	85	-5.7	0	0	988.4	NA	0.0000		9999	3380	4400	0	0
2017/06/17 13:15:00	BASE	4.39	256	6.12	270	-3.5	85	-5.7	0	0	988.4	NA	0.0000		9999	3250	4100	0	0
2017/06/17 13:16:00	BASE	5.84	268	7.77	273	-3.4	84	-5.7	0	0	988.3	NA	0.0000		9999	4490	0	0	0
2017/06/17 13:17:00	BASE	6.85	272	7.92	268	-3.4	84	-5.7	0	0	988.3	NA	0.0000		9999	4070	0	0	0
2017/06/17 13:18:00	BASE	7.18	272	8.18	276	-3.4	83	-5.8	1	0	988.3	NA	0.0000		9999	3250	3770	0	0
2017/06/17 13:19:00	BASE	7.39	277	8.28	269	-3.3	82	-5.9	1	0	988.3	NA	0.0000		9999	3150	0	0	0
2017/06/17 13:20:00	BASE	7.23	278	8.28	269	-3.2	81	-6.1	1	0	988.3	NA	0.0000		9999	3180	3740	0	0
2017/06/17 13:21:00	BASE	6.73	276	8.28	269	-3.2	79	-6.3	1	0	988.3	NA	0.0000		9999	2920	3970	0	0
2017/06/17 13:22:00	BASE	6.97	273	8.85	273	-3.1	77	-6.6	1	0	988.1	NA	0.0000		9999	3050	4100	0	0
2017/06/17 13:23:00	BASE	7.98	270	9.21	269	-3.0	75	-6.8	1	0	988.1	NA	0.0000		9999	3150	0	0	0
2017/06/17 13:24:00	BASE	7.77	273	9.21	269	-2.9	74	-7.0	1	0	988.0	NA	0.0000		9999	3940	0	0	0
2017/06/17 13:25:00	BASE	7.74	275	9.21	269	-2.9	72	-7.2	1	0	988.0	NA	0.0000		9999	3250	4720	6040	0
2017/06/17 13:26:00	BASE	8.40	272	9.21	269	-2.9	71	-7.4	1	0	988.0	NA	0.0000		9999	3180	4040	0	0
2017/06/17 13:27:00	BASE	7.56	267	9.21	269	-2.8	71	-7.4	1	0	988.0	NA	0.0000		9999	3020	3900	0	0
2017/06/17 13:28:00	BASE	7.83	263	9.52	255	-2.9	71	-7.4	1	0	987.9	NA	0.0000		9999	3310	0	0	0
2017/06/17 13:29:00	BASE	8.65	263	9.98	263	-2.8	71	-7.4	1	0	987.9	NA	0.0000		9999	3150	0	0	0
2017/06/17 13:30:00	BASE	8.66	264	11.06	265	-2.8	71	-7.4	1	0	987.9	NA	0.0000		9999	3120	6960	0	0
2017/06/17 13:31:00	BASE	8.80	266	11.06	265	-2.8	71	-7.3	1	1	987.9	NA	0.0000		9999	3280	7020	0	0
2017/06/17 13:32:00	BASE	8.92	268	11.06	265	-2.8	71	-7.3	1	1	987.9	NA	0.0000		9999	6530	0	0	0
2017/06/17 13:33:00	BASE	9.19	269	11.06	265	-2.8	71	-7.4	1	1	987.9	NA	0.0000		9999	6170	0	0	0
2017/06/17 13:34:00	BASE	9.70	269	11.06	265	-2.8	71	-7.4	1	0	987.9	NA	0.0000		9999	2490	0	0	0
2017/06/17 13:35:00	BASE	10.08	272	12.04	270	-2.8	71	-7.4	1	0	987.9	NA	0.0000		8000	2170	0	0	0
2017/06/17 13:36:00	BASE	10.07	275	12.14	271	-2.8	71	-7.4	1	0	987.9	NA	0.0000		5000	360	2360	0	0
2017/06/17 13:37:00	BASE	10.46	274	12.76	266	-2.8	71	-7.3	1	0	987.9	NA	0.0000		5000	390	0	0	0
2017/06/17 13:38:00	BASE	10.92	271	12.76	266	-2.9	72	-7.3	1	0	987.8	NA	0.0000	HZ	1900	230	0	0	0
2017/06/17 13:39:00	BASE	9.77	268	12.76	266	-3.0	73	-7.2	2	1	987.9	NA	0.0000	-SN	1100	0	0	0	2030
2017/06/17 13:40:00	BASE	8.25	267	12.76	266	-3.2	73	-7.3	2	1	987.9	NA	0.0000	-SN	1600	300	0	0	0
2017/06/17 13:41:00	BASE	7.72	268	12.76	266	-3.4	74	-7.4	2	1	987.9	NA	0.0000	-SN	4600	1770	0	0	0
2017/06/17 13:42:00	BASE	7.17	268	12.76	266	-3.4	74	-7.4	2	1	987.9	NA	0.0000	-SN	9999	4720	5680	0	0
2017/06/17 13:43:00	BASE	7.61	269	12.76	266	-3.5	74	-7.4	2	1	987.8	NA	0.0000	-SN	9999	3220	5020	0	0
2017/06/17 13:44:00	BASE	7.79	269	12.76	266	-3.4	74	-7.4	2	1	987.8	NA	0.0000	-SN	9999	1350	3020	0	0
2017/06/17 13:45:00	BASE	7.64	270	12.76	266	-3.3	74	-7.4	2	1	987.8	NA	0.0000	-SN	5000	360	3020	0	0
2017/06/17 13:46:00	BASE	7.49	268	12.76	266	-3.2	73	-7.4	2	1	987.8	NA	0.0000	-SN	4200	720	0	0	0
2017/06/17 13:47:00	BASE	8.40	261	12.24	269	-3.1	72	-7.4	2	2	987.7	NA	0.0000	-SN	9999	1050	6960	0	0
2017/06/17 13:48:00	BASE	10.21	254	11.73	254	-3.1	72	-7.4	3	2	987.7	NA	0.0000	-SN	9999	2950	6530	0	0
2017/06/17 13:49:00	BASE	9.93	249	11.73	254	-3.1	72	-7.4	3	3	987.7	NA	0.0000	-SN	7000	6400	0	0	0
2017/06/17 13:50:00	BASE	9.19	247	11.73	254	-3.2	72	-7.4	3	3	987.7	NA	0.0000	-SN	7000	360	0	0	0
2017/06/17 13:51:00	BASE	8.35	246	11.73	254	-3.3	73	-7.4	3	3	987.8	NA	0.0000	-SN	9999	430	0	0	0
2017/06/17 13:52:00	BASE	7.32	246	11.73	254	-3.4	74	-7.4	3	3	987.7	NA	0.0000	-SN	9999	1740	0	0	0
2017/06/17 13:53:00	BASE	7.15	245	11.73	254	-3.5	75	-7.4	3	3	987.7	NA	0.0000	-SN	9999	2460	0	0	0
2017/06/17 13:54:00	BASE	6.97	244	11.73	254	-3.6	76	-7.3	3	3	987.7	NA	0.0000	-SN	9999	660	2330	0	0
2017/06/17 13:55:00	BASE	6.40	243	11.73	254	-3.6	76	-7.2	3	3	987.8	NA	0.0000	-SN	9999	590	0	0	0
2017/06/17 13:56:00	BASE	5.84	244	11.73	254	-3.6	77	-7.1	3	4	987.8	NA	0.0000	-SN	9999	300	5450	0	0
2017/06/17 13:57:00	BASE	5.46	250	11.57	248	-3.6	77	-7.1	3	4	987.7	NA	0.0000	-SN	9999	5480	6370	0	0
2017/06/17 13:58:00	BASE	5.83	252	11.52	245	-3.6	77	-7.0	3	4	987.7	NA	0.0000	-SN	9999	5410	6430	0	0
2017/06/17 13:59:00	BASE	6.11	254	10.55	247	-3.7	78	-7.0	3	4	987.8	NA	0.0000	-SN	9999	4270	0	0	0
2017/06/17 14:00:00	BASE	5.72	258	9.05	243	-3.7	78	-6.9	3	4	987.7	NA	0.0000		9999	4590	5180	6330	0
2017/06/17 14:01:00	BASE	5.92	260	8.49	232	-3.7	79	-6.9	3	5	987.7	NA	0.0000		9999	4950	6270	0	0
2017/06/17 14:02:00	BASE	6.09	260	8.18	245	-3.7	79	-6.8	3	4	987.6	NA	0.0000		9999	4990	6270	0	0
2017/06/17 14:03:00	BASE	5.80	260	8.18	245	-3.7	80	-6.7	4	5	987.6	NA	0.0000		9999	5150	6460	0	0
2017/06/17 14:04:00	BASE	5.91	264	7.61	255	-3.7	80	-6.6	3	5	987.6	NA	0.0000		9999	5320	5970	0	0
2017/06/17 14:05:00	BASE	6.99	264	8.64	262	-3.7	80	-6.6	3	5	987.4	NA	0.0000		9999	5280	6500	0	0
2017/06/17 14:06:00	BASE	7.60	264	9.05	273	-3.7	80	-6.6	3	5	987.4	NA	0.0000		9999	5320	6460	0	0
2017/06/17 14:07:00	BASE	7.45	266	9.05	273	-3.7	80	-6.6	3	5	987.4	NA	0.0000		9999	5020	0	0	0
2017/06/17 14:08:00	BASE	8.16	267	9.05	273	-3.7	81	-6.5	4	5	987.3	NA	0.0000		9999	2720	5120	0	0
2017/06/17 14:09:00	BASE	8.69	270	9.88	266	-3.7	81	-6.5	4	6	987.3	NA	0.0000		9999	4790	0	0	0
2017/06/17 14:10:00	BASE	8.77	268	9.98	263	-3.6	81	-6.3	4	6	987.3	NA	0.0000		9999	3250	4820	0	0
2017/06/17 14:11:00	BASE	9.21	270	10.65	281	-3.5	82	-6.2	4	7	987.2	NA	0.0000		9999	4860	6300	0	0
2017/06/17 14:12:00	BASE	10.17	273	11.68	271	-3.5	82	-6.2	5	7	987.1	NA	0.0000		5000	5970	0	0	0
2017/06/17 14:13:00	BASE	10.16	272	11.68	271	-3.5	82	-6.1	5	8	987.1	NA	0.0000	-SN	4400	5770	0	0	0
2017/06/17 14:14:00	BASE	9.43	272	11.68	271	-3.6	82	-6.1	5	9	987.1	NA	0.0000	-SN	9999	4820	5710	0	0
2017/06/17 14:15:00	BASE	9.42	274	11.68	271	-3.6	82	-6.2	6	10	987.1	NA	0.0000	-SN	9999	5810	0	0	0
2017/06/17 14:16:00	BASE	9.07	276	11.68	271	-3.7	83	-6.2	6	11	987.1	NA	0.0000	-SN	9999	6300	0	0	0
2017/06/17 14:17:00	BASE	8.69	275	11.68	271	-3.8	83	-6.3	6	11	987.1	NA	0.0000	-SN	9999	6500	0	0	0
2017/06/17 14:18:00	BASE	8.28	275	11.68	271	-3.8	83	-6.2	6	12	987.1	NA	0.0000	-SN	9999	6330	0	0	0
2017/06/17 14:19:00	BASE	7.69	277	11.68	271	-3.8	83	-6.2	7	12	987.1	NA	0.0000	-SN	9999	5480	0	0	0
2017/06/17 14:20:00	BASE	7.28	276	11.68	271	-3.8	83	-6.2	7	13	987.1	NA	0.0000	-SN	9999	5810	0	0	0
2017/06/17 14:21:00	BASE	7.22	274	11.68	271	-3.7	83	-6.2	7	14	987.1	NA	0.0000	-SN	9999	5840	6500	0	0
2017/06/17 14:22:00	BASE	7.09	274	10.49	273	-3.7	83	-6.2	7	14	987.1	NA	0.0000		9999	6430	0	0	0
2017/06/17 14:23:00	BASE	7.18	275	10.08	272	-3.7	83	-6.2	7	15	987.0	NA	0.0000		9999	6660	0	0	0
2017/06/17 14:24:00	BASE	7.18	276	10.03	268	-3.7	83	-6.2	8	16	987.0	NA	0.0000		9999	6500	0	0	0
2017/06/17 14:25:00	BASE	6.57	277	9.88	273	-3.6	82	-6.2	8	16	987.0	NA	0.0000		9999	6960	0	0	0
2017/06/17 14:26:00	BASE	6.79	276	9.88	273	-3.6	82	-6.3	9	17	987.0	NA	0.0000		9999	6860	0	0	0
2017/06/17 14:27:00	BASE	6.82	278	8.75	281	-3.6	81	-6.4	9	18	987.0	NA	0.0000		9999	6330	6990	0	0
2017/06/17 14:28:00	BASE	6.32	283	8.54	273	-3.6	80	-6.4	9	18	987.0	NA	0.0000		9999	6270	0	0	0
2017/06/17 14:29:00	BASE	6.70	284	8.54	273	-3.5	80	-6.5	9	19	986.9	NA	0.0000		9999	0	0	0	0
2017/06/17 14:30:00	BASE	6.84	282	8.54	273	-3.5	79	-6.6	9	19	986.8	NA	0.0000		9999	0	0	0	0
2017/06/17 14:31:00	BASE	6.24	280	8.54	273	-3.5	79	-6.6	9	19	986.9	NA	0.0000		9999	0	0	0	0
2017/06/17 14:32:00	BASE	6.51	283	8.54	273	-3.5	79	-6.7	9	19	986.8	NA	0.0000		9999	0	0	0	0
2017/06/17 14:33:00	BASE	6.91	285	8.03	270	-3.5	78	-6.7	9	19	986.8	NA	0.0000		9999	0	0	0	0
2017/06/17 14:34:00	BASE	6.82	283	8.03	270	-3.5	78	-6.7	9	19	986.8	NA	0.0000		9999	6560	0	0	0
2017/06/17 14:35:00	BASE	6.62	286	8.03	270	-3.4	78	-6.7	9	19	986.8	NA	0.0000		9999	6460	0	0	0
2017/06/17 14:36:00	BASE	6.96	287	8.03	285	-3.4	78	-6.7	9	19	986.7	NA	0.0000		9999	0	0	0	0
2017/06/17 14:37:00	BASE	7.55	283	8.03	285	-3.4	78	-6.7	9	20	986.7	NA	0.0000		9999	1970	0	0	0
2017/06/17 14:38:00	BASE	7.32	279	8.03	285	-3.4	78	-6.7	9	20	986.7	NA	0.0000		9999	0	0	0	0
2017/06/17 14:39:00	BASE	7.39	285	9.11	289	-3.4	78	-6.6	9	21	986.7	NA	0.0000		9999	0	0	0	0
2017/06/17 14:40:00	BASE	8.14	291	9.11	289	-3.3	78	-6.6	9	21	986.6	NA	0.0000		9999	0	0	0	0
2017/06/17 14:41:00	BASE	8.39	288	9.11	289	-3.3	78	-6.6	10	23	986.6	NA	0.0000		9999	0	0	0	0
2017/06/17 14:42:00	BASE	8.27	288	9.11	289	-3.3	78	-6.5	11	24	986.6	NA	0.0000		9999	1770	0	0	0
2017/06/17 14:43:00	BASE	8.46	291	9.11	289	-3.2	78	-6.5	10	24	986.6	NA	0.0000		9999	1770	0	0	0
2017/06/17 14:44:00	BASE	8.58	288	9.11	289	-3.2	78	-6.5	9	22	986.6	NA	0.0000		9999	1710	0	0	0
2017/06/17 14:45:00	BASE	8.12	285	9.11	289	-3.2	78	-6.5	9	20	986.6	NA	0.0000		9999	1570	0	0	0
2017/06/17 14:46:00	BASE	7.91	285	9.11	289	-3.2	78	-6.5	9	21	986.6	NA	0.0000		9999	1800	0	0	0
2017/06/17 14:47:00	BASE	7.95	286	9.11	289	-3.2	78	-6.5	9	20	986.6	NA	0.0000		9999	1770	0	0	0
2017/06/17 14:48:00	BASE	7.27	290	9.11	289	-3.2	78	-6.4	9	21	986.6	NA	0.0000		9999	1740	0	0	0
2017/06/17 14:49:00	BASE	7.31	295	9.05	291	-3.2	79	-6.3	8	21	986.5	NA	0.0000		9999	1670	0	0	0
2017/06/17 14:50:00	BASE	8.02	296	9.05	291	-3.2	79	-6.3	8	20	986.5	NA	0.0000		9999	1570	0	0	0
2017/06/17 14:51:00	BASE	7.92	294	9.05	291	-3.2	80	-6.2	8	19	986.5	NA	0.0000		9999	1570	2330	0	0
2017/06/17 14:52:00	BASE	7.76	294	9.05	291	-3.1	80	-6.1	8	19	986.5	NA	0.0000		9999	1800	3150	0	0
2017/06/17 14:53:00	BASE	7.71	293	9.00	285	-3.2	80	-6.1	7	19	986.5	NA	0.0000		9999	2000	3250	0	0
2017/06/17 14:54:00	BASE	7.13	290	8.75	288	-3.2	80	-6.1	8	19	986.5	NA	0.0000		9999	3220	0	0	0
2017/06/17 14:55:00	BASE	6.45	289	8.75	288	-3.1	80	-6.0	8	20	986.4	NA	0.0000		9999	0	0	0	0
2017/06/17 14:56:00	BASE	6.72	285	8.64	285	-3.2	81	-6.0	8	20	986.4	NA	0.0000		9999	6630	0	0	0
2017/06/17 14:57:00	BASE	7.19	278	8.54	295	-3.2	81	-6.0	9	21	986.4	NA	0.0000		9999	3350	5580	0	0
2017/06/17 14:58:00	BASE	7.01	278	8.54	295	-3.2	81	-6.0	9	21	986.4	NA	0.0000		9999	6530	0	0	0
2017/06/17 14:59:00	BASE	6.65	284	8.44	299	-3.2	81	-6.0	9	21	986.3	NA	0.0000		9999	6370	0	0	0
2017/06/17 15:00:00	BASE	6.13	283	8.28	288	-3.3	81	-6.1	10	22	986.3	NA	0.0000		9999	1940	6230	0	0
2017/06/17 15:01:00	BASE	5.92	284	8.23	296	-3.3	81	-6.1	11	23	986.2	NA	0.0000		9999	1670	0	0	0
2017/06/17 15:02:00	BASE	6.07	287	8.08	281	-3.2	81	-6.0	13	26	986.2	NA	0.0000		9999	1610	0	0	0
2017/06/17 15:03:00	BASE	5.85	286	8.08	281	-3.2	81	-6.0	16	30	986.2	NA	0.0000		9999	1510	0	0	0
2017/06/17 15:04:00	BASE	5.58	285	8.08	281	-3.1	81	-5.9	17	31	986.1	NA	0.0000		9999	1440	0	0	0
2017/06/17 15:05:00	BASE	6.43	287	8.08	281	-3.1	81	-5.9	18	33	986.0	NA	0.0000		9999	1380	2300	2790	0
2017/06/17 15:06:00	BASE	7.35	290	8.18	289	-3.0	81	-5.8	19	34	986.0	NA	0.0000		9999	1640	2920	6040	0
2017/06/17 15:07:00	BASE	7.54	289	8.18	287	-3.0	81	-5.8	19	36	985.9	NA	0.0000		9999	6000	0	0	0
2017/06/17 15:08:00	BASE	7.17	281	8.18	287	-3.0	81	-5.8	19	36	986.0	NA	0.0000		9999	2200	6100	0	0
2017/06/17 15:09:00	BASE	6.86	276	8.18	287	-3.0	81	-5.8	19	36	985.9	NA	0.0000		9999	6100	0	0	0
2017/06/17 15:10:00	BASE	6.90	280	8.18	287	-3.0	81	-5.8	18	36	985.8	NA	0.0000		9999	6200	0	0	0
2017/06/17 15:11:00	BASE	7.03	281	8.49	269	-3.0	81	-5.8	19	36	985.8	NA	0.0000		9999	6270	0	0	0
2017/06/17 15:12:00	BASE	7.31	280	8.49	269	-3.0	81	-5.9	19	36	985.7	NA	0.0000		9999	0	0	0	0
2017/06/17 15:13:00	BASE	7.44	281	8.49	269	-3.0	80	-6.0	19	37	985.7	NA	0.0000		9999	0	0	0	0
2017/06/17 15:14:00	BASE	7.25	280	8.49	269	-3.0	79	-6.1	20	38	985.7	NA	0.0000		9999	0	0	0	0
2017/06/17 15:15:00	BASE	6.79	283	8.49	269	-3.1	78	-6.3	21	40	985.7	NA	0.0000		9999	0	0	0	0
2017/06/17 15:16:00	BASE	7.36	281	9.21	268	-3.0	77	-6.4	23	42	985.6	NA	0.0000		9999	0	0	0	0
2017/06/17 15:17:00	BASE	8.08	274	9.21	268	-3.0	76	-6.6	25	44	985.4	NA	0.0000		9999	0	0	0	0
2017/06/17 15:18:00	BASE	7.45	278	9.21	268	-3.0	75	-6.8	27	46	985.6	NA	0.0000		9999	0	0	0	0
2017/06/17 15:19:00	BASE	7.49	283	9.21	268	-2.9	75	-6.8	29	49	985.6	NA	0.0000		9999	6820	0	0	0
2017/06/17 15:20:00	BASE	7.87	281	9.21	268	-2.9	74	-6.9	31	51	985.6	NA	0.0000		9999	6590	0	0	0
2017/06/17 15:21:00	BASE	7.94	276	9.21	266	-2.9	74	-7.0	33	52	985.6	NA	0.0000		9999	6730	22510	0	0
2017/06/17 15:22:00	BASE	8.47	274	9.21	268	-2.9	73	-7.0	33	52	985.5	NA	0.0000		9999	6200	7050	0	0
2017/06/17 15:23:00	BASE	8.14	275	9.21	268	-2.9	73	-7.1	33	52	985.6	NA	0.0000		9999	3280	6230	0	0
2017/06/17 15:24:00	BASE	7.47	277	9.21	268	-2.9	72	-7.3	32	51	985.6	NA	0.0000		9999	3020	4360	0	0
2017/06/17 15:25:00	BASE	8.18	273	9.98	272	-2.9	71	-7.4	29	47	985.5	NA	0.0000		9999	4230	0	0	0
2017/06/17 15:26:00	BASE	9.28	272	11.01	268	-2.9	71	-7.5	24	41	985.5	NA	0.0000		9999	1510	0	0	0
2017/06/17 15:27:00	BASE	9.76	270	11.37	272	-2.8	70	-7.6	21	36	985.5	NA	0.0000		9999	2690	0	0	0
2017/06/17 15:28:00	BASE	10.43	267	12.55	273	-2.8	70	-7.6	19	33	985.5	NA	0.0000	UP	6000	0	0	0	3940
2017/06/17 15:29:00	BASE	10.91	265	12.81	273	-2.9	70	-7.6	17	30	985.5	NA	0.0000	UP	5000	0	0	0	3770
2017/06/17 15:30:00	BASE	10.27	258	12.81	273	-2.9	70	-7.6	15	26	985.5	NA	0.0000	UP	3100	360	0	0	0
2017/06/17 15:31:00	BASE	9.47	253	12.81	273	-3.0	71	-7.5	14	25	985.6	NA	0.0000	UP	1500	0	0	0	1380
2017/06/17 15:32:00	BASE	9.05	252	12.81	273	-3.2	73	-7.4	13	23	985.5	NA	0.0000	-SN	1000	0	0	0	890
2017/06/17 15:33:00	BASE	8.16	251	12.81	273	-3.3	74	-7.2	12	21	985.6	NA	0.0000	-SN	1000	0	0	0	1180
2017/06/17 15:34:00	BASE	8.18	253	12.81	273	-3.4	76	-7.0	10	18	985.5	NA	0.0000	-SN	1300	0	0	0	1740
2017/06/17 15:35:00	BASE	8.70	254	12.81	273	-3.5	78	-6.8	7	14	985.5	NA	0.0000	-SN	1400	0	0	0	1440
2017/06/17 15:36:00	BASE	8.82	260	12.81	273	-3.6	80	-6.6	5	10	985.4	NA	0.0000	-SN	1700	0	0	0	1250
2017/06/17 15:37:00	BASE	9.45	266	12.81	273	-3.6	81	-6.4	5	9	985.4	NA	0.0000	-SN	1300	0	0	0	820
2017/06/17 15:38:00	BASE	9.46	267	12.81	273	-3.7	82	-6.3	6	12	985.3	NA	0.0000	-SN	1300	0	0	0	590
2017/06/17 15:39:00	BASE	8.74	273	11.06	251	-3.8	83	-6.2	11	22	985.3	NA	0.0000	-SN	1300	0	0	0	620
2017/06/17 15:40:00	BASE	7.85	281	10.80	251	-3.9	84	-6.2	18	33	985.2	NA	0.0000	-SN	1500	0	0	0	560
2017/06/17 15:41:00	BASE	6.94	283	10.70	252	-4.1	85	-6.3	23	40	985.2	NA	0.0000	-SN BR	2700	3610	0	0	0
2017/06/17 15:42:00	BASE	6.44	280	10.44	263	-4.1	85	-6.2	25	44	985.2	NA	0.0000	-SN BR	9999	6170	10990	0	0
2017/06/17 15:43:00	BASE	6.35	277	10.44	263	-4.2	86	-6.2	26	45	985.2	NA	0.0000	-SN BR	9999	6630	10790	0	0
2017/06/17 15:44:00	BASE	6.42	277	10.44	263	-4.2	86	-6.2	25	44	985.2	NA	0.0000	-SN BR	9999	10760	0	0	0
2017/06/17 15:45:00	BASE	6.38	279	10.44	263	-4.2	87	-6.1	23	42	985.2	NA	0.0000	-SN BR	9999	2200	10660	0	0
2017/06/17 15:46:00	BASE	6.06	280	10.44	263	-4.2	87	-6.1	21	40	985.2	NA	0.0000	-SN BR	9999	3080	0	0	0
2017/06/17 15:47:00	BASE	5.71	280	9.77	265	-4.2	87	-6.0	19	36	985.2	NA	0.0000	-SN BR	9999	790	2920	0	0
2017/06/17 15:48:00	BASE	5.90	282	9.62	275	-4.1	87	-5.9	17	34	985.1	NA	0.0000	-SN BR	9999	2820	0	0	0
2017/06/17 15:49:00	BASE	6.31	284	7.87	289	-4.0	88	-5.8	16	33	985.1	NA	0.0000	-SN BR	9999	2850	0	0	0
2017/06/17 15:50:00	BASE	6.34	287	7.15	277	-4.0	88	-5.7	15	33	985.0	NA	0.0000	-SN	9999	2660	0	0	0
2017/06/17 15:51:00	BASE	6.10	288	7.05	280	-3.9	88	-5.6	15	33	984.9	NA	0.0000		9999	2460	3380	0	0
2017/06/17 15:52:00	BASE	6.21	288	7.05	280	-3.8	88	-5.5	15	33	984.9	NA	0.0000		9999	2300	3050	11090	0
2017/06/17 15:53:00	BASE	6.35	290	7.05	280	-3.8	88	-5.4	14	33	984.9	NA	0.0000		9999	11060	0	0	0
2017/06/17 15:54:00	BASE	6.46	291	7.41	286	-3.7	89	-5.3	14	33	984.8	NA	0.0000		9999	11060	0	0	0
2017/06/17 15:55:00	BASE	6.76	291	7.41	291	-3.7	89	-5.3	15	33	984.8	NA	0.0000		9999	10930	0	0	0
2017/06/17 15:56:00	BASE	6.59	290	7.41	291	-3.7	89	-5.3	15	34	984.8	NA	0.0000		9999	11060	0	0	0
2017/06/17 15:57:00	BASE	6.19	289	7.41	291	-3.7	89	-5.3	16	35	984.8	NA	0.0000		9999	11090	0	0	0
2017/06/17 15:58:00	BASE	5.98	289	7.41	291	-3.7	89	-5.2	17	36	984.8	NA	0.0000		9999	11090	0	0	0
2017/06/17 15:59:00	BASE	6.29	289	7.41	291	-3.6	89	-5.2	17	37	984.7	NA	0.0000		9999	11020	0	0	0
2017/06/17 16:00:00	BASE	6.30	287	7.41	291	-3.6	89	-5.2	18	37	984.7	NA	0.0000		9999	10990	0	0	0
2017/06/17 16:01:00	BASE	6.21	281	7.51	274	-3.6	89	-5.1	19	38	984.8	NA	0.0000		9999	10990	11520	0	0
2017/06/17 16:02:00	BASE	6.03	276	7.51	274	-3.5	89	-5.1	20	40	984.7	NA	0.0000		9999	6270	10960	0	0
2017/06/17 16:03:00	BASE	5.69	276	7.51	274	-3.5	89	-5.1	21	41	984.7	NA	0.0000		9999	11220	0	0	0
2017/06/17 16:04:00	BASE	6.01	275	7.51	274	-3.5	88	-5.1	24	44	984.6	NA	0.0000		9999	6400	11060	0	0
2017/06/17 16:05:00	BASE	6.38	273	7.51	274	-3.5	88	-5.1	25	46	984.6	NA	0.0000		9999	1210	6230	0	0
2017/06/17 16:06:00	BASE	6.78	273	7.77	269	-3.4	88	-5.2	26	47	984.5	NA	0.0000		9999	10700	11290	0	0
2017/06/17 16:07:00	BASE	6.83	270	7.77	269	-3.4	88	-5.2	27	48	984.6	NA	0.0000		9999	10700	0	0	0
2017/06/17 16:08:00	BASE	6.32	266	7.77	269	-3.4	87	-5.2	28	49	984.6	NA	0.0000		9999	10760	0	0	0
2017/06/17 16:09:00	BASE	6.14	267	7.77	269	-3.4	87	-5.2	27	47	984.6	NA	0.0000		9999	5740	10730	0	0
2017/06/17 16:10:00	BASE	6.33	269	7.77	269	-3.4	87	-5.3	25	45	984.6	NA	0.0000		9999	5480	0	0	0
2017/06/17 16:11:00	BASE	5.82	268	7.77	269	-3.3	86	-5.3	23	43	984.6	NA	0.0000		9999	3150	0	0	0
2017/06/17 16:12:00	BASE	5.78	267	7.77	269	-3.3	86	-5.3	22	41	984.5	NA	0.0000		9999	3120	5450	0	0
2017/06/17 16:13:00	BASE	6.76	272	8.75	267	-3.2	85	-5.3	21	38	984.4	NA	0.0000		9999	3120	4630	5740	0
2017/06/17 16:14:00	BASE	7.90	271	9.31	263	-3.2	85	-5.4	19	37	984.4	NA	0.0000		9999	4170	5180	0	0
2017/06/17 16:15:00	BASE	9.08	264	10.96	257	-3.2	85	-5.4	18	34	984.3	NA	0.0000		9999	3640	0	0	0
2017/06/17 16:16:00	BASE	9.44	256	10.96	257	-3.2	84	-5.5	16	32	984.3	NA	0.0000		9999	1710	3380	0	0
2017/06/17 16:17:00	BASE	9.03	250	10.96	257	-3.2	84	-5.5	15	31	984.3	NA	0.0000	-SN	8000	3020	0	0	0
2017/06/17 16:18:00	BASE	8.51	250	10.96	257	-3.3	83	-5.7	15	30	984.3	NA	0.0000	-SN	7000	2100	3310	0	0
2017/06/17 16:19:00	BASE	7.99	252	10.96	257	-3.3	83	-5.8	15	31	984.3	NA	0.0000	-SN	9999	2130	0	0	0
2017/06/17 16:20:00	BASE	7.55	254	10.96	257	-3.4	83	-5.9	15	32	984.3	NA	0.0000	-SN	9999	2950	3740	0	0
2017/06/17 16:21:00	BASE	7.85	258	10.96	257	-3.5	83	-6.0	15	31	984.3	NA	0.0000	-SN	9999	2790	0	0	0
2017/06/17 16:22:00	BASE	9.01	258	10.96	257	-3.6	83	-6.0	15	31	984.1	NA	0.0000	-SN	9999	3020	10370	0	0
2017/06/17 16:23:00	BASE	9.46	257	10.96	257	-3.6	83	-6.0	14	30	984.2	NA	0.0000	-SN	9999	3120	10400	0	0
2017/06/17 16:24:00	BASE	9.28	258	10.96	257	-3.5	83	-6.0	14	30	984.1	NA	0.0000	-SN	9999	2690	10470	0	0
2017/06/17 16:25:00	BASE	9.06	260	10.85	252	-3.5	82	-6.0	14	30	984.1	NA	0.0000	-SN	9999	10430	0	0	0
2017/06/17 16:26:00	BASE	8.94	260	10.75	263	-3.4	82	-6.1	15	30	984.0	NA	0.0000	-SN	9999	5870	10430	0	0
2017/06/17 16:27:00	BASE	8.84	262	10.75	263	-3.4	81	-6.1	16	32	984.0	NA	0.0000		9999	10500	0	0	0
2017/06/17 16:28:00	BASE	8.53	263	10.75	263	-3.4	80	-6.2	16	32	984.0	NA	0.0000		9999	6330	10430	0	0
2017/06/17 16:29:00	BASE	8.97	261	10.75	263	-3.3	80	-6.3	17	33	983.9	NA	0.0000		9999	5380	10430	0	0
2017/06/17 16:30:00	BASE	8.94	262	10.75	263	-3.3	79	-6.4	18	34	983.9	NA	0.0000		9999	10340	0	0	0
2017/06/17 16:31:00	BASE	8.60	262	10.75	263	-3.3	79	-6.4	18	33	983.9	NA	0.0000		9999	3380	10430	0	0
2017/06/17 16:32:00	BASE	8.51	263	10.75	263	-3.2	78	-6.5	17	33	983.9	NA	0.0000		9999	3480	0	0	0
2017/06/17 16:33:00	BASE	8.69	263	10.75	263	-3.2	78	-6.5	17	31	983.9	NA	0.0000		9999	2850	4040	0	0
2017/06/17 16:34:00	BASE	8.85	263	10.75	263	-3.1	77	-6.5	15	29	983.9	NA	0.0000		9999	2790	0	0	0
2017/06/17 16:35:00	BASE	8.41	262	10.55	259	-3.1	77	-6.6	13	26	983.9	NA	0.0000		9999	3610	0	0	0
2017/06/17 16:36:00	BASE	8.25	260	10.55	259	-3.1	77	-6.6	11	23	983.9	NA	0.0000		9999	3510	0	0	0
2017/06/17 16:37:00	BASE	8.19	262	10.55	259	-3.1	76	-6.7	10	21	983.8	NA	0.0000		9999	2000	0	0	0
2017/06/17 16:38:00	BASE	7.78	266	10.55	259	-3.1	76	-6.7	9	20	983.8	NA	0.0000		9999	2620	0	0	0
2017/06/17 16:39:00	BASE	7.67	270	10.39	260	-3.1	76	-6.7	9	19	983.7	NA	0.0000		9999	2850	0	0	0
2017/06/17 16:40:00	BASE	7.72	268	10.39	260	-3.1	76	-6.7	8	18	983.7	NA	0.0000		9999	2850	0	0	0
2017/06/17 16:41:00	BASE	7.14	265	10.39	260	-3.1	76	-6.7	8	18	983.7	NA	0.0000		9999	3020	0	0	0
2017/06/17 16:42:00	BASE	7.00	266	10.39	260	-3.1	77	-6.6	7	17	983.7	NA	0.0000		9999	3020	0	0	0
2017/06/17 16:43:00	BASE	6.60	264	9.67	265	-3.1	77	-6.6	7	16	983.7	NA	0.0000		9999	2560	0	0	0
2017/06/17 16:44:00	BASE	5.87	259	9.57	254	-3.1	77	-6.5	7	16	983.7	NA	0.0000		9999	2660	0	0	0
2017/06/17 16:45:00	BASE	6.10	260	9.31	259	-3.1	77	-6.5	7	16	983.7	NA	0.0000		9999	2620	0	0	0
2017/06/17 16:46:00	BASE	6.44	265	9.31	259	-3.1	78	-6.4	7	16	983.7	NA	0.0000		9999	2620	0	0	0
2017/06/17 16:47:00	BASE	6.76	264	8.64	271	-3.1	78	-6.4	7	17	983.7	NA	0.0000		9999	2300	0	0	0
2017/06/17 16:48:00	BASE	7.01	262	8.64	271	-3.2	78	-6.4	7	18	983.7	NA	0.0000		9999	2400	3150	0	0
2017/06/17 16:49:00	BASE	7.25	259	8.75	261	-3.2	78	-6.5	8	18	983.7	NA	0.0000		9999	2400	3120	0	0
2017/06/17 16:50:00	BASE	7.53	259	8.75	261	-3.2	78	-6.5	8	18	983.7	NA	0.0000		9999	2990	0	0	0
2017/06/17 16:51:00	BASE	7.74	263	9.05	264	-3.2	78	-6.5	8	17	983.6	NA	0.0000		9999	590	0	0	0
2017/06/17 16:52:00	BASE	7.39	260	9.05	264	-3.2	78	-6.5	7	16	983.6	NA	0.0000		9999	920	0	0	0
2017/06/17 16:53:00	BASE	6.78	255	9.05	264	-3.2	78	-6.4	6	14	983.6	NA	0.0000		9999	520	1840	0	0
2017/06/17 16:54:00	BASE	7.08	253	9.77	254	-3.1	78	-6.4	5	12	983.6	NA	0.0000		9999	590	0	0	0
2017/06/17 16:55:00	BASE	7.78	252	10.03	252	-3.1	78	-6.4	5	11	983.6	NA	0.0000	-SN	6000	330	0	0	0
2017/06/17 16:56:00	BASE	7.82	256	10.03	252	-3.2	79	-6.4	5	12	983.6	NA	0.0000	-SN	3600	2330	0	0	0
2017/06/17 16:57:00	BASE	7.58	263	10.03	252	-3.2	79	-6.3	6	14	983.5	NA	0.0000	-SN	3500	260	0	0	0
2017/06/17 16:58:00	BASE	8.37	269	10.03	252	-3.2	79	-6.3	7	16	983.5	NA	0.0000	-SN	3000	300	0	0	0
2017/06/17 16:59:00	BASE	8.66	269	10.03	252	-3.3	80	-6.3	9	18	983.5	NA	0.0000	-SN	4200	0	0	0	3380
2017/06/17 17:00:00	BASE	7.95	273	10.03	252	-3.4	80	-6.3	10	22	983.5	NA	0.0000	-SN	8000	0	0	0	3580
2017/06/17 17:01:00	BASE	7.26	275	10.03	252	-3.4	81	-6.3	11	23	983.5	NA	0.0000	-SN	9999	2170	0	0	0
2017/06/17 17:02:00	BASE	6.94	274	10.03	252	-3.5	81	-6.3	12	25	983.4	NA	0.0000	-SN	9999	2760	0	0	0
2017/06/17 17:03:00	BASE	7.26	273	10.03	252	-3.5	81	-6.3	12	27	983.4	NA	0.0000	-SN	9999	3220	0	0	0
2017/06/17 17:04:00	BASE	7.15	271	10.03	252	-3.5	81	-6.3	12	26	983.4	NA	0.0000	-SN	9999	3410	0	0	0
2017/06/17 17:05:00	BASE	6.48	275	9.62	263	-3.5	81	-6.3	12	26	983.4	NA	0.0000	-SN	9999	3380	0	0	0
2017/06/17 17:06:00	BASE	6.82	279	9.62	263	-3.5	81	-6.2	11	24	983.3	NA	0.0000	-SN	9999	2820	4130	0	0
2017/06/17 17:07:00	BASE	7.36	279	9.62	263	-3.4	81	-6.2	10	23	983.3	NA	0.0000	-SN	9999	2300	3940	0	0
2017/06/17 17:08:00	BASE	7.05	278	9.41	270	-3.4	81	-6.2	10	22	983.2	NA	0.0000	-SN	9999	2850	4230	0	0
2017/06/17 17:09:00	BASE	7.37	277	9.11	266	-3.3	81	-6.2	10	22	983.2	NA	0.0000		9999	2460	3150	4300	0
2017/06/17 17:10:00	BASE	8.08	275	9.11	266	-3.3	80	-6.2	10	21	983.1	NA	0.0000		9999	2230	3120	0	0
2017/06/17 17:11:00	BASE	8.27	275	9.21	280	-3.3	80	-6.2	10	21	983.1	NA	0.0000		9999	2170	3770	0	0
2017/06/17 17:12:00	BASE	8.15	276	9.21	280	-3.2	80	-6.2	11	22	983.1	NA	0.0000		9999	2130	3310	0	0
2017/06/17 17:13:00	BASE	8.44	276	10.39	277	-3.2	79	-6.3	12	23	983.1	NA	0.0000		9999	2230	0	0	0
2017/06/17 17:14:00	BASE	9.08	273	10.75	269	-3.2	79	-6.3	14	25	983.0	NA	0.0000		9999	2130	0	0	0
2017/06/17 17:15:00	BASE	8.69	270	10.75	269	-3.2	78	-6.4	15	28	983.0	NA	0.0000		9999	2170	3310	0	0
2017/06/17 17:16:00	BASE	8.38	271	10.75	269	-3.1	78	-6.5	16	30	983.0	NA	0.0000		9999	2170	4430	0	0
2017/06/17 17:17:00	BASE	8.66	270	10.75	269	-3.1	77	-6.5	16	30	982.9	NA	0.0000		9999	2690	4760	0	0
2017/06/17 17:18:00	BASE	8.97	271	10.75	269	-3.1	77	-6.6	16	30	982.9	NA	0.0000		9999	4760	0	0	0
2017/06/17 17:19:00	BASE	9.00	273	10.75	269	-3.2	76	-6.8	15	28	982.8	NA	0.0000		9999	4860	0	0	0
2017/06/17 17:20:00	BASE	8.97	275	11.11	272	-3.2	76	-6.9	14	28	982.8	NA	0.0000		9999	4990	0	0	0
2017/06/17 17:21:00	BASE	10.01	275	11.63	272	-3.2	75	-7.1	14	27	982.7	NA	0.0000		9999	3250	0	0	0
2017/06/17 17:22:00	BASE	10.87	271	12.14	268	-3.2	74	-7.2	13	25	982.7	NA	0.0000		9999	3080	0	0	0
2017/06/17 17:23:00	BASE	10.87	271	12.14	268	-3.2	74	-7.2	12	23	982.7	NA	0.0000		9999	2030	0	0	0
2017/06/17 17:24:00	BASE	11.71	272	13.84	271	-3.2	74	-7.1	11	21	982.6	NA	0.0000		6000	2170	0	0	0
2017/06/17 17:25:00	BASE	12.49	271	13.84	271	-3.2	75	-7.1	8	17	982.6	NA	0.0000	-SN	2300	330	2170	0	0
2017/06/17 17:26:00	BASE	11.68	270	13.84	271	-3.2	76	-6.9	6	13	982.6	NA	0.0000	-SN	1000	0	0	0	2660
2017/06/17 17:27:00	BASE	10.57	272	13.84	271	-3.3	77	-6.7	5	11	982.6	NA	0.0000	-SN	0550	0	0	0	1020
2017/06/17 17:28:00	BASE	9.95	271	13.84	271	-3.4	79	-6.5	5	10	982.7	NA	0.0000	-SN	0550	0	0	0	950
2017/06/17 17:29:00	BASE	8.82	266	13.84	271	-3.5	80	-6.5	4	9	982.8	NA	0.0000	-SN	0650	0	0	0	1050
2017/06/17 17:30:00	BASE	7.44	266	13.84	271	-3.6	81	-6.3	5	10	982.8	NA	0.0000	-SN	0800	0	0	0	1120
2017/06/17 17:31:00	BASE	7.12	272	13.84	271	-3.7	83	-6.2	5	11	982.8	NA	0.0000	-SN	1200	0	0	0	1410
2017/06/17 17:32:00	BASE	7.29	280	13.84	271	-3.7	84	-6.1	6	12	982.7	NA	0.0000	SN	1800	0	0	0	2000
2017/06/17 17:33:00	BASE	7.64	283	13.84	271	-3.8	84	-6.0	7	14	982.6	NA	0.0000	SN	3100	300	0	0	0
2017/06/17 17:34:00	BASE	8.37	286	13.12	271	-3.8	85	-5.9	9	17	982.5	NA	0.0000	-SN BR	9000	590	0	0	0
2017/06/17 17:35:00	BASE	10.11	289	12.24	283	-3.8	86	-5.8	10	20	982.3	NA	0.0000	-SN BR	9999	1740	2330	0	0
2017/06/17 17:36:00	BASE	10.96	288	12.24	283	-3.8	86	-5.8	11	21	982.4	NA	0.0000	-SN BR	9999	2790	0	0	0
2017/06/17 17:37:00	BASE	10.77	286	12.24	284	-3.7	86	-5.7	11	22	982.3	NA	0.0000	-SN BR	9999	2100	3670	0	0
2017/06/17 17:38:00	BASE	10.32	282	12.24	284	-3.7	86	-5.8	11	22	982.4	NA	0.0000	-SN BR	9999	1900	0	0	0
2017/06/17 17:39:00	BASE	9.44	278	12.24	284	-3.7	86	-5.8	11	22	982.4	NA	0.0000	-SN BR	9999	1940	2460	0	0
2017/06/17 17:40:00	BASE	9.36	276	12.24	284	-3.7	85	-5.8	11	22	982.5	NA	0.0000	-SN BR	9999	1900	4200	0	0
2017/06/17 17:41:00	BASE	8.98	271	12.24	284	-3.6	85	-5.9	12	21	982.5	NA	0.0000	-SN BR	9999	2200	3710	5180	0
2017/06/17 17:42:00	BASE	8.13	266	12.24	284	-3.6	84	-6.0	11	22	982.6	NA	0.0000	-SN	9999	3840	4920	0	0
2017/06/17 17:43:00	BASE	7.59	270	12.24	284	-3.5	83	-6.0	11	21	982.5	NA	0.0000		9999	4000	4860	0	0
2017/06/17 17:44:00	BASE	8.32	273	12.24	284	-3.5	82	-6.1	11	21	982.5	NA	0.0000		9999	4720	0	0	0
2017/06/17 17:45:00	BASE	8.91	273	12.24	284	-3.4	81	-6.2	11	21	982.4	NA	0.0000		9999	5020	0	0	0
2017/06/17 17:46:00	BASE	7.92	275	12.24	284	-3.4	80	-6.3	11	20	982.4	NA	0.0000		9999	5120	0	0	0
2017/06/17 17:47:00	BASE	7.64	276	10.75	272	-3.4	80	-6.4	10	20	982.4	NA	0.0000		9999	4720	5250	6370	0
2017/06/17 17:48:00	BASE	8.03	276	10.75	272	-3.4	79	-6.5	10	19	982.3	NA	0.0000		9999	4430	0	0	0
2017/06/17 17:49:00	BASE	8.41	276	10.75	272	-3.4	78	-6.6	9	18	982.2	NA	0.0000		9999	2130	0	0	0
2017/06/17 17:50:00	BASE	8.91	276	10.24	266	-3.3	78	-6.7	9	17	982.2	NA	0.0000		9999	2330	4890	0	0
2017/06/17 17:51:00	BASE	9.18	274	10.24	266	-3.4	77	-6.8	8	16	982.1	NA	0.0000		9999	5120	0	0	0
2017/06/17 17:52:00	BASE	9.38	271	10.70	263	-3.4	77	-6.9	8	15	982.1	NA	0.0000		9999	5150	5940	0	0
2017/06/17 17:53:00	BASE	8.93	268	10.70	263	-3.3	76	-6.9	7	14	982.1	NA	0.0000		9999	9320	0	0	0
2017/06/17 17:54:00	BASE	7.92	268	10.70	263	-3.3	76	-6.9	7	14	982.1	NA	0.0000		9999	8100	0	0	0
2017/06/17 17:55:00	BASE	8.18	272	10.70	263	-3.3	76	-7.0	7	13	982.0	NA	0.0000		9999	8790	0	0	0
2017/06/17 17:56:00	BASE	8.91	271	10.70	263	-3.3	76	-6.9	7	12	982.1	NA	0.0000		9999	2300	0	0	0
2017/06/17 17:57:00	BASE	8.12	271	10.70	263	-3.3	76	-6.9	6	12	982.1	NA	0.0000		9999	2130	3740	0	0
2017/06/17 17:58:00	BASE	7.18	276	10.70	263	-3.3	76	-6.9	6	11	982.1	NA	0.0000		9999	2030	0	0	0
2017/06/17 17:59:00	BASE	7.68	281	10.70	263	-3.2	76	-6.9	6	11	982.0	NA	0.0000		9999	1940	0	0	0
2017/06/17 18:00:00	BASE	8.05	280	10.70	263	-3.2	76	-6.9	6	11	982.0	NA	0.0000		9999	2070	3180	0	0
2017/06/17 18:01:00	BASE	7.73	279	10.70	263	-3.2	76	-6.9	6	10	982.0	NA	0.0000		9999	2100	0	0	0
2017/06/17 18:02:00	BASE	7.74	279	9.83	273	-3.2	76	-6.8	6	10	982.0	NA	0.0000		9999	2260	0	0	0
2017/06/17 18:03:00	BASE	7.89	277	9.83	273	-3.2	76	-6.8	6	10	981.9	NA	0.0000		9999	2200	0	0	0
2017/06/17 18:04:00	BASE	7.71	277	9.83	273	-3.2	76	-6.8	6	10	981.9	NA	0.0000		9999	2170	0	0	0
2017/06/17 18:05:00	BASE	7.60	276	9.31	272	-3.2	76	-6.8	6	10	981.9	NA	0.0000		9999	2200	0	0	0
2017/06/17 18:06:00	BASE	7.66	271	9.21	286	-3.2	76	-6.9	5	9	981.9	NA	0.0000		9999	2430	0	0	0
2017/06/17 18:07:00	BASE	7.73	270	9.21	286	-3.2	76	-6.9	5	9	981.8	NA	0.0000		9999	0	0	0	6370
2017/06/17 18:08:00	BASE	7.43	274	9.21	286	-3.2	75	-6.9	5	9	981.8	NA	0.0000		9999	0	0	0	6430
2017/06/17 18:09:00	BASE	6.89	277	8.95	274	-3.2	75	-6.9	5	9	981.7	NA	0.0000		9999	0	0	0	5810
2017/06/17 18:10:00	BASE	6.88	278	8.95	274	-3.2	75	-7.0	5	8	981.7	NA	0.0000		9999	1800	0	0	0
2017/06/17 18:11:00	BASE	7.25	280	9.05	279	-3.1	75	-7.0	6	9	981.6	NA	0.0000		9999	0	0	0	5480
2017/06/17 18:12:00	BASE	7.48	280	9.05	279	-3.2	75	-7.0	5	9	981.6	NA	0.0000		9999	5250	0	0	0
2017/06/17 18:13:00	BASE	7.59	279	9.05	279	-3.2	74	-7.1	5	8	981.5	NA	0.0000		9999	0	0	0	6140
2017/06/17 18:14:00	BASE	7.79	276	9.05	279	-3.2	74	-7.1	5	8	981.5	NA	0.0000		8000	0	0	0	5150
2017/06/17 18:15:00	BASE	7.56	277	9.05	279	-3.2	74	-7.2	5	7	981.4	NA	0.0000	-SN	6000	0	0	0	4990
2017/06/17 18:16:00	BASE	8.34	282	10.24	284	-3.3	74	-7.2	5	8	981.3	NA	0.0000	-SN	9000	1050	0	0	0
2017/06/17 18:17:00	BASE	9.22	284	10.60	284	-3.3	74	-7.3	5	7	981.3	NA	0.0000	-SN	9000	1640	0	0	0
2017/06/17 18:18:00	BASE	8.99	279	10.60	284	-3.3	74	-7.3	5	6	981.3	NA	0.0000	-SN	9000	0	0	0	4200
2017/06/17 18:19:00	BASE	8.98	273	10.60	284	-3.3	74	-7.3	4	6	981.4	NA	0.0000	-SN	7000	0	0	0	4130
2017/06/17 18:20:00	BASE	8.74	271	10.60	284	-3.3	74	-7.2	4	6	981.4	NA	0.0000	-SN	5000	0	0	0	3670
2017/06/17 18:21:00	BASE	8.28	268	10.60	284	-3.3	75	-7.2	3	5	981.4	NA	0.0000	-SN	5000	0	0	0	3580
2017/06/17 18:22:00	BASE	8.02	265	10.60	284	-3.4	75	-7.1	3	4	981.4	NA	0.0000	-SN	3700	0	0	0	2430
2017/06/17 18:23:00	BASE	8.07	264	10.60	284	-3.4	76	-7.1	3	4	981.3	NA	0.0000	-SN	2800	360	0	0	0
2017/06/17 18:24:00	BASE	8.85	266	10.60	284	-3.4	76	-7.0	3	4	981.3	NA	0.0000	-SN	3300	2360	0	0	0
2017/06/17 18:25:00	BASE	9.47	270	10.60	284	-3.5	77	-6.9	3	4	981.2	NA	0.0000	-SN	2300	230	0	0	0
2017/06/17 18:26:00	BASE	9.16	273	10.60	284	-3.5	78	-6.8	3	4	981.2	NA	0.0000	-SN	1800	0	0	0	2130
2017/06/17 18:27:00	BASE	8.73	273	10.44	280	-3.5	78	-6.7	3	4	981.2	NA	0.0000	-SN	1700	0	0	0	3810
2017/06/17 18:28:00	BASE	8.71	271	10.39	272	-3.6	79	-6.6	3	4	981.2	NA	0.0000	-SN	2200	300	0	0	0
2017/06/17 18:29:00	BASE	8.43	269	10.39	272	-3.6	80	-6.6	3	4	981.2	NA	0.0000	-SN	3600	0	0	0	4230
2017/06/17 18:30:00	BASE	7.93	271	10.39	272	-3.6	81	-6.5	3	3	981.2	NA	0.0000	-SN	6000	0	0	0	4100
2017/06/17 18:31:00	BASE	7.17	269	10.39	272	-3.6	82	-6.3	3	3	981.2	NA	0.0000	-SN	6000	0	0	0	3940
2017/06/17 18:32:00	BASE	6.79	267	10.39	272	-3.6	82	-6.2	2	3	981.2	NA	0.0000	-SN	5000	260	0	0	0
2017/06/17 18:33:00	BASE	7.68	268	10.39	272	-3.6	83	-6.0	2	3	981.2	NA	0.0000	-SN	3200	230	0	0	0
2017/06/17 18:34:00	BASE	8.34	270	10.39	272	-3.6	83	-6.0	2	2	981.2	NA	0.0000	-SN	3000	260	0	0	0
2017/06/17 18:35:00	BASE	8.11	270	9.77	260	-3.6	84	-5.9	2	2	981.2	NA	0.0000	-SN	3800	300	0	0	0
2017/06/17 18:36:00	BASE	7.89	272	9.77	260	-3.6	84	-5.9	2	2	981.1	NA	0.0000	-SN	4400	390	0	0	0
2017/06/17 18:37:00	BASE	8.12	275	9.77	260	-3.7	85	-5.9	2	1	981.1	NA	0.0000	-SN BR	4400	300	0	0	0
2017/06/17 18:38:00	BASE	8.06	274	9.77	260	-3.8	85	-6.0	2	1	981.1	NA	0.0000	-SN BR	4600	260	0	0	0
2017/06/17 18:39:00	BASE	7.71	274	9.77	260	-3.8	85	-6.0	1	1	981.1	NA	0.0000	-SN BR	3300	200	0	0	0
2017/06/17 18:40:00	BASE	7.44	272	9.77	260	-3.9	85	-6.0	1	1	981.0	NA	0.0000	-SN BR	1800	0	0	0	1120
2017/06/17 18:41:00	BASE	6.75	267	9.77	260	-3.9	85	-6.0	1	1	981.0	NA	0.0000	-SN BR	1500	0	0	0	1710
2017/06/17 18:42:00	BASE	6.32	263	9.77	260	-3.9	86	-6.0	1	1	981.0	NA	0.0000	-SN BR	1400	0	0	0	1670
2017/06/17 18:43:00	BASE	6.58	263	9.05	270	-3.9	86	-5.9	2	1	981.0	NA	0.0000	-SN BR	1500	0	0	0	2200
2017/06/17 18:44:00	BASE	6.68	267	9.05	270	-3.9	86	-5.9	2	1	980.9	NA	0.0000	-SN BR	2200	260	0	0	0
2017/06/17 18:45:00	BASE	6.40	268	9.05	270	-3.9	87	-5.8	2	0	980.9	NA	0.0000	-SN BR	4900	300	0	0	0
2017/06/17 18:46:00	BASE	6.39	270	8.85	273	-4.0	87	-5.8	2	1	980.9	NA	0.0000	-SN BR	7000	300	0	0	0
2017/06/17 18:47:00	BASE	6.52	272	8.49	275	-4.0	88	-5.7	2	1	980.8	NA	0.0000	-SN BR	7000	330	0	0	0
2017/06/17 18:48:00	BASE	6.09	275	8.49	275	-4.0	88	-5.7	1	0	980.7	NA	0.0000	-SN BR	6000	0	0	0	3480
2017/06/17 18:49:00	BASE	5.58	279	8.49	275	-4.0	88	-5.6	1	1	980.6	NA	0.0000	-SN BR	6000	330	0	0	0
2017/06/17 18:50:00	BASE	5.61	280	7.87	268	-4.0	88	-5.6	1	0	980.6	NA	0.0000	-SN BR	6000	300	0	0	0
2017/06/17 18:51:00	BASE	5.73	281	7.87	268	-4.0	89	-5.6	1	0	980.5	NA	0.0000	-SN BR	5000	230	0	0	0
2017/06/17 18:52:00	BASE	5.85	282	7.87	268	-4.0	89	-5.6	1	0	980.4	NA	0.0000	-SN BR	3300	0	0	0	1280
2017/06/17 18:53:00	BASE	6.04	280	7.20	263	-4.0	89	-5.5	1	0	980.4	NA	0.0000	-SN BR	1700	0	0	0	1050
2017/06/17 18:54:00	BASE	6.47	280	7.31	283	-4.0	89	-5.5	1	0	980.4	NA	0.0000	-SN BR	1400	0	0	0	920
2017/06/17 18:55:00	BASE	7.02	279	7.51	276	-4.0	89	-5.5	1	0	980.4	NA	0.0000	-SN BR	1200	0	0	0	850
2017/06/17 18:56:00	BASE	6.88	281	7.51	276	-4.0	89	-5.5	1	0	980.4	NA	0.0000	-SN BR	1300	0	0	0	720
2017/06/17 18:57:00	BASE	6.83	286	7.82	292	-3.9	90	-5.4	1	0	980.3	NA	0.0000	-SN BR	1300	0	0	0	2460
2017/06/17 18:58:00	BASE	7.78	292	9.41	290	-3.9	90	-5.3	1	0	980.2	NA	0.0000	-SN BR	2100	330	0	0	0
2017/06/17 18:59:00	BASE	8.16	294	9.41	290	-3.9	90	-5.3	1	0	980.1	NA	0.0000	-SN BR	4400	330	0	0	0
2017/06/17 19:00:00	BASE	8.13	292	9.41	290	-3.9	90	-5.3	1	0	980.1	NA	0.0000	-SN BR	4100	300	0	0	0
2017/06/17 19:01:00	BASE	8.16	289	9.41	290	-3.9	90	-5.3	1	0	980.1	NA	0.0000	-SN BR	3400	0	0	0	1640
2017/06/17 19:02:00	BASE	7.85	288	9.41	290	-3.8	90	-5.2	1	0	980.1	NA	0.0000	-SN BR	3200	0	0	0	1570
2017/06/17 19:03:01	BASE	7.60	293	9.41	290	-3.8	90	-5.2	1	0	980.1	NA	0.0000	-SN BR	5000	0	0	0	1480
2017/06/17 19:04:00	BASE	7.51	296	9.41	290	-3.8	91	-5.1	1	0	980.1	NA	0.0000	-SN BR	8000	300	1210	0	0
2017/06/17 19:05:00	BASE	7.59	294	9.41	290	-3.7	91	-5.0	1	0	980.0	NA	0.0000	-SN BR	9999	330	0	0	0
2017/06/17 19:06:00	BASE	8.40	290	10.65	288	-3.6	91	-4.9	1	0	979.9	NA	0.0000	-SN BR	9999	1440	0	0	0
2017/06/17 19:07:00	BASE	9.58	288	10.96	292	-3.6	91	-4.8	1	0	979.9	NA	0.0000	-SN BR	9999	360	0	0	0
2017/06/17 19:08:00	BASE	9.45	286	10.96	292	-3.6	91	-4.9	1	0	979.8	NA	0.0000	-SN BR	9999	0	0	0	4460
2017/06/17 19:09:00	BASE	8.79	287	10.96	292	-3.6	91	-4.9	1	0	979.8	NA	0.0000	-SN BR	9999	360	0	0	0
2017/06/17 19:10:00	BASE	8.74	289	10.96	292	-3.6	91	-4.9	1	0	979.8	NA	0.0000	-SN BR	9999	330	1640	0	0
2017/06/17 19:11:00	BASE	8.51	289	10.96	292	-3.6	91	-4.9	1	0	979.7	NA	0.0000	-SN BR	9999	330	0	0	0
2017/06/17 19:12:00	BASE	8.42	289	10.96	292	-3.6	91	-4.9	1	0	979.7	NA	0.0000	-SN BR	9999	0	0	0	3410
2017/06/17 19:13:00	BASE	8.71	290	10.96	292	-3.6	91	-4.9	1	0	979.6	NA	0.0000		9999	0	0	0	3450
2017/06/17 19:14:00	BASE	9.09	289	10.96	292	-3.6	91	-4.9	1	0	979.6	NA	0.0000		9999	0	0	0	3510
2017/06/17 19:15:00	BASE	8.89	288	10.96	292	-3.6	91	-4.9	1	0	979.7	NA	0.0000		9000	0	0	0	3580
2017/06/17 19:16:00	BASE	8.33	289	10.96	292	-3.6	90	-4.9	1	0	979.7	NA	0.0000		9000	330	0	0	0
2017/06/17 19:17:00	BASE	8.87	291	10.29	287	-3.6	90	-5.0	1	0	979.6	NA	0.0000	BR	9000	330	0	0	0
2017/06/17 19:18:00	BASE	8.92	293	10.29	287	-3.7	90	-5.1	0	0	979.5	NA	0.0000	BR	9000	300	0	0	0
2017/06/17 19:19:00	BASE	8.80	291	10.29	287	-3.7	90	-5.1	0	0	979.5	NA	0.0000	-SN BR	6000	0	0	0	2200
2017/06/17 19:20:00	BASE	9.00	289	10.29	287	-3.7	90	-5.1	0	0	979.4	NA	0.0000	-SN BR	5000	200	0	0	0
2017/06/17 19:21:00	BASE	8.94	289	10.29	287	-3.7	90	-5.1	0	0	979.3	NA	0.0000	-SN BR	7000	230	0	0	0
2017/06/17 19:22:00	BASE	8.98	288	10.29	287	-3.7	90	-5.1	0	0	979.3	NA	0.0000	-SN BR	7000	200	0	0	0
2017/06/17 19:23:00	BASE	8.77	285	10.08	287	-3.7	90	-5.1	0	0	979.3	NA	0.0000	-SN BR	6000	0	0	0	2300
2017/06/17 19:24:00	BASE	8.42	285	10.08	287	-3.6	90	-5.0	0	0	979.3	NA	0.0000	-SN BR	5000	0	0	0	1670
2017/06/17 19:25:00	BASE	8.06	285	10.08	287	-3.6	90	-5.0	0	0	979.3	NA	0.0000	-SN BR	5000	0	0	0	2130
2017/06/17 19:26:00	BASE	8.38	284	10.08	287	-3.6	90	-5.0	0	0	979.3	NA	0.0000	-SN BR	5000	230	0	0	0
2017/06/17 19:27:00	BASE	8.76	284	10.08	287	-3.6	90	-5.0	0	0	979.3	NA	0.0000	-SN BR	6000	230	0	0	0
2017/06/17 19:28:00	BASE	8.58	285	10.08	287	-3.6	90	-4.9	0	0	979.3	NA	0.0000	-SN BR	6000	300	0	0	0
2017/06/17 19:29:00	BASE	8.65	284	10.08	287	-3.6	91	-4.9	0	0	979.3	NA	0.0000	-SN BR	8000	300	0	0	0
2017/06/17 19:30:00	BASE	8.86	290	10.08	287	-3.5	91	-4.8	0	0	979.3	NA	0.0000	-SN BR	8000	330	0	0	0
2017/06/17 19:31:00	BASE	8.98	296	10.19	289	-3.5	91	-4.8	0	0	979.2	NA	0.0000	-SN BR	8000	0	0	0	5320
2017/06/17 19:32:00	BASE	9.32	294	10.29	294	-3.6	91	-4.8	0	0	979.2	NA	0.0000	-SN BR	9000	0	0	0	6140
2017/06/17 19:33:01	BASE	9.11	289	10.29	294	-3.6	91	-4.9	0	0	979.2	NA	0.0000	-SN BR	9999	0	0	0	5970
2017/06/17 19:34:00	BASE	8.47	288	10.29	294	-3.6	91	-4.9	0	0	979.2	NA	0.0000	-SN BR	9999	0	0	0	6000
2017/06/17 19:35:00	BASE	8.14	290	10.29	294	-3.7	91	-4.9	0	0	979.1	NA	0.0000	-SN BR	9999	890	0	0	0
2017/06/17 19:36:00	BASE	8.36	296	10.29	294	-3.7	91	-4.9	0	0	979.1	NA	0.0000	-SN BR	9999	390	0	0	0
2017/06/17 19:37:00	BASE	8.85	299	10.29	294	-3.6	91	-4.9	0	0	979.1	NA	0.0000		9999	330	0	0	0
2017/06/17 19:38:00	BASE	8.94	299	10.29	294	-3.6	91	-4.9	0	0	979.1	NA	0.0000		9999	330	0	0	0
2017/06/17 19:39:00	BASE	8.72	298	10.29	294	-3.6	91	-4.8	0	0	979.1	NA	0.0000		9999	330	0	0	0
2017/06/17 19:40:00	BASE	8.19	299	10.29	294	-3.6	91	-4.8	0	0	979.1	NA	0.0000		9999	300	1180	0	0
2017/06/17 19:41:00	BASE	7.97	299	10.29	294	-3.6	91	-4.8	0	0	979.0	NA	0.0000		9999	260	0	0	0
2017/06/17 19:42:00	BASE	7.95	300	9.62	299	-3.5	91	-4.8	0	0	979.0	NA	0.0000		9999	300	0	0	0
2017/06/17 19:43:00	BASE	8.54	301	9.77	301	-3.5	91	-4.8	0	0	978.9	NA	0.0000		9999	260	1080	0	0
2017/06/17 19:44:00	BASE	9.49	300	10.08	300	-3.5	91	-4.7	0	0	978.9	NA	0.0000		9999	260	0	0	0
2017/06/17 19:45:00	BASE	9.45	301	10.08	300	-3.4	91	-4.7	0	0	978.9	NA	0.0000	-SN	8000	200	0	0	0
2017/06/17 19:46:00	BASE	9.63	302	10.80	300	-3.4	91	-4.7	0	0	978.9	NA	0.0000	-SN	6000	200	0	0	0
2017/06/17 19:47:00	BASE	9.93	303	10.80	300	-3.4	91	-4.7	0	0	978.9	NA	0.0000	-SN BR	6000	230	0	0	0
2017/06/17 19:48:00	BASE	9.59	302	10.80	300	-3.4	91	-4.7	0	0	978.9	NA	0.0000	-SN BR	7000	330	0	0	0
2017/06/17 19:49:00	BASE	9.58	298	10.80	300	-3.4	91	-4.7	0	0	978.9	NA	0.0000	-SN BR	7000	390	0	0	0
2017/06/17 19:50:00	BASE	9.80	297	10.80	300	-3.5	91	-4.7	0	0	978.9	NA	0.0000	-SN BR	7000	360	0	0	0
2017/06/17 19:51:00	BASE	9.64	297	10.80	300	-3.5	91	-4.8	0	0	978.9	NA	0.0000	-SN BR	7000	330	0	0	0
2017/06/17 19:52:00	BASE	8.94	298	10.80	300	-3.5	91	-4.8	0	0	979.0	NA	0.0000	-SN BR	7000	300	3280	0	0
2017/06/17 19:53:00	BASE	8.64	298	10.80	300	-3.5	91	-4.8	0	0	978.9	NA	0.0000	-SN BR	7000	300	2100	0	0
2017/06/17 19:54:00	BASE	9.02	299	10.80	300	-3.6	91	-4.8	0	0	978.9	NA	0.0000	-SN BR	7000	300	2000	0	0
2017/06/17 19:55:00	BASE	9.23	297	10.80	300	-3.6	91	-4.8	0	0	978.9	NA	0.0000	-SN BR	7000	330	2430	0	0
2017/06/17 19:56:00	BASE	8.87	294	10.75	299	-3.5	91	-4.8	0	0	978.8	NA	0.0000	-SN BR	7000	300	2260	0	0
2017/06/17 19:57:00	BASE	8.42	296	10.39	302	-3.6	91	-4.8	0	0	978.8	NA	0.0000	BR	7000	360	2100	0	0
2017/06/17 19:58:00	BASE	8.37	296	10.19	298	-3.6	91	-4.8	0	0	978.7	NA	0.0000	BR	7000	360	1840	0	0
2017/06/17 19:59:00	BASE	8.59	296	10.19	298	-3.6	91	-4.8	0	0	978.7	NA	0.0000	BR	7000	360	1710	0	0
2017/06/17 20:00:00	BASE	8.95	297	10.19	298	-3.6	91	-4.8	0	0	978.6	NA	0.0000	BR	6000	300	1740	0	0
2017/06/17 20:01:00	BASE	8.78	302	9.88	296	-3.6	91	-4.8	0	0	978.5	NA	0.0000	BR	6000	260	1800	0	0
2017/06/17 20:02:00	BASE	8.23	308	9.88	296	-3.6	91	-4.8	0	0	978.5	NA	0.0000	BR	6000	260	0	0	0
2017/06/17 20:03:00	BASE	8.28	311	9.88	296	-3.5	91	-4.8	0	0	978.4	NA	0.0000	-SN BR	6000	230	0	0	0
2017/06/17 20:04:00	BASE	8.78	315	10.13	314	-3.5	91	-4.8	0	0	978.3	NA	0.0000	-SN BR	7000	230	0	0	0
2017/06/17 20:05:00	BASE	9.08	316	10.19	319	-3.5	91	-4.8	0	0	978.3	NA	0.0000	-SN BR	9999	260	0	0	0
2017/06/17 20:06:00	BASE	9.27	315	10.65	316	-3.5	91	-4.8	0	0	978.3	NA	0.0000	-SN BR	9999	260	1150	0	0
2017/06/17 20:07:00	BASE	9.67	313	11.01	312	-3.5	91	-4.8	0	0	978.2	NA	0.0000	-SN BR	9999	300	0	0	0
2017/06/17 20:08:00	BASE	9.46	313	11.01	312	-3.5	91	-4.8	0	0	978.2	NA	0.0000	-SN BR	9999	260	0	0	0
2017/06/17 20:09:00	BASE	8.69	315	11.01	312	-3.6	91	-4.8	0	0	978.2	NA	0.0000	-SN BR	9999	260	0	0	0
2017/06/17 20:10:00	BASE	8.72	316	11.01	312	-3.6	91	-4.8	0	0	978.1	NA	0.0000	-SN BR	9999	230	0	0	0
2017/06/17 20:11:00	BASE	8.68	318	11.01	312	-3.6	91	-4.8	0	0	978.1	NA	0.0000	-SN BR	9999	0	0	0	2260
2017/06/17 20:12:00	BASE	8.27	318	11.01	312	-3.6	91	-4.8	0	0	978.0	NA	0.0000	-SN	9999	0	0	0	2170
2017/06/17 20:13:00	BASE	8.11	317	11.01	312	-3.6	91	-4.8	0	0	978.0	NA	0.0000	-SN	9999	200	0	0	0
2017/06/17 20:14:00	BASE	8.14	318	11.01	312	-3.6	92	-4.8	0	0	977.9	NA	0.0000	-SN	9999	230	0	0	0
2017/06/17 20:15:00	BASE	8.14	319	11.01	312	-3.6	92	-4.7	0	0	977.9	NA	0.0000	-SN	9999	230	0	0	0
2017/06/17 20:16:00	BASE	8.42	319	11.01	312	-3.6	92	-4.7	0	0	977.8	NA	0.0000	-SN	9999	0	0	0	2300
2017/06/17 20:17:00	BASE	8.85	321	9.77	320	-3.6	92	-4.7	0	0	977.7	NA	0.0000	-SN	9999	260	0	0	0
2017/06/17 20:18:00	BASE	8.73	321	9.77	320	-3.6	92	-4.7	0	0	977.6	NA	0.0000	-SN	9999	200	0	0	0
2017/06/17 20:19:00	BASE	8.44	324	9.77	320	-3.6	92	-4.7	0	0	977.5	NA	0.0000	-SN	9999	200	0	0	0
2017/06/17 20:20:00	BASE	8.40	327	9.77	320	-3.6	92	-4.7	0	0	977.5	NA	0.0000	-SN	9999	200	0	0	0
2017/06/17 20:21:00	BASE	8.64	328	9.77	320	-3.6	92	-4.7	0	0	977.4	NA	0.0000	-SN	9999	200	0	0	0
2017/06/17 20:22:00	BASE	8.43	332	9.77	320	-3.5	92	-4.6	0	0	977.4	NA	0.0000	-SN	9999	260	0	0	0
2017/06/17 20:23:00	BASE	8.08	334	9.77	320	-3.5	92	-4.7	0	0	977.3	NA	0.0000	-SN	9999	230	0	0	0
2017/06/17 20:24:00	BASE	8.30	330	9.77	320	-3.5	92	-4.7	0	0	977.3	NA	0.0000	-SN	9999	200	0	0	0
2017/06/17 20:25:00	BASE	8.75	328	9.93	328	-3.5	92	-4.6	0	0	977.3	NA	0.0000	-SN	9999	0	0	0	1350
2017/06/17 20:26:00	BASE	9.04	328	9.93	328	-3.6	92	-4.7	0	0	977.3	NA	0.0000	-SN	9999	0	0	0	1540
2017/06/17 20:27:00	BASE	8.59	326	9.93	328	-3.6	92	-4.7	0	0	977.2	NA	0.0000	-SN	9999	0	0	0	2490
2017/06/17 20:28:00	BASE	8.06	326	9.93	328	-3.5	92	-4.7	0	0	977.2	NA	0.0000	-SN	9999	0	0	0	2760
2017/06/17 20:29:00	BASE	8.16	330	9.93	328	-3.5	92	-4.7	0	0	977.2	NA	0.0000	-SN	9999	260	0	0	0
2017/06/17 20:30:00	BASE	7.87	328	9.93	328	-3.6	92	-4.7	0	0	977.2	NA	0.0000	-SN	9999	0	0	0	2030
2017/06/17 20:31:00	BASE	7.70	327	9.93	328	-3.6	92	-4.7	0	0	977.2	NA	0.0000	-SN	9999	300	0	0	0
2017/06/17 20:32:00	BASE	7.56	331	9.93	328	-3.6	92	-4.7	0	0	977.1	NA	0.0000	-SN	9999	260	0	0	0
2017/06/17 20:33:00	BASE	7.60	335	9.98	329	-3.6	92	-4.7	0	0	977.1	NA	0.0000	-SN	9999	0	0	0	1480
2017/06/17 20:34:00	BASE	8.29	334	9.98	329	-3.7	92	-4.8	0	0	977.0	NA	0.0000	-SN	9999	0	0	0	1480
2017/06/17 20:35:00	BASE	8.13	336	9.98	329	-3.7	92	-4.8	0	0	977.0	NA	0.0000	-SN	9999	0	0	0	1350
2017/06/17 20:36:00	BASE	7.53	337	9.98	329	-3.7	92	-4.8	0	0	976.9	NA	0.0000	-SN	9999	0	0	0	1410
2017/06/17 20:37:00	BASE	7.97	336	9.98	329	-3.6	92	-4.8	0	0	976.8	NA	0.0000	-SN	9999	260	0	0	0
2017/06/17 20:38:00	BASE	8.60	335	10.19	329	-3.6	92	-4.7	0	0	976.7	NA	0.0000	-SN	9999	300	0	0	0
2017/06/17 20:39:00	BASE	8.51	335	10.19	329	-3.6	92	-4.7	0	0	976.7	NA	0.0000	-SN	9999	230	0	0	0
2017/06/17 20:40:00	BASE	8.53	337	10.19	329	-3.6	92	-4.7	0	0	976.6	NA	0.0000	-SN	9999	230	0	0	0
2017/06/17 20:41:00	BASE	8.76	336	10.19	329	-3.5	92	-4.6	0	0	976.6	NA	0.0000	-SN	9999	230	0	0	0
2017/06/17 20:42:00	BASE	9.01	334	10.96	329	-3.5	92	-4.6	0	0	976.5	NA	0.0000	-SN	9999	0	0	0	1410
2017/06/17 20:43:00	BASE	9.69	331	11.57	325	-3.5	92	-4.6	0	0	976.5	NA	0.0000	-SN	9999	0	0	0	1250
2017/06/17 20:44:00	BASE	10.09	331	11.57	325	-3.4	92	-4.5	0	0	976.5	NA	0.0000	-SN	9999	0	0	0	1210
2017/06/17 20:45:00	BASE	10.18	331	11.78	331	-3.4	92	-4.5	0	0	976.5	NA	0.0000	-SN	9999	0	0	0	1180
2017/06/17 20:46:00	BASE	9.76	328	11.78	331	-3.3	91	-4.5	0	0	976.5	NA	0.0000	-SN	9999	0	0	0	1250
2017/06/17 20:47:00	BASE	9.35	327	11.78	331	-3.3	91	-4.5	0	0	976.5	NA	0.0000	-SN	9999	0	0	0	1280
2017/06/17 20:48:00	BASE	9.87	327	11.78	331	-3.3	91	-4.5	0	0	976.4	NA	0.0000	-SN	9999	0	0	0	1150
2017/06/17 20:49:00	BASE	10.11	328	11.78	331	-3.2	91	-4.5	0	0	976.4	NA	0.0000	-SN	9999	0	0	0	1180
2017/06/17 20:50:00	BASE	10.19	328	11.99	329	-3.2	91	-4.5	0	0	976.3	NA	0.0000	-SN	9999	0	0	0	1210
2017/06/17 20:51:00	BASE	10.03	329	11.99	329	-3.2	91	-4.5	0	0	976.3	NA	0.0000	-SN	9999	200	0	0	0
2017/06/17 20:52:00	BASE	9.84	331	11.99	329	-3.2	91	-4.5	0	0	976.2	NA	0.0000	-SN	9999	0	0	0	1150
2017/06/17 20:53:00	BASE	10.03	332	11.99	329	-3.2	91	-4.5	0	0	976.2	NA	0.0000	-SN	9999	230	0	0	0
2017/06/17 20:54:00	BASE	9.84	332	11.99	329	-3.3	91	-4.5	0	0	976.1	NA	0.0000	-SN	9999	0	0	0	1310
2017/06/17 20:55:00	BASE	9.98	330	11.99	329	-3.3	91	-4.5	0	0	976.0	NA	0.0000	-SN	9999	0	0	0	1310
2017/06/17 20:56:00	BASE	10.00	331	11.99	329	-3.3	91	-4.5	0	0	976.0	NA	0.0000	-SN	9999	0	0	0	1350
2017/06/17 20:57:00	BASE	9.93	332	11.99	329	-3.3	91	-4.5	0	0	976.0	NA	0.0000	-SN	9999	0	0	0	1510
2017/06/17 20:58:00	BASE	10.33	329	11.99	329	-3.3	91	-4.5	0	0	975.9	NA	0.0000	-SN	9999	0	0	0	1670
2017/06/17 20:59:00	BASE	10.46	328	11.99	329	-3.3	91	-4.5	0	0	975.9	NA	0.0000	-SN	9999	0	0	0	1570
2017/06/17 21:00:00	BASE	10.35	325	11.94	323	-3.2	92	-4.4	0	0	975.8	NA	0.0000	-SN	9999	0	0	0	1640
2017/06/17 21:01:00	BASE	11.33	320	13.27	315	-3.2	92	-4.3	0	0	975.7	NA	0.0000	-SN	7000	0	0	0	1800
2017/06/17 21:02:00	BASE	12.25	316	13.84	303	-3.1	92	-4.2	0	0	975.7	NA	0.0000	-SN BR	5000	0	0	0	2430
2017/06/17 21:03:00	BASE	12.66	313	14.46	315	-3.0	92	-4.1	0	0	975.6	NA	0.0000	-SN BR	5000	0	0	0	2660
2017/06/17 21:04:00	BASE	13.02	313	14.46	315	-3.0	92	-4.1	0	0	975.6	NA	0.0000	-SN BR	4700	0	0	0	2820
2017/06/17 21:05:00	BASE	12.24	312	14.46	315	-2.9	92	-4.0	0	0	975.6	NA	0.0000	-SN BR	4700	0	0	0	2690
2017/06/17 21:06:00	BASE	11.96	310	14.46	315	-2.9	92	-4.0	0	0	975.6	NA	0.0000	-SN BR	4700	0	0	0	2590
2017/06/17 21:07:00	BASE	12.50	311	14.46	315	-2.9	92	-4.0	0	0	975.5	NA	0.0000	-SN BR	4800	0	0	0	2400
2017/06/17 21:08:00	BASE	12.57	312	14.46	315	-2.9	92	-4.0	0	0	975.5	NA	0.0000	-SN BR	4700	0	0	0	2170
2017/06/17 21:09:00	BASE	12.13	313	14.46	315	-2.9	92	-4.0	0	0	975.5	NA	0.0000	-SN BR	4700	230	0	0	0
2017/06/17 21:10:00	BASE	11.97	313	14.46	315	-2.8	92	-3.9	0	0	975.4	NA	0.0000	-SN BR	4700	0	0	0	2230
2017/06/17 21:11:00	BASE	11.69	312	14.46	315	-2.8	92	-3.9	0	0	975.4	NA	0.0000	-SN BR	4700	230	0	0	0
2017/06/17 21:12:00	BASE	11.24	313	14.46	315	-2.8	93	-3.8	0	0	975.4	NA	0.0000	-SN BR	4700	0	0	0	2300
2017/06/17 21:13:00	BASE	11.24	317	14.15	312	-2.8	93	-3.8	0	0	975.4	NA	0.0000	-SN BR	4700	0	0	0	2330
2017/06/17 21:14:00	BASE	11.96	320	14.15	312	-2.8	93	-3.7	0	0	975.3	NA	0.0000	-SN BR	4700	0	0	0	2260
2017/06/17 21:15:00	BASE	11.63	319	14.15	312	-2.8	93	-3.7	0	0	975.3	NA	0.0000	-SN BR	4700	0	0	0	2230
2017/06/17 21:16:00	BASE	10.80	319	14.15	312	-2.8	93	-3.7	0	0	975.2	NA	0.0000	-SN BR	4700	0	0	0	2070
2017/06/17 21:17:00	BASE	11.83	320	14.15	312	-2.8	93	-3.8	0	0	975.1	NA	0.0000	-SN BR	4700	0	0	0	2000
2017/06/17 21:18:00	BASE	12.57	321	13.84	325	-2.8	93	-3.8	0	0	975.0	NA	0.0000	-SN BR	4600	0	0	0	1840
2017/06/17 21:19:00	BASE	12.44	322	13.84	325	-2.9	93	-3.8	0	0	975.0	NA	0.0000	BR	4600	0	0	0	1710
2017/06/17 21:20:00	BASE	12.19	322	13.84	325	-2.9	93	-3.9	0	0	975.0	NA	0.0000	BR	4600	0	0	0	1540
2017/06/17 21:21:00	BASE	12.12	320	13.84	318	-2.9	93	-3.9	0	0	974.9	NA	0.0000	BR	4600	0	0	0	1410
2017/06/17 21:22:00	BASE	12.84	319	14.51	322	-2.9	93	-3.9	0	0	974.8	NA	0.0000	BR	4600	0	0	0	1310
2017/06/17 21:23:00	BASE	12.67	319	14.51	322	-2.9	93	-3.8	0	0	974.9	NA	0.0000	BR	4600	0	0	0	1380
2017/06/17 21:24:00	BASE	11.86	315	14.51	322	-2.8	93	-3.8	0	0	974.7	NA	0.0000	-SN BR	4600	0	0	0	1210
2017/06/17 21:25:00	BASE	12.22	311	14.51	322	-2.8	93	-3.8	0	0	974.7	NA	0.0000	-SN BR	4500	0	0	0	1180
2017/06/17 21:26:00	BASE	12.01	311	14.51	322	-2.8	93	-3.7	0	0	974.7	NA	0.0000	-SN BR	4300	0	0	0	1350
2017/06/17 21:27:00	BASE	11.21	314	14.51	322	-2.7	93	-3.7	0	0	974.7	NA	0.0000	-SN BR	4500	0	0	0	1410
2017/06/17 21:28:00	BASE	11.18	320	14.51	322	-2.7	93	-3.7	0	0	974.6	NA	0.0000	-SN BR	5000	0	0	0	1640
2017/06/17 21:29:00	BASE	11.19	325	14.51	322	-2.7	93	-3.7	0	0	974.6	NA	0.0000	-SN BR	7000	0	0	0	1670
2017/06/17 21:30:00	BASE	12.00	328	14.66	327	-2.7	93	-3.7	0	0	974.4	NA	0.0000	-SN BR	8000	0	0	0	1770
2017/06/17 21:31:00	BASE	12.52	327	14.66	327	-2.7	93	-3.7	0	0	974.4	NA	0.0000	-SN BR	9999	0	0	0	1640
2017/06/17 21:32:00	BASE	12.86	329	15.90	329	-2.7	93	-3.7	0	0	974.2	NA	0.0000	-SN BR	9999	0	0	0	1670
2017/06/17 21:33:00	BASE	13.60	332	15.90	329	-2.7	93	-3.7	0	0	974.1	NA	0.0000	-SN BR	9999	0	0	0	1740
2017/06/17 21:34:00	BASE	13.62	332	15.90	329	-2.7	93	-3.7	0	0	974.1	NA	0.0000	-SN BR	9999	0	0	0	1540
2017/06/17 21:35:00	BASE	13.44	334	15.90	329	-2.7	93	-3.7	0	0	974.1	NA	0.0000	-SN BR	9999	0	0	0	1440
2017/06/17 21:36:00	BASE	13.45	333	15.90	329	-2.7	93	-3.7	0	0	974.1	NA	0.0000	-SN BR	9999	0	0	0	1840
2017/06/17 21:37:00	BASE	13.41	330	15.90	329	-2.7	93	-3.7	0	0	974.1	NA	0.0000	-SN BR	9999	0	0	0	1770
2017/06/17 21:38:00	BASE	13.17	330	15.90	329	-2.7	93	-3.7	0	0	974.1	NA	0.0000	-SN	9999	0	0	0	1800
2017/06/17 21:39:00	BASE	13.21	330	15.90	329	-2.7	93	-3.7	0	0	974.1	NA	0.0000	-SN	9999	0	0	0	1710
2017/06/17 21:40:00	BASE	13.26	328	15.90	329	-2.7	93	-3.6	0	0	974.1	NA	0.2540	-SN	9999	0	0	0	1740
2017/06/17 21:41:00	BASE	13.11	327	15.90	329	-2.6	93	-3.6	0	0	974.0	NA	0.0000	-SN	9999	0	0	0	1670
2017/06/17 21:42:00	BASE	13.20	327	15.18	325	-2.6	93	-3.6	0	0	974.0	NA	0.0000	-SN	9999	0	0	0	1710
2017/06/17 21:43:00	BASE	13.45	326	15.84	317	-2.5	93	-3.5	0	0	973.9	NA	0.0000	-SN	9999	0	0	0	1670
2017/06/17 21:44:00	BASE	13.51	324	15.84	317	-2.5	93	-3.5	0	0	973.9	NA	0.0000	-SN	9999	0	0	0	1640
2017/06/17 21:45:00	BASE	13.03	323	15.84	317	-2.4	93	-3.4	0	0	973.9	NA	0.0000	-SN	9999	0	0	0	1540
2017/06/17 21:46:00	BASE	13.08	320	16.05	328	-2.4	93	-3.4	0	0	973.8	NA	0.0000	-SN	9999	0	0	0	1440
2017/06/17 21:47:00	BASE	14.29	317	17.44	317	-2.3	93	-3.3	0	0	973.8	NA	0.0000	-SN	7000	0	0	0	1440
2017/06/17 21:48:00	BASE	14.82	318	17.44	317	-2.3	93	-3.3	0	0	973.9	NA	0.0000	-SN BR	4300	0	0	0	1480
2017/06/17 21:49:00	BASE	14.54	319	17.44	317	-2.2	93	-3.2	0	0	973.9	NA	0.0000	-SN BR	4300	0	0	0	1380
2017/06/17 21:50:00	BASE	14.39	316	17.44	317	-2.2	93	-3.2	0	0	974.0	NA	0.0000	-SN BR	4300	0	0	0	1150
2017/06/17 21:51:00	BASE	14.52	311	17.44	317	-2.1	93	-3.1	0	0	974.1	NA	0.0000	-SN BR	4300	0	0	0	1050
2017/06/17 21:52:00	BASE	15.02	306	17.44	317	-2.1	93	-3.1	0	0	974.1	NA	0.0000	-SN BR	3500	0	0	0	1120
2017/06/17 21:53:00	BASE	14.73	298	17.44	317	-2.0	93	-3.0	0	0	974.4	NA	0.0000	-SN BR	2700	0	0	0	1280
2017/06/17 21:54:00	BASE	13.21	293	17.44	317	-1.9	93	-2.9	0	0	974.6	NA	0.0000	-SN BR	2700	0	0	0	1150
2017/06/17 21:55:00	BASE	11.83	295	17.44	317	-1.9	93	-2.9	0	0	974.7	NA	0.0000	-SN BR	2400	0	0	0	1020
2017/06/17 21:56:00	BASE	11.11	293	17.44	317	-1.8	93	-2.8	0	0	974.7	NA	0.0000	-SN BR	2100	0	0	0	950
2017/06/17 21:57:00	BASE	11.48	294	16.87	312	-1.8	93	-2.8	0	0	974.5	NA	0.0000	-SN BR	2300	0	0	0	980
2017/06/17 21:58:00	BASE	11.41	289	16.87	312	-1.7	93	-2.7	0	0	974.7	NA	0.0000	-SN BR	1700	0	0	0	1020
2017/06/17 21:59:00	BASE	9.09	263	16.87	312	-1.7	93	-2.7	0	0	974.8	NA	0.0000	-SN BR	1400	0	0	0	980
2017/06/17 22:00:00	BASE	8.23	240	16.87	312	-1.7	93	-2.7	0	0	974.8	NA	0.0000	-SN BR	2800	330	0	0	0
2017/06/17 22:01:00	BASE	9.55	241	16.87	312	-1.7	93	-2.7	0	0	974.8	NA	0.0000	-SN BR	5000	360	0	0	0
2017/06/17 22:02:00	BASE	9.18	245	15.74	299	-1.7	93	-2.7	0	0	974.8	NA	0.0000	-SN BR	8000	2920	0	0	0
2017/06/17 22:03:00	BASE	9.33	247	14.04	294	-1.7	93	-2.7	0	0	974.7	NA	0.0000	-SN BR	9999	2200	2620	0	0
2017/06/17 22:04:00	BASE	9.86	246	13.68	303	-1.8	93	-2.8	0	0	974.7	NA	0.0000	-SN BR	9999	2170	0	0	0
2017/06/17 22:05:00	BASE	9.62	248	13.68	303	-1.8	93	-2.8	0	0	974.7	NA	0.0000	-SN BR	9999	750	0	0	0
2017/06/17 22:06:00	BASE	9.41	250	13.68	303	-1.8	93	-2.8	0	0	974.8	NA	0.0000	-SN BR	9999	1350	2000	0	0
2017/06/17 22:07:00	BASE	9.46	248	12.91	289	-1.9	93	-2.8	0	0	974.8	NA	0.0000	-SN BR	9999	1020	0	0	0
2017/06/17 22:08:00	BASE	9.56	246	12.40	240	-1.8	93	-2.8	0	0	974.8	NA	0.0000	-SN BR	9999	430	0	0	0
2017/06/17 22:09:00	BASE	11.07	241	15.90	237	-1.8	93	-2.8	0	0	974.8	NA	0.0000	-SN BR	9999	1770	0	0	0
2017/06/17 22:10:00	BASE	12.98	237	15.90	237	-1.9	93	-2.9	0	0	974.9	NA	0.0000	-SN	9999	3810	0	0	0
2017/06/17 22:11:00	BASE	12.34	240	15.90	237	-1.9	93	-2.9	0	0	975.0	NA	0.0000	-SN	9999	4200	5510	0	0
2017/06/17 22:12:00	BASE	11.69	239	15.90	237	-1.9	93	-2.9	0	0	975.0	NA	0.0000		9999	3510	5640	6560	0
2017/06/17 22:13:00	BASE	11.31	237	15.90	237	-2.0	93	-3.0	0	0	975.0	NA	0.0000		9999	3150	4560	6500	0
2017/06/17 22:14:00	BASE	10.70	240	15.90	237	-2.0	93	-3.0	0	0	975.0	NA	0.0000		9999	1610	4790	6530	0
2017/06/17 22:15:00	BASE	11.48	238	15.90	237	-2.0	93	-3.0	0	0	975.0	NA	0.0000		9999	5970	6660	0	0
2017/06/17 22:16:00	BASE	12.17	233	15.90	237	-2.0	93	-3.0	0	0	975.1	NA	0.0000		9999	5870	6760	0	0
2017/06/17 22:17:00	BASE	11.62	232	15.90	237	-2.0	93	-3.1	0	0	975.2	NA	0.0000		9999	5450	5940	0	0
2017/06/17 22:18:00	BASE	11.36	229	15.90	237	-2.0	92	-3.1	0	0	975.2	NA	0.0000		9999	3870	5350	0	0
2017/06/17 22:19:00	BASE	11.71	228	14.97	237	-2.0	92	-3.1	0	0	975.2	NA	0.0000		9999	3350	4070	0	0
2017/06/17 22:20:00	BASE	12.48	230	14.20	228	-2.0	92	-3.2	0	0	975.2	NA	0.2540		9999	4300	0	0	0
2017/06/17 22:21:00	BASE	12.06	229	14.20	228	-2.0	92	-3.2	0	0	975.2	NA	0.0000		9999	3640	4530	0	0
2017/06/17 22:22:00	BASE	11.13	228	14.20	228	-2.0	92	-3.2	0	0	975.2	NA	0.0000		9999	4100	0	0	0
2017/06/17 22:23:00	BASE	12.64	230	15.18	228	-2.0	91	-3.3	0	0	975.1	NA	0.0000		9999	3610	0	0	0
2017/06/17 22:24:00	BASE	13.91	228	15.23	225	-2.0	91	-3.3	0	0	975.1	NA	0.0000		9999	3020	3580	0	0
2017/06/17 22:25:00	BASE	12.94	224	15.23	225	-2.0	90	-3.4	0	0	975.1	NA	0.0000		9999	1970	0	0	0
2017/06/17 22:26:00	BASE	13.09	230	15.38	242	-2.0	90	-3.4	0	0	975.1	NA	0.0000		9999	1870	2690	0	0
2017/06/17 22:27:00	BASE	13.85	234	16.36	241	-2.0	90	-3.5	0	0	975.1	NA	0.0000		9999	690	0	0	0
2017/06/17 22:28:00	BASE	13.54	231	16.36	241	-2.0	89	-3.5	0	0	975.2	NA	0.0000	-SN	8000	330	1770	0	0
2017/06/17 22:29:00	BASE	13.92	231	16.62	240	-2.0	89	-3.5	0	0	975.2	NA	0.0000	-SN BR	4100	0	0	0	2130
2017/06/17 22:30:00	BASE	14.20	231	16.62	240	-2.0	89	-3.6	0	0	975.3	NA	0.0000	-SN BR	2500	0	0	0	2170
2017/06/17 22:31:00	BASE	13.54	230	16.62	240	-2.0	88	-3.6	0	0	975.4	NA	0.0000	-SN BR	3200	390	0	0	0
2017/06/17 22:32:00	BASE	13.30	231	16.62	240	-2.0	88	-3.7	0	0	975.4	NA	0.0000	-SN BR	7000	330	0	0	0
2017/06/17 22:33:00	BASE	13.16	231	16.62	240	-2.1	88	-3.8	0	0	975.3	NA	0.0000	-SN BR	8000	2400	0	0	0
2017/06/17 22:34:00	BASE	12.46	230	16.62	240	-2.2	88	-3.9	0	0	975.4	NA	0.0000	-SN BR	9999	2560	0	0	0
2017/06/17 22:35:00	BASE	12.40	229	16.62	240	-2.3	88	-4.0	0	0	975.3	NA	0.0000	-SN BR	9999	2760	0	0	0
2017/06/17 22:36:00	BASE	13.02	227	16.62	240	-2.4	88	-4.1	0	0	975.3	NA	0.0000	-SN BR	9999	2720	0	0	0
2017/06/17 22:37:00	BASE	12.70	226	16.62	240	-2.4	88	-4.2	0	0	975.4	NA	0.0000	-SN BR	9999	2720	0	0	0
2017/06/17 22:38:00	BASE	12.21	226	16.62	240	-2.4	87	-4.2	0	0	975.3	NA	0.0000	-SN BR	9999	2660	3250	0	0
2017/06/17 22:39:00	BASE	11.74	225	16.00	226	-2.4	87	-4.3	0	0	975.4	NA	0.0000	-SN BR	9999	2620	0	0	0
2017/06/17 22:40:00	BASE	11.17	226	16.00	226	-2.4	87	-4.3	0	0	975.4	NA	0.0000	-SN BR	9999	3050	0	0	0
2017/06/17 22:41:00	BASE	11.54	230	16.00	226	-2.4	87	-4.3	0	0	975.4	NA	0.0000	-SN	9999	2460	3150	0	0
2017/06/17 22:42:00	BASE	11.49	233	16.00	226	-2.3	86	-4.3	0	0	975.4	NA	0.0000	-SN	9999	3050	0	0	0
2017/06/17 22:43:00	BASE	10.56	231	16.00	226	-2.3	86	-4.3	0	0	975.4	NA	0.0000	-SN	9999	3220	0	0	0
2017/06/17 22:44:00	BASE	10.76	230	16.00	226	-2.3	85	-4.4	0	0	975.4	NA	0.0000	-SN	9999	2890	0	0	0
2017/06/17 22:45:00	BASE	11.35	232	16.00	226	-2.2	85	-4.4	0	0	975.4	NA	0.0000	-SN	9999	2820	0	0	0
2017/06/17 22:46:00	BASE	10.91	235	14.51	232	-2.2	84	-4.5	0	0	975.4	NA	0.0000	-SN	9999	3380	0	0	0
2017/06/17 22:47:00	BASE	10.62	233	13.74	226	-2.1	84	-4.5	0	0	975.3	NA	0.0000		9999	3540	0	0	0
2017/06/17 22:48:00	BASE	11.06	233	13.74	226	-2.1	83	-4.5	0	0	975.3	NA	0.0000		9999	3540	0	0	0
2017/06/17 22:49:00	BASE	10.71	236	13.94	242	-2.0	83	-4.6	0	0	975.3	NA	0.0000		9999	3250	3970	0	0
2017/06/17 22:50:00	BASE	11.06	237	13.94	242	-2.0	82	-4.6	0	0	975.3	NA	0.0000		9999	2720	3350	0	0
2017/06/17 22:51:00	BASE	11.81	234	13.94	242	-2.0	82	-4.6	0	0	975.3	NA	0.0000		9999	2720	3580	0	0
2017/06/17 22:52:00	BASE	10.71	233	13.94	242	-1.9	82	-4.7	0	0	975.3	NA	0.0000		9999	2660	3150	0	0
2017/06/17 22:53:00	BASE	10.22	234	13.94	242	-1.9	81	-4.7	0	0	975.3	NA	0.0000		9999	2590	3610	0	0
2017/06/17 22:54:00	BASE	10.90	237	13.94	242	-1.9	81	-4.7	0	0	975.3	NA	0.0000		9999	4460	0	0	0
2017/06/17 22:55:00	BASE	10.89	239	13.94	242	-1.9	81	-4.8	0	0	975.2	NA	0.0000		9999	3740	0	0	0
2017/06/17 22:56:00	BASE	9.80	238	13.94	242	-1.9	80	-4.8	0	0	975.2	NA	0.0000		9999	3710	0	0	0
2017/06/17 22:57:00	BASE	9.21	236	13.94	242	-1.8	80	-4.8	0	0	975.3	NA	0.0000		9999	2790	0	0	0
2017/06/17 22:58:00	BASE	10.80	233	14.20	219	-1.8	79	-4.9	0	0	975.3	NA	0.0000		9999	2400	0	0	0
2017/06/17 22:59:00	BASE	14.56	232	18.16	234	-1.8	79	-4.9	0	0	975.1	NA	0.0000		9999	2230	0	0	0
2017/06/17 23:00:00	BASE	16.15	235	18.16	234	-1.8	79	-5.0	0	0	975.2	NA	0.0000	-SN	7000	2890	0	0	0
2017/06/17 23:01:00	BASE	15.59	234	18.16	234	-1.9	79	-5.1	0	0	975.2	NA	0.0000	-SN	6000	2360	3280	0	0
2017/06/17 23:02:00	BASE	14.91	233	18.16	234	-1.9	79	-5.2	0	0	975.3	NA	0.0000	-SN	5000	2400	0	0	0
2017/06/17 23:03:00	BASE	15.43	232	20.89	223	-2.0	79	-5.3	0	0	975.3	NA	0.0000	-SN	5000	1180	0	0	0
2017/06/17 23:04:00	BASE	16.65	231	20.89	223	-2.1	79	-5.3	0	0	975.3	NA	0.0000	-SN	4400	2260	0	0	0
2017/06/17 23:05:00	BASE	16.75	231	20.89	223	-2.2	79	-5.4	0	0	975.3	NA	0.0000	-SN	3400	2200	3180	0	0
2017/06/17 23:06:00	BASE	17.17	229	20.89	223	-2.4	79	-5.5	0	0	975.3	NA	0.0000	-SN	3700	2890	3710	0	0
2017/06/17 23:07:00	BASE	17.08	227	20.89	223	-2.5	79	-5.6	0	0	975.4	NA	0.0000	-SN	4600	3740	0	0	0
2017/06/17 23:08:00	BASE	15.54	231	20.89	223	-2.6	80	-5.6	0	0	975.6	NA	0.0000	-SN	5000	2890	3480	0	0
2017/06/17 23:09:00	BASE	15.00	233	20.89	223	-2.7	80	-5.7	0	0	975.6	NA	0.0000	-SN	5000	2620	3220	0	0
2017/06/17 23:10:00	BASE	16.07	233	20.89	223	-2.7	80	-5.7	0	0	975.6	NA	0.0000	-SN	5000	2850	0	0	0
2017/06/17 23:11:00	BASE	16.80	234	20.89	223	-2.8	80	-5.8	0	0	975.6	NA	0.0000	-SN	4600	3450	0	0	0
2017/06/17 23:12:00	BASE	16.87	234	21.30	232	-2.8	80	-5.8	0	0	975.7	NA	0.0000	-SN	3800	3640	0	0	0
2017/06/17 23:13:00	BASE	16.47	233	21.30	232	-2.8	79	-5.9	0	0	975.7	NA	0.0000	-SN	3900	2590	3670	0	0
2017/06/17 23:14:00	BASE	15.97	232	21.30	232	-2.8	79	-5.9	0	0	975.7	NA	0.0000	-SN	4300	3900	0	0	0
2017/06/17 23:15:00	BASE	16.62	233	21.30	232	-2.9	79	-6.0	0	0	975.7	NA	0.0000	-SN	5000	3870	0	0	0
2017/06/17 23:16:00	BASE	17.33	232	21.30	232	-2.9	79	-6.1	0	0	975.7	NA	0.0000	-SN	4200	3970	0	0	0
2017/06/17 23:17:00	BASE	16.18	232	21.30	232	-3.0	78	-6.2	0	0	975.8	NA	0.0000	-SN	4200	3970	0	0	0
2017/06/17 23:18:00	BASE	15.06	233	21.30	232	-3.0	78	-6.3	0	0	975.9	NA	0.0000	-SN	4300	3020	3610	0	0
2017/06/17 23:19:00	BASE	13.65	236	21.30	232	-3.0	78	-6.4	0	0	975.9	NA	0.0000	-SN	4200	3810	0	0	0
2017/06/17 23:20:00	BASE	13.06	237	21.30	232	-3.0	77	-6.4	0	0	975.9	NA	0.0000	-SN	4200	4040	0	0	0
2017/06/17 23:21:00	BASE	14.63	237	21.30	232	-3.0	77	-6.5	0	0	975.8	NA	0.0000	-SN	4100	3770	0	0	0
2017/06/17 23:22:00	BASE	14.82	239	19.03	232	-2.9	76	-6.5	0	0	975.8	NA	0.0000	-SN	4100	3670	0	0	0
2017/06/17 23:23:00	BASE	13.73	243	19.03	232	-2.9	76	-6.6	0	0	975.8	NA	0.0000	-SN	4000	3810	0	0	0
2017/06/17 23:24:00	BASE	14.36	245	19.03	232	-2.9	75	-6.7	0	0	975.7	NA	0.0000	-SN	4200	3310	4000	0	0
2017/06/17 23:25:00	BASE	15.47	241	19.03	232	-2.9	75	-6.8	0	0	975.8	NA	0.0000	-SN	4400	3280	4200	0	0
2017/06/17 23:26:00	BASE	15.19	237	17.70	223	-2.9	74	-6.9	0	0	976.0	NA	0.0000	-SN	4000	2850	3350	0	0
2017/06/17 23:27:00	BASE	14.40	233	17.49	240	-2.9	74	-6.9	0	0	976.0	NA	0.0000	-SN	4000	3580	0	0	0
2017/06/17 23:28:00	BASE	14.91	231	17.95	233	-2.9	74	-7.0	0	0	976.1	NA	0.0000	-SN	4000	4100	0	0	0
2017/06/17 23:29:00	BASE	15.35	233	17.95	233	-3.0	74	-7.0	0	0	976.2	NA	0.0000	-SN	3900	4330	0	0	0
2017/06/17 23:30:00	BASE	13.63	233	17.95	233	-3.0	73	-7.1	0	0	976.3	NA	0.0000	-SN	3900	3080	0	0	0
2017/06/17 23:31:00	BASE	12.87	228	17.95	233	-3.0	73	-7.1	0	0	976.3	NA	0.0000	-SN	3900	3250	0	0	0
2017/06/17 23:32:00	BASE	13.93	224	17.95	233	-3.0	73	-7.1	0	0	976.4	NA	0.0000	-SN	3900	3640	0	0	0
2017/06/17 23:33:00	BASE	14.90	226	17.95	233	-3.0	73	-7.1	0	0	976.4	NA	0.0000	-SN	3800	3150	3870	0	0
2017/06/17 23:34:00	BASE	14.83	230	17.95	233	-3.0	73	-7.2	0	0	976.5	NA	0.0000	-SN	3800	3480	0	0	0
2017/06/17 23:35:00	BASE	12.85	232	17.95	233	-3.0	73	-7.2	0	0	976.5	NA	0.0000	HZ	3800	3380	0	0	0
2017/06/17 23:36:00	BASE	11.73	229	17.95	233	-3.0	72	-7.3	0	0	976.5	NA	0.0000	HZ	3800	3250	0	0	0
2017/06/17 23:37:00	BASE	11.37	224	17.95	233	-3.0	72	-7.4	0	0	976.5	NA	0.0000	HZ	4800	2430	0	0	0
2017/06/17 23:38:00	BASE	10.12	226	17.18	235	-3.1	72	-7.5	0	0	976.6	NA	0.0000	HZ	9999	2200	0	0	0
2017/06/17 23:39:00	BASE	9.90	230	16.82	227	-3.0	71	-7.5	0	0	976.5	NA	0.0000	HZ	9999	1970	0	0	0
2017/06/17 23:40:00	BASE	11.38	232	16.82	227	-3.0	71	-7.5	0	0	976.5	NA	0.0000	HZ	9999	1150	0	0	0
2017/06/17 23:41:00	BASE	11.88	229	16.82	227	-3.0	71	-7.6	0	0	976.6	NA	0.0000	HZ	9999	2720	0	0	0
2017/06/17 23:42:00	BASE	12.03	230	16.82	227	-3.0	71	-7.6	0	0	976.6	NA	0.0000	HZ	9999	2490	0	0	0
2017/06/17 23:43:00	BASE	13.40	222	16.36	209	-3.0	71	-7.5	0	0	976.6	NA	0.0000	HZ	7000	360	0	0	0
2017/06/17 23:44:00	BASE	14.10	215	16.36	209	-3.0	72	-7.3	0	0	976.7	NA	0.0000	-SN	4100	260	0	0	0
2017/06/17 23:45:00	BASE	13.97	221	16.36	209	-2.9	72	-7.2	0	0	976.7	NA	0.0000	-SN	4000	430	0	0	0
2017/06/17 23:46:00	BASE	15.00	224	18.31	220	-2.9	73	-7.1	0	0	976.7	NA	0.0000	-SN	6000	2790	3350	0	0
2017/06/17 23:47:00	BASE	15.90	223	18.31	220	-3.0	74	-7.1	0	0	976.7	NA	0.0000	-SN	6000	3380	0	0	0
2017/06/17 23:48:00	BASE	16.14	225	18.88	231	-3.1	74	-7.1	0	0	976.6	NA	0.0000	-SN	6000	3220	0	0	0
2017/06/17 23:49:00	BASE	16.32	225	18.88	231	-3.3	74	-7.2	0	0	976.7	NA	0.0000	-SN	6000	3220	0	0	0
2017/06/17 23:50:00	BASE	15.84	222	18.88	231	-3.4	74	-7.4	0	0	976.7	NA	0.0000	-SN	7000	2620	3380	0	0
2017/06/17 23:51:00	BASE	15.52	220	18.88	231	-3.5	74	-7.5	0	0	976.7	NA	0.0000	-SN	7000	2590	0	0	0
2017/06/17 23:52:00	BASE	16.70	218	20.37	226	-3.5	73	-7.5	0	0	976.6	NA	0.0000	-SN	7000	2400	3510	0	0
2017/06/17 23:53:00	BASE	17.95	216	20.99	213	-3.4	73	-7.5	0	0	976.6	NA	0.0000	-SN	6000	3220	0	0	0
2017/06/17 23:54:00	BASE	18.55	215	21.81	217	-3.4	73	-7.6	0	0	976.6	NA	0.0000	-SN	5000	3350	0	0	0
2017/06/17 23:55:00	BASE	18.85	213	21.81	217	-3.5	73	-7.6	0	0	976.7	NA	0.0000	-SN	4800	3250	0	0	0
2017/06/17 23:56:00	BASE	18.35	210	21.81	217	-3.5	73	-7.7	0	0	976.9	NA	0.0000	-SN	6000	3450	0	0	0
2017/06/17 23:57:00	BASE	16.33	211	21.81	217	-3.6	73	-7.7	0	0	977.0	NA	0.0000	-SN	7000	3020	4000	0	0
2017/06/17 23:58:00	BASE	16.46	213	21.81	217	-3.7	73	-7.8	0	0	976.9	NA	0.0000	-SN	7000	3380	0	0	0
2017/06/17 23:59:00	BASE	17.03	217	21.81	217	-3.7	73	-7.8	0	0	977.0	NA	0.0000	-SN	7000	2990	3540	0	0